<?xml version="1.0" encoding="UTF-8" standalone="no" ?>
<gpx xmlns="http://www.topografix.com/GPX/1/1" xmlns:xsi="http://www.w3.org/2001/XMLSchema-instance" xsi:schemaLocation="http://www.topografix.com/GPX/1/1 http://www.topografix.com/GPX/1/1/gpx.xsd" version="1.1" creator="VisuGPX - https://www.visugpx.com">
  <metadata>
    <name>Rando : Croix St Jean Versant nord depuis Reynier</name>
    <desc><![CDATA[A reynier prendre le départ de piste qui longe à droite la belle maison restaurée . Suivre jusqu\'à la fontaine de Pouille puis gagner à vue le pylone sur la crête au trou des Dagues.Suivre le fil jusqu\'à la croix St Jean vue admirable tout le long de Montagne Sainte victoire , Lure, Ventoux , Hautes Alpes et Ecrins . Pour la descente : de la croix gagner le sentier qui parcours le versant nord en se dirigeant à vue vers la bergerie de Prémarché . Là deux options 
-Option 1 : GPS indispensable car le chemin est totalement envahi par la végétation et perdu dans les drailles des moutons 
Prendre à droite peu avant la bergerie le sentier qui se dirige vers une réserve d\'eau, à la côte 1549 là obliquer à gauche et suivre au mieux la trace GPS qui suit l\'ex sentier.[b]Attention[/b] [i]au bas des pentes risque de s\'embarquer dans des ravines épuisantes ou des barres dangereuses si on quitte la  trace [/i]
-Option 2: [b]RECOMMANDEE[/b] : A la bergerie de Prémarché suivre le chemin bien tracé qui conduit à la fontaine des Pouilles et de là suivre l\'itinéraire de départ]]></desc>
  </metadata>
  <trk>
    <name><![CDATA[N°  Croix St Jean depuis Reynier]]></name>
    <trkseg>
      <trkpt lat="44.30333" lon="6.11324">
        <ele>869.169189</ele>
        <time>2011-09-06T07:15:34Z</time>
      </trkpt>
      <trkpt lat="44.30315" lon="6.11323">
        <ele>867.727051</ele>
        <time>2011-09-06T07:15:36Z</time>
      </trkpt>
      <trkpt lat="44.30316" lon="6.11322">
        <ele>866.765869</ele>
        <time>2011-09-06T07:16:17Z</time>
      </trkpt>
      <trkpt lat="44.30318" lon="6.11307">
        <ele>866.285156</ele>
        <time>2011-09-06T07:16:31Z</time>
      </trkpt>
      <trkpt lat="44.30319" lon="6.11305">
        <ele>870.130371</ele>
        <time>2011-09-06T07:16:32Z</time>
      </trkpt>
      <trkpt lat="44.30319" lon="6.11304">
        <ele>870.130371</ele>
        <time>2011-09-06T07:16:33Z</time>
      </trkpt>
      <trkpt lat="44.30321" lon="6.11299">
        <ele>868.688477</ele>
        <time>2011-09-06T07:16:37Z</time>
      </trkpt>
      <trkpt lat="44.30333" lon="6.11284">
        <ele>869.169189</ele>
        <time>2011-09-06T07:16:57Z</time>
      </trkpt>
      <trkpt lat="44.30334" lon="6.11282">
        <ele>868.207764</ele>
        <time>2011-09-06T07:16:59Z</time>
      </trkpt>
      <trkpt lat="44.30335" lon="6.11277">
        <ele>871.091797</ele>
        <time>2011-09-06T07:17:03Z</time>
      </trkpt>
      <trkpt lat="44.30337" lon="6.11273">
        <ele>874.456299</ele>
        <time>2011-09-06T07:17:07Z</time>
      </trkpt>
      <trkpt lat="44.30339" lon="6.11265">
        <ele>878.301758</ele>
        <time>2011-09-06T07:17:16Z</time>
      </trkpt>
      <trkpt lat="44.30339" lon="6.11264">
        <ele>878.301758</ele>
        <time>2011-09-06T07:17:17Z</time>
      </trkpt>
      <trkpt lat="44.30346" lon="6.11248">
        <ele>881.66626</ele>
        <time>2011-09-06T07:17:33Z</time>
      </trkpt>
      <trkpt lat="44.30353" lon="6.11241">
        <ele>882.627686</ele>
        <time>2011-09-06T07:17:44Z</time>
      </trkpt>
      <trkpt lat="44.30363" lon="6.11225">
        <ele>884.550293</ele>
        <time>2011-09-06T07:18:01Z</time>
      </trkpt>
      <trkpt lat="44.30368" lon="6.11221">
        <ele>883.108154</ele>
        <time>2011-09-06T07:18:04Z</time>
      </trkpt>
      <trkpt lat="44.30373" lon="6.11199">
        <ele>883.588867</ele>
        <time>2011-09-06T07:18:19Z</time>
      </trkpt>
      <trkpt lat="44.30374" lon="6.11191">
        <ele>883.108154</ele>
        <time>2011-09-06T07:18:24Z</time>
      </trkpt>
      <trkpt lat="44.30376" lon="6.11188">
        <ele>883.588867</ele>
        <time>2011-09-06T07:18:27Z</time>
      </trkpt>
      <trkpt lat="44.30379" lon="6.1118">
        <ele>883.588867</ele>
        <time>2011-09-06T07:18:33Z</time>
      </trkpt>
      <trkpt lat="44.30385" lon="6.11169">
        <ele>885.031006</ele>
        <time>2011-09-06T07:18:41Z</time>
      </trkpt>
      <trkpt lat="44.30387" lon="6.11166">
        <ele>884.550293</ele>
        <time>2011-09-06T07:18:44Z</time>
      </trkpt>
      <trkpt lat="44.30389" lon="6.11164">
        <ele>885.031006</ele>
        <time>2011-09-06T07:18:46Z</time>
      </trkpt>
      <trkpt lat="44.30393" lon="6.11162">
        <ele>885.511475</ele>
        <time>2011-09-06T07:18:50Z</time>
      </trkpt>
      <trkpt lat="44.30402" lon="6.11154">
        <ele>886.4729</ele>
        <time>2011-09-06T07:18:59Z</time>
      </trkpt>
      <trkpt lat="44.30405" lon="6.11149">
        <ele>886.953369</ele>
        <time>2011-09-06T07:19:03Z</time>
      </trkpt>
      <trkpt lat="44.30409" lon="6.11143">
        <ele>886.953369</ele>
        <time>2011-09-06T07:19:09Z</time>
      </trkpt>
      <trkpt lat="44.30412" lon="6.11141">
        <ele>886.953369</ele>
        <time>2011-09-06T07:19:12Z</time>
      </trkpt>
      <trkpt lat="44.30416" lon="6.11141">
        <ele>886.953369</ele>
        <time>2011-09-06T07:19:14Z</time>
      </trkpt>
      <trkpt lat="44.30422" lon="6.11133">
        <ele>886.953369</ele>
        <time>2011-09-06T07:19:22Z</time>
      </trkpt>
      <trkpt lat="44.30423" lon="6.1113">
        <ele>886.953369</ele>
        <time>2011-09-06T07:19:25Z</time>
      </trkpt>
      <trkpt lat="44.30427" lon="6.11117">
        <ele>886.953369</ele>
        <time>2011-09-06T07:19:35Z</time>
      </trkpt>
      <trkpt lat="44.30429" lon="6.1111">
        <ele>886.953369</ele>
        <time>2011-09-06T07:19:40Z</time>
      </trkpt>
      <trkpt lat="44.30431" lon="6.11104">
        <ele>886.953369</ele>
        <time>2011-09-06T07:19:44Z</time>
      </trkpt>
      <trkpt lat="44.3043" lon="6.11084">
        <ele>886.953369</ele>
        <time>2011-09-06T07:19:56Z</time>
      </trkpt>
      <trkpt lat="44.30429" lon="6.11076">
        <ele>887.434082</ele>
        <time>2011-09-06T07:20:02Z</time>
      </trkpt>
      <trkpt lat="44.30428" lon="6.11073">
        <ele>887.914795</ele>
        <time>2011-09-06T07:20:04Z</time>
      </trkpt>
      <trkpt lat="44.30416" lon="6.11052">
        <ele>889.837402</ele>
        <time>2011-09-06T07:20:22Z</time>
      </trkpt>
      <trkpt lat="44.30415" lon="6.11029">
        <ele>888.395508</ele>
        <time>2011-09-06T07:20:38Z</time>
      </trkpt>
      <trkpt lat="44.30417" lon="6.1102">
        <ele>888.876221</ele>
        <time>2011-09-06T07:20:44Z</time>
      </trkpt>
      <trkpt lat="44.30421" lon="6.11013">
        <ele>888.395508</ele>
        <time>2011-09-06T07:20:49Z</time>
      </trkpt>
      <trkpt lat="44.30425" lon="6.11006">
        <ele>886.953369</ele>
        <time>2011-09-06T07:20:55Z</time>
      </trkpt>
      <trkpt lat="44.30427" lon="6.10979">
        <ele>887.434082</ele>
        <time>2011-09-06T07:21:13Z</time>
      </trkpt>
      <trkpt lat="44.30427" lon="6.10974">
        <ele>887.914795</ele>
        <time>2011-09-06T07:21:17Z</time>
      </trkpt>
      <trkpt lat="44.30431" lon="6.1096">
        <ele>887.914795</ele>
        <time>2011-09-06T07:21:26Z</time>
      </trkpt>
      <trkpt lat="44.30434" lon="6.10928">
        <ele>888.395508</ele>
        <time>2011-09-06T07:21:47Z</time>
      </trkpt>
      <trkpt lat="44.30432" lon="6.1089">
        <ele>889.837402</ele>
        <time>2011-09-06T07:22:12Z</time>
      </trkpt>
      <trkpt lat="44.30431" lon="6.10877">
        <ele>888.876221</ele>
        <time>2011-09-06T07:22:20Z</time>
      </trkpt>
      <trkpt lat="44.30443" lon="6.10875">
        <ele>889.837402</ele>
        <time>2011-09-06T07:22:32Z</time>
      </trkpt>
      <trkpt lat="44.30461" lon="6.10878">
        <ele>892.240967</ele>
        <time>2011-09-06T07:22:49Z</time>
      </trkpt>
      <trkpt lat="44.30475" lon="6.1087">
        <ele>893.202148</ele>
        <time>2011-09-06T07:23:06Z</time>
      </trkpt>
      <trkpt lat="44.30489" lon="6.10865">
        <ele>895.605469</ele>
        <time>2011-09-06T07:23:22Z</time>
      </trkpt>
      <trkpt lat="44.30505" lon="6.10861">
        <ele>896.086182</ele>
        <time>2011-09-06T07:23:39Z</time>
      </trkpt>
      <trkpt lat="44.30511" lon="6.10856">
        <ele>896.566895</ele>
        <time>2011-09-06T07:23:46Z</time>
      </trkpt>
      <trkpt lat="44.30521" lon="6.10842">
        <ele>898.008789</ele>
        <time>2011-09-06T07:24:01Z</time>
      </trkpt>
      <trkpt lat="44.30523" lon="6.10836">
        <ele>898.969971</ele>
        <time>2011-09-06T07:24:06Z</time>
      </trkpt>
      <trkpt lat="44.30526" lon="6.10832">
        <ele>898.489258</ele>
        <time>2011-09-06T07:24:11Z</time>
      </trkpt>
      <trkpt lat="44.3053" lon="6.1083">
        <ele>899.931396</ele>
        <time>2011-09-06T07:24:14Z</time>
      </trkpt>
      <trkpt lat="44.30541" lon="6.10819">
        <ele>900.412109</ele>
        <time>2011-09-06T07:24:28Z</time>
      </trkpt>
      <trkpt lat="44.30554" lon="6.10802">
        <ele>901.373291</ele>
        <time>2011-09-06T07:24:47Z</time>
      </trkpt>
      <trkpt lat="44.30555" lon="6.10801">
        <ele>901.373291</ele>
        <time>2011-09-06T07:24:48Z</time>
      </trkpt>
      <trkpt lat="44.30563" lon="6.10792">
        <ele>903.776611</ele>
        <time>2011-09-06T07:25:02Z</time>
      </trkpt>
      <trkpt lat="44.30569" lon="6.10787">
        <ele>904.257324</ele>
        <time>2011-09-06T07:25:11Z</time>
      </trkpt>
      <trkpt lat="44.30575" lon="6.10778">
        <ele>904.737793</ele>
        <time>2011-09-06T07:25:24Z</time>
      </trkpt>
      <trkpt lat="44.30576" lon="6.10769">
        <ele>905.699219</ele>
        <time>2011-09-06T07:25:34Z</time>
      </trkpt>
      <trkpt lat="44.30582" lon="6.10759">
        <ele>908.102783</ele>
        <time>2011-09-06T07:25:47Z</time>
      </trkpt>
      <trkpt lat="44.30582" lon="6.10757">
        <ele>908.583252</ele>
        <time>2011-09-06T07:25:49Z</time>
      </trkpt>
      <trkpt lat="44.30584" lon="6.1075">
        <ele>908.102783</ele>
        <time>2011-09-06T07:25:55Z</time>
      </trkpt>
      <trkpt lat="44.30586" lon="6.10746">
        <ele>907.621826</ele>
        <time>2011-09-06T07:25:59Z</time>
      </trkpt>
      <trkpt lat="44.30586" lon="6.10743">
        <ele>907.621826</ele>
        <time>2011-09-06T07:26:01Z</time>
      </trkpt>
      <trkpt lat="44.30591" lon="6.10734">
        <ele>908.102783</ele>
        <time>2011-09-06T07:26:11Z</time>
      </trkpt>
      <trkpt lat="44.30601" lon="6.10723">
        <ele>910.025146</ele>
        <time>2011-09-06T07:26:27Z</time>
      </trkpt>
      <trkpt lat="44.30614" lon="6.10712">
        <ele>911.467285</ele>
        <time>2011-09-06T07:26:45Z</time>
      </trkpt>
      <trkpt lat="44.30615" lon="6.10711">
        <ele>912.428467</ele>
        <time>2011-09-06T07:26:46Z</time>
      </trkpt>
      <trkpt lat="44.30617" lon="6.10706">
        <ele>911.947998</ele>
        <time>2011-09-06T07:26:52Z</time>
      </trkpt>
      <trkpt lat="44.3062" lon="6.10698">
        <ele>913.389893</ele>
        <time>2011-09-06T07:27:01Z</time>
      </trkpt>
      <trkpt lat="44.30626" lon="6.10696">
        <ele>913.870361</ele>
        <time>2011-09-06T07:27:09Z</time>
      </trkpt>
      <trkpt lat="44.30636" lon="6.1069">
        <ele>915.793213</ele>
        <time>2011-09-06T07:27:23Z</time>
      </trkpt>
      <trkpt lat="44.30642" lon="6.10682">
        <ele>916.754395</ele>
        <time>2011-09-06T07:27:36Z</time>
      </trkpt>
      <trkpt lat="44.30647" lon="6.10675">
        <ele>920.599609</ele>
        <time>2011-09-06T07:27:49Z</time>
      </trkpt>
      <trkpt lat="44.30647" lon="6.10674">
        <ele>920.599609</ele>
        <time>2011-09-06T07:27:50Z</time>
      </trkpt>
      <trkpt lat="44.30651" lon="6.10667">
        <ele>922.522217</ele>
        <time>2011-09-06T07:28:01Z</time>
      </trkpt>
      <trkpt lat="44.30652" lon="6.10652">
        <ele>924.445068</ele>
        <time>2011-09-06T07:28:15Z</time>
      </trkpt>
      <trkpt lat="44.30645" lon="6.10658">
        <ele>926.367676</ele>
        <time>2011-09-06T07:28:28Z</time>
      </trkpt>
      <trkpt lat="44.30646" lon="6.10658">
        <ele>926.367676</ele>
        <time>2011-09-06T07:28:29Z</time>
      </trkpt>
      <trkpt lat="44.30642" lon="6.10667">
        <ele>925.886963</ele>
        <time>2011-09-06T07:28:37Z</time>
      </trkpt>
      <trkpt lat="44.30622" lon="6.10679">
        <ele>926.848389</ele>
        <time>2011-09-06T07:29:01Z</time>
      </trkpt>
      <trkpt lat="44.30616" lon="6.10683">
        <ele>928.770996</ele>
        <time>2011-09-06T07:29:10Z</time>
      </trkpt>
      <trkpt lat="44.30611" lon="6.10688">
        <ele>930.212891</ele>
        <time>2011-09-06T07:29:18Z</time>
      </trkpt>
      <trkpt lat="44.30609" lon="6.10689">
        <ele>929.251465</ele>
        <time>2011-09-06T07:29:20Z</time>
      </trkpt>
      <trkpt lat="44.30596" lon="6.10696">
        <ele>931.174316</ele>
        <time>2011-09-06T07:29:38Z</time>
      </trkpt>
      <trkpt lat="44.30581" lon="6.10699">
        <ele>932.616211</ele>
        <time>2011-09-06T07:29:57Z</time>
      </trkpt>
      <trkpt lat="44.3058" lon="6.10698">
        <ele>934.538818</ele>
        <time>2011-09-06T07:29:59Z</time>
      </trkpt>
      <trkpt lat="44.30575" lon="6.10701">
        <ele>936.461426</ele>
        <time>2011-09-06T07:30:06Z</time>
      </trkpt>
      <trkpt lat="44.3057" lon="6.10704">
        <ele>934.058105</ele>
        <time>2011-09-06T07:30:09Z</time>
      </trkpt>
      <trkpt lat="44.30568" lon="6.10707">
        <ele>935.980713</ele>
        <time>2011-09-06T07:30:11Z</time>
      </trkpt>
      <trkpt lat="44.30554" lon="6.10716">
        <ele>936.461426</ele>
        <time>2011-09-06T07:30:30Z</time>
      </trkpt>
      <trkpt lat="44.30557" lon="6.10705">
        <ele>937.90332</ele>
        <time>2011-09-06T07:30:41Z</time>
      </trkpt>
      <trkpt lat="44.30571" lon="6.10686">
        <ele>938.864746</ele>
        <time>2011-09-06T07:31:02Z</time>
      </trkpt>
      <trkpt lat="44.30578" lon="6.10672">
        <ele>942.229492</ele>
        <time>2011-09-06T07:31:19Z</time>
      </trkpt>
      <trkpt lat="44.30563" lon="6.10671">
        <ele>944.632568</ele>
        <time>2011-09-06T07:31:39Z</time>
      </trkpt>
      <trkpt lat="44.30552" lon="6.10672">
        <ele>947.997314</ele>
        <time>2011-09-06T07:31:54Z</time>
      </trkpt>
      <trkpt lat="44.30539" lon="6.10674">
        <ele>950.881104</ele>
        <time>2011-09-06T07:32:13Z</time>
      </trkpt>
      <trkpt lat="44.30527" lon="6.1068">
        <ele>953.765137</ele>
        <time>2011-09-06T07:32:32Z</time>
      </trkpt>
      <trkpt lat="44.30518" lon="6.10698">
        <ele>956.168457</ele>
        <time>2011-09-06T07:32:51Z</time>
      </trkpt>
      <trkpt lat="44.30509" lon="6.10706">
        <ele>956.168457</ele>
        <time>2011-09-06T07:33:03Z</time>
      </trkpt>
      <trkpt lat="44.3049" lon="6.10711">
        <ele>955.687744</ele>
        <time>2011-09-06T07:33:28Z</time>
      </trkpt>
      <trkpt lat="44.30479" lon="6.10717">
        <ele>957.129883</ele>
        <time>2011-09-06T07:33:48Z</time>
      </trkpt>
      <trkpt lat="44.30473" lon="6.10721">
        <ele>958.091309</ele>
        <time>2011-09-06T07:34:08Z</time>
      </trkpt>
      <trkpt lat="44.30441" lon="6.10632">
        <ele>959.533203</ele>
        <time>2011-09-06T07:35:02Z</time>
      </trkpt>
      <trkpt lat="44.30436" lon="6.10624">
        <ele>961.455811</ele>
        <time>2011-09-06T07:35:25Z</time>
      </trkpt>
      <trkpt lat="44.30429" lon="6.10622">
        <ele>964.820313</ele>
        <time>2011-09-06T07:36:25Z</time>
      </trkpt>
      <trkpt lat="44.30419" lon="6.1062">
        <ele>967.704102</ele>
        <time>2011-09-06T07:36:37Z</time>
      </trkpt>
      <trkpt lat="44.30408" lon="6.10616">
        <ele>970.107422</ele>
        <time>2011-09-06T07:36:52Z</time>
      </trkpt>
      <trkpt lat="44.30398" lon="6.10614">
        <ele>972.510986</ele>
        <time>2011-09-06T07:37:07Z</time>
      </trkpt>
      <trkpt lat="44.30397" lon="6.10614">
        <ele>972.510986</ele>
        <time>2011-09-06T07:37:08Z</time>
      </trkpt>
      <trkpt lat="44.30395" lon="6.10614">
        <ele>973.472412</ele>
        <time>2011-09-06T07:37:12Z</time>
      </trkpt>
      <trkpt lat="44.30383" lon="6.10607">
        <ele>977.798096</ele>
        <time>2011-09-06T07:37:32Z</time>
      </trkpt>
      <trkpt lat="44.30382" lon="6.10606">
        <ele>977.798096</ele>
        <time>2011-09-06T07:37:33Z</time>
      </trkpt>
      <trkpt lat="44.30371" lon="6.10598">
        <ele>980.682129</ele>
        <time>2011-09-06T07:37:50Z</time>
      </trkpt>
      <trkpt lat="44.30361" lon="6.10587">
        <ele>984.046631</ele>
        <time>2011-09-06T07:38:09Z</time>
      </trkpt>
      <trkpt lat="44.30357" lon="6.10583">
        <ele>985.969238</ele>
        <time>2011-09-06T07:38:17Z</time>
      </trkpt>
      <trkpt lat="44.30353" lon="6.10578">
        <ele>988.372803</ele>
        <time>2011-09-06T07:38:26Z</time>
      </trkpt>
      <trkpt lat="44.30353" lon="6.10565">
        <ele>988.853516</ele>
        <time>2011-09-06T07:38:37Z</time>
      </trkpt>
      <trkpt lat="44.30356" lon="6.10562">
        <ele>990.29541</ele>
        <time>2011-09-06T07:38:42Z</time>
      </trkpt>
      <trkpt lat="44.30364" lon="6.1056">
        <ele>992.218018</ele>
        <time>2011-09-06T07:38:52Z</time>
      </trkpt>
      <trkpt lat="44.30374" lon="6.10553">
        <ele>996.063232</ele>
        <time>2011-09-06T07:39:09Z</time>
      </trkpt>
      <trkpt lat="44.30379" lon="6.10548">
        <ele>996.063232</ele>
        <time>2011-09-06T07:39:17Z</time>
      </trkpt>
      <trkpt lat="44.30385" lon="6.10539">
        <ele>996.063232</ele>
        <time>2011-09-06T07:39:28Z</time>
      </trkpt>
      <trkpt lat="44.30389" lon="6.10536">
        <ele>997.505127</ele>
        <time>2011-09-06T07:39:33Z</time>
      </trkpt>
      <trkpt lat="44.304" lon="6.10521">
        <ele>1000.38916</ele>
        <time>2011-09-06T07:39:55Z</time>
      </trkpt>
      <trkpt lat="44.30401" lon="6.10517">
        <ele>1001.831055</ele>
        <time>2011-09-06T07:39:59Z</time>
      </trkpt>
      <trkpt lat="44.3039" lon="6.10512">
        <ele>1005.195801</ele>
        <time>2011-09-06T07:40:21Z</time>
      </trkpt>
      <trkpt lat="44.30387" lon="6.10512">
        <ele>1006.156982</ele>
        <time>2011-09-06T07:40:26Z</time>
      </trkpt>
      <trkpt lat="44.3038" lon="6.10517">
        <ele>1007.118408</ele>
        <time>2011-09-06T07:40:33Z</time>
      </trkpt>
      <trkpt lat="44.30369" lon="6.10511">
        <ele>1010.48291</ele>
        <time>2011-09-06T07:40:54Z</time>
      </trkpt>
      <trkpt lat="44.3036" lon="6.10517">
        <ele>1010.963623</ele>
        <time>2011-09-06T07:41:08Z</time>
      </trkpt>
      <trkpt lat="44.30346" lon="6.10524">
        <ele>1011.925049</ele>
        <time>2011-09-06T07:41:26Z</time>
      </trkpt>
      <trkpt lat="44.30332" lon="6.1052">
        <ele>1014.808838</ele>
        <time>2011-09-06T07:41:45Z</time>
      </trkpt>
      <trkpt lat="44.30327" lon="6.10514">
        <ele>1016.731445</ele>
        <time>2011-09-06T07:42:10Z</time>
      </trkpt>
      <trkpt lat="44.30325" lon="6.10512">
        <ele>1018.17334</ele>
        <time>2011-09-06T07:42:41Z</time>
      </trkpt>
      <trkpt lat="44.30326" lon="6.10501">
        <ele>1020.096191</ele>
        <time>2011-09-06T07:43:04Z</time>
      </trkpt>
      <trkpt lat="44.30326" lon="6.105">
        <ele>1021.538086</ele>
        <time>2011-09-06T07:43:06Z</time>
      </trkpt>
      <trkpt lat="44.30326" lon="6.10501">
        <ele>1024.902832</ele>
        <time>2011-09-06T07:45:27Z</time>
      </trkpt>
      <trkpt lat="44.3033" lon="6.1049">
        <ele>1028.748047</ele>
        <time>2011-09-06T07:45:57Z</time>
      </trkpt>
      <trkpt lat="44.3033" lon="6.10489">
        <ele>1028.748047</ele>
        <time>2011-09-06T07:45:58Z</time>
      </trkpt>
      <trkpt lat="44.30342" lon="6.10465">
        <ele>1032.112549</ele>
        <time>2011-09-06T07:46:25Z</time>
      </trkpt>
      <trkpt lat="44.30356" lon="6.10453">
        <ele>1034.515869</ele>
        <time>2011-09-06T07:46:43Z</time>
      </trkpt>
      <trkpt lat="44.30367" lon="6.10444">
        <ele>1036.919189</ele>
        <time>2011-09-06T07:47:00Z</time>
      </trkpt>
      <trkpt lat="44.30376" lon="6.10439">
        <ele>1040.283936</ele>
        <time>2011-09-06T07:47:13Z</time>
      </trkpt>
      <trkpt lat="44.30388" lon="6.10433">
        <ele>1041.245117</ele>
        <time>2011-09-06T07:47:29Z</time>
      </trkpt>
      <trkpt lat="44.30405" lon="6.10413">
        <ele>1044.12915</ele>
        <time>2011-09-06T07:47:51Z</time>
      </trkpt>
      <trkpt lat="44.30404" lon="6.10406">
        <ele>1045.090332</ele>
        <time>2011-09-06T07:48:00Z</time>
      </trkpt>
      <trkpt lat="44.304" lon="6.10408">
        <ele>1045.571045</ele>
        <time>2011-09-06T07:48:05Z</time>
      </trkpt>
      <trkpt lat="44.30381" lon="6.10416">
        <ele>1047.012939</ele>
        <time>2011-09-06T07:48:25Z</time>
      </trkpt>
      <trkpt lat="44.30376" lon="6.10419">
        <ele>1047.012939</ele>
        <time>2011-09-06T07:48:30Z</time>
      </trkpt>
      <trkpt lat="44.30357" lon="6.10421">
        <ele>1047.012939</ele>
        <time>2011-09-06T07:48:49Z</time>
      </trkpt>
      <trkpt lat="44.30337" lon="6.10425">
        <ele>1048.454834</ele>
        <time>2011-09-06T07:49:08Z</time>
      </trkpt>
      <trkpt lat="44.30331" lon="6.10426">
        <ele>1049.896973</ele>
        <time>2011-09-06T07:49:14Z</time>
      </trkpt>
      <trkpt lat="44.30312" lon="6.10428">
        <ele>1052.781006</ele>
        <time>2011-09-06T07:49:34Z</time>
      </trkpt>
      <trkpt lat="44.30295" lon="6.10424">
        <ele>1055.184326</ele>
        <time>2011-09-06T07:49:52Z</time>
      </trkpt>
      <trkpt lat="44.30286" lon="6.10421">
        <ele>1056.145508</ele>
        <time>2011-09-06T07:50:01Z</time>
      </trkpt>
      <trkpt lat="44.30278" lon="6.10417">
        <ele>1059.510254</ele>
        <time>2011-09-06T07:50:12Z</time>
      </trkpt>
      <trkpt lat="44.30265" lon="6.10408">
        <ele>1063.355469</ele>
        <time>2011-09-06T07:50:32Z</time>
      </trkpt>
      <trkpt lat="44.30247" lon="6.10406">
        <ele>1065.278076</ele>
        <time>2011-09-06T07:50:50Z</time>
      </trkpt>
      <trkpt lat="44.30233" lon="6.10408">
        <ele>1068.642822</ele>
        <time>2011-09-06T07:51:09Z</time>
      </trkpt>
      <trkpt lat="44.30217" lon="6.10415">
        <ele>1071.046143</ele>
        <time>2011-09-06T07:51:31Z</time>
      </trkpt>
      <trkpt lat="44.30204" lon="6.10411">
        <ele>1073.449463</ele>
        <time>2011-09-06T07:51:48Z</time>
      </trkpt>
      <trkpt lat="44.30206" lon="6.10395">
        <ele>1076.333252</ele>
        <time>2011-09-06T07:52:03Z</time>
      </trkpt>
      <trkpt lat="44.30211" lon="6.10383">
        <ele>1077.775146</ele>
        <time>2011-09-06T07:52:14Z</time>
      </trkpt>
      <trkpt lat="44.30217" lon="6.10365">
        <ele>1080.178467</ele>
        <time>2011-09-06T07:52:29Z</time>
      </trkpt>
      <trkpt lat="44.30228" lon="6.10346">
        <ele>1083.062256</ele>
        <time>2011-09-06T07:52:51Z</time>
      </trkpt>
      <trkpt lat="44.30239" lon="6.10328">
        <ele>1085.946533</ele>
        <time>2011-09-06T07:53:10Z</time>
      </trkpt>
      <trkpt lat="44.30246" lon="6.10317">
        <ele>1086.907715</ele>
        <time>2011-09-06T07:53:23Z</time>
      </trkpt>
      <trkpt lat="44.30255" lon="6.10302">
        <ele>1088.830566</ele>
        <time>2011-09-06T07:53:38Z</time>
      </trkpt>
      <trkpt lat="44.30259" lon="6.1029">
        <ele>1090.272461</ele>
        <time>2011-09-06T07:53:53Z</time>
      </trkpt>
      <trkpt lat="44.30256" lon="6.10274">
        <ele>1093.636963</ele>
        <time>2011-09-06T07:54:08Z</time>
      </trkpt>
      <trkpt lat="44.30253" lon="6.1026">
        <ele>1096.520996</ele>
        <time>2011-09-06T07:54:23Z</time>
      </trkpt>
      <trkpt lat="44.30256" lon="6.10246">
        <ele>1098.924072</ele>
        <time>2011-09-06T07:54:36Z</time>
      </trkpt>
      <trkpt lat="44.30267" lon="6.10231">
        <ele>1101.327637</ele>
        <time>2011-09-06T07:54:52Z</time>
      </trkpt>
      <trkpt lat="44.30269" lon="6.10229">
        <ele>1101.327637</ele>
        <time>2011-09-06T07:54:54Z</time>
      </trkpt>
      <trkpt lat="44.30282" lon="6.10224">
        <ele>1100.366455</ele>
        <time>2011-09-06T07:55:07Z</time>
      </trkpt>
      <trkpt lat="44.30292" lon="6.10203">
        <ele>1099.404785</ele>
        <time>2011-09-06T07:55:26Z</time>
      </trkpt>
      <trkpt lat="44.30294" lon="6.10199">
        <ele>1099.885498</ele>
        <time>2011-09-06T07:55:30Z</time>
      </trkpt>
      <trkpt lat="44.30304" lon="6.10189">
        <ele>1101.327637</ele>
        <time>2011-09-06T07:55:44Z</time>
      </trkpt>
      <trkpt lat="44.30311" lon="6.10189">
        <ele>1101.80835</ele>
        <time>2011-09-06T07:55:50Z</time>
      </trkpt>
      <trkpt lat="44.30316" lon="6.10186">
        <ele>1102.769531</ele>
        <time>2011-09-06T07:55:55Z</time>
      </trkpt>
      <trkpt lat="44.30321" lon="6.10179">
        <ele>1103.250244</ele>
        <time>2011-09-06T07:56:01Z</time>
      </trkpt>
      <trkpt lat="44.30326" lon="6.10165">
        <ele>1104.692139</ele>
        <time>2011-09-06T07:56:13Z</time>
      </trkpt>
      <trkpt lat="44.30334" lon="6.10149">
        <ele>1107.576172</ele>
        <time>2011-09-06T07:56:27Z</time>
      </trkpt>
      <trkpt lat="44.30338" lon="6.10145">
        <ele>1108.056885</ele>
        <time>2011-09-06T07:56:33Z</time>
      </trkpt>
      <trkpt lat="44.30341" lon="6.10139">
        <ele>1108.537354</ele>
        <time>2011-09-06T07:56:39Z</time>
      </trkpt>
      <trkpt lat="44.30353" lon="6.10133">
        <ele>1110.459961</ele>
        <time>2011-09-06T07:56:51Z</time>
      </trkpt>
      <trkpt lat="44.30358" lon="6.10129">
        <ele>1111.421387</ele>
        <time>2011-09-06T07:56:57Z</time>
      </trkpt>
      <trkpt lat="44.30364" lon="6.10123">
        <ele>1113.343994</ele>
        <time>2011-09-06T07:57:05Z</time>
      </trkpt>
      <trkpt lat="44.30367" lon="6.10118">
        <ele>1113.343994</ele>
        <time>2011-09-06T07:57:10Z</time>
      </trkpt>
      <trkpt lat="44.30377" lon="6.101">
        <ele>1115.266602</ele>
        <time>2011-09-06T07:57:25Z</time>
      </trkpt>
      <trkpt lat="44.30381" lon="6.10082">
        <ele>1116.70874</ele>
        <time>2011-09-06T07:57:38Z</time>
      </trkpt>
      <trkpt lat="44.30385" lon="6.10071">
        <ele>1119.592773</ele>
        <time>2011-09-06T07:57:51Z</time>
      </trkpt>
      <trkpt lat="44.30392" lon="6.10057">
        <ele>1121.034668</ele>
        <time>2011-09-06T07:58:05Z</time>
      </trkpt>
      <trkpt lat="44.30394" lon="6.10048">
        <ele>1121.515137</ele>
        <time>2011-09-06T07:58:12Z</time>
      </trkpt>
      <trkpt lat="44.30394" lon="6.10026">
        <ele>1123.437988</ele>
        <time>2011-09-06T07:58:31Z</time>
      </trkpt>
      <trkpt lat="44.30398" lon="6.10007">
        <ele>1125.360352</ele>
        <time>2011-09-06T07:58:47Z</time>
      </trkpt>
      <trkpt lat="44.30399" lon="6.09993">
        <ele>1126.80249</ele>
        <time>2011-09-06T07:58:59Z</time>
      </trkpt>
      <trkpt lat="44.30403" lon="6.09976">
        <ele>1128.725098</ele>
        <time>2011-09-06T07:59:14Z</time>
      </trkpt>
      <trkpt lat="44.30405" lon="6.09964">
        <ele>1131.128418</ele>
        <time>2011-09-06T07:59:28Z</time>
      </trkpt>
      <trkpt lat="44.30399" lon="6.0995">
        <ele>1134.493164</ele>
        <time>2011-09-06T07:59:46Z</time>
      </trkpt>
      <trkpt lat="44.30387" lon="6.09945">
        <ele>1137.376953</ele>
        <time>2011-09-06T08:00:05Z</time>
      </trkpt>
      <trkpt lat="44.30377" lon="6.09942">
        <ele>1139.780273</ele>
        <time>2011-09-06T08:00:20Z</time>
      </trkpt>
      <trkpt lat="44.30364" lon="6.09943">
        <ele>1143.144775</ele>
        <time>2011-09-06T08:00:37Z</time>
      </trkpt>
      <trkpt lat="44.30355" lon="6.0994">
        <ele>1145.548096</ele>
        <time>2011-09-06T08:00:52Z</time>
      </trkpt>
      <trkpt lat="44.30342" lon="6.09933">
        <ele>1148.432129</ele>
        <time>2011-09-06T08:01:10Z</time>
      </trkpt>
      <trkpt lat="44.30331" lon="6.09928">
        <ele>1151.316162</ele>
        <time>2011-09-06T08:01:27Z</time>
      </trkpt>
      <trkpt lat="44.30321" lon="6.09927">
        <ele>1153.719482</ele>
        <time>2011-09-06T08:01:42Z</time>
      </trkpt>
      <trkpt lat="44.30309" lon="6.09923">
        <ele>1156.122559</ele>
        <time>2011-09-06T08:01:59Z</time>
      </trkpt>
      <trkpt lat="44.30294" lon="6.09922">
        <ele>1159.487305</ele>
        <time>2011-09-06T08:02:18Z</time>
      </trkpt>
      <trkpt lat="44.30285" lon="6.09923">
        <ele>1160.448486</ele>
        <time>2011-09-06T08:02:29Z</time>
      </trkpt>
      <trkpt lat="44.30265" lon="6.09928">
        <ele>1160.929199</ele>
        <time>2011-09-06T08:02:49Z</time>
      </trkpt>
      <trkpt lat="44.30258" lon="6.09931">
        <ele>1161.409912</ele>
        <time>2011-09-06T08:02:57Z</time>
      </trkpt>
      <trkpt lat="44.30244" lon="6.09942">
        <ele>1161.409912</ele>
        <time>2011-09-06T08:03:13Z</time>
      </trkpt>
      <trkpt lat="44.3023" lon="6.09954">
        <ele>1163.812988</ele>
        <time>2011-09-06T08:03:34Z</time>
      </trkpt>
      <trkpt lat="44.30214" lon="6.09961">
        <ele>1166.697266</ele>
        <time>2011-09-06T08:03:53Z</time>
      </trkpt>
      <trkpt lat="44.30201" lon="6.09961">
        <ele>1169.581299</ele>
        <time>2011-09-06T08:04:12Z</time>
      </trkpt>
      <trkpt lat="44.3019" lon="6.0996">
        <ele>1171.984375</ele>
        <time>2011-09-06T08:04:27Z</time>
      </trkpt>
      <trkpt lat="44.30179" lon="6.09965">
        <ele>1174.868408</ele>
        <time>2011-09-06T08:04:42Z</time>
      </trkpt>
      <trkpt lat="44.30168" lon="6.09968">
        <ele>1178.23291</ele>
        <time>2011-09-06T08:05:00Z</time>
      </trkpt>
      <trkpt lat="44.30152" lon="6.09981">
        <ele>1181.117188</ele>
        <time>2011-09-06T08:05:24Z</time>
      </trkpt>
      <trkpt lat="44.30143" lon="6.09982">
        <ele>1183.520264</ele>
        <time>2011-09-06T08:05:41Z</time>
      </trkpt>
      <trkpt lat="44.30135" lon="6.09987">
        <ele>1186.884766</ele>
        <time>2011-09-06T08:05:56Z</time>
      </trkpt>
      <trkpt lat="44.30122" lon="6.09994">
        <ele>1187.365479</ele>
        <time>2011-09-06T08:06:10Z</time>
      </trkpt>
      <trkpt lat="44.30106" lon="6.10008">
        <ele>1189.288086</ele>
        <time>2011-09-06T08:06:29Z</time>
      </trkpt>
      <trkpt lat="44.30095" lon="6.10025">
        <ele>1190.249512</ele>
        <time>2011-09-06T08:06:51Z</time>
      </trkpt>
      <trkpt lat="44.3008" lon="6.10037">
        <ele>1193.133301</ele>
        <time>2011-09-06T08:07:13Z</time>
      </trkpt>
      <trkpt lat="44.30057" lon="6.10048">
        <ele>1195.055908</ele>
        <time>2011-09-06T08:07:38Z</time>
      </trkpt>
      <trkpt lat="44.30042" lon="6.10049">
        <ele>1197.940186</ele>
        <time>2011-09-06T08:07:56Z</time>
      </trkpt>
      <trkpt lat="44.3004" lon="6.10049">
        <ele>1198.901367</ele>
        <time>2011-09-06T08:07:58Z</time>
      </trkpt>
      <trkpt lat="44.3003" lon="6.1005">
        <ele>1199.862793</ele>
        <time>2011-09-06T08:08:09Z</time>
      </trkpt>
      <trkpt lat="44.30013" lon="6.10053">
        <ele>1201.304688</ele>
        <time>2011-09-06T08:08:28Z</time>
      </trkpt>
      <trkpt lat="44.29999" lon="6.10053">
        <ele>1204.669189</ele>
        <time>2011-09-06T08:08:47Z</time>
      </trkpt>
      <trkpt lat="44.29986" lon="6.10054">
        <ele>1207.553223</ele>
        <time>2011-09-06T08:09:04Z</time>
      </trkpt>
      <trkpt lat="44.29972" lon="6.10055">
        <ele>1211.398438</ele>
        <time>2011-09-06T08:09:24Z</time>
      </trkpt>
      <trkpt lat="44.29966" lon="6.10041">
        <ele>1214.763184</ele>
        <time>2011-09-06T08:09:41Z</time>
      </trkpt>
      <trkpt lat="44.29973" lon="6.10024">
        <ele>1215.724609</ele>
        <time>2011-09-06T08:09:57Z</time>
      </trkpt>
      <trkpt lat="44.29977" lon="6.10001">
        <ele>1219.089111</ele>
        <time>2011-09-06T08:10:18Z</time>
      </trkpt>
      <trkpt lat="44.29981" lon="6.09981">
        <ele>1221.492188</ele>
        <time>2011-09-06T08:10:37Z</time>
      </trkpt>
      <trkpt lat="44.29988" lon="6.09959">
        <ele>1223.415039</ele>
        <time>2011-09-06T08:10:57Z</time>
      </trkpt>
      <trkpt lat="44.29992" lon="6.09943">
        <ele>1226.298828</ele>
        <time>2011-09-06T08:11:14Z</time>
      </trkpt>
      <trkpt lat="44.29997" lon="6.09922">
        <ele>1229.663574</ele>
        <time>2011-09-06T08:11:37Z</time>
      </trkpt>
      <trkpt lat="44.3" lon="6.09904">
        <ele>1232.547607</ele>
        <time>2011-09-06T08:11:57Z</time>
      </trkpt>
      <trkpt lat="44.30007" lon="6.09884">
        <ele>1235.431396</ele>
        <time>2011-09-06T08:12:20Z</time>
      </trkpt>
      <trkpt lat="44.30011" lon="6.09869">
        <ele>1238.31543</ele>
        <time>2011-09-06T08:12:39Z</time>
      </trkpt>
      <trkpt lat="44.30015" lon="6.09852">
        <ele>1241.679932</ele>
        <time>2011-09-06T08:12:57Z</time>
      </trkpt>
      <trkpt lat="44.3002" lon="6.09836">
        <ele>1242.641357</ele>
        <time>2011-09-06T08:13:15Z</time>
      </trkpt>
      <trkpt lat="44.30021" lon="6.09821">
        <ele>1246.006104</ele>
        <time>2011-09-06T08:13:32Z</time>
      </trkpt>
      <trkpt lat="44.30025" lon="6.09805">
        <ele>1248.40918</ele>
        <time>2011-09-06T08:13:50Z</time>
      </trkpt>
      <trkpt lat="44.30026" lon="6.09804">
        <ele>1249.851318</ele>
        <time>2011-09-06T08:13:52Z</time>
      </trkpt>
      <trkpt lat="44.30031" lon="6.09785">
        <ele>1253.21582</ele>
        <time>2011-09-06T08:14:14Z</time>
      </trkpt>
      <trkpt lat="44.30038" lon="6.09766">
        <ele>1256.580322</ele>
        <time>2011-09-06T08:14:37Z</time>
      </trkpt>
      <trkpt lat="44.30044" lon="6.09747">
        <ele>1259.944824</ele>
        <time>2011-09-06T08:15:01Z</time>
      </trkpt>
      <trkpt lat="44.3005" lon="6.09729">
        <ele>1263.790283</ele>
        <time>2011-09-06T08:15:24Z</time>
      </trkpt>
      <trkpt lat="44.3005" lon="6.09728">
        <ele>1263.790283</ele>
        <time>2011-09-06T08:15:25Z</time>
      </trkpt>
      <trkpt lat="44.30055" lon="6.09717">
        <ele>1267.155029</ele>
        <time>2011-09-06T08:15:42Z</time>
      </trkpt>
      <trkpt lat="44.3006" lon="6.09702">
        <ele>1270.519531</ele>
        <time>2011-09-06T08:16:01Z</time>
      </trkpt>
      <trkpt lat="44.30052" lon="6.09682">
        <ele>1273.403564</ele>
        <time>2011-09-06T08:16:24Z</time>
      </trkpt>
      <trkpt lat="44.30036" lon="6.09676">
        <ele>1276.287598</ele>
        <time>2011-09-06T08:16:48Z</time>
      </trkpt>
      <trkpt lat="44.30027" lon="6.09674">
        <ele>1279.171387</ele>
        <time>2011-09-06T08:17:06Z</time>
      </trkpt>
      <trkpt lat="44.30014" lon="6.09672">
        <ele>1283.016602</ele>
        <time>2011-09-06T08:17:28Z</time>
      </trkpt>
      <trkpt lat="44.30002" lon="6.09668">
        <ele>1286.381348</ele>
        <time>2011-09-06T08:17:49Z</time>
      </trkpt>
      <trkpt lat="44.29992" lon="6.09662">
        <ele>1288.784668</ele>
        <time>2011-09-06T08:18:07Z</time>
      </trkpt>
      <trkpt lat="44.29976" lon="6.09674">
        <ele>1290.707031</ele>
        <time>2011-09-06T08:18:27Z</time>
      </trkpt>
      <trkpt lat="44.29966" lon="6.09681">
        <ele>1291.187744</ele>
        <time>2011-09-06T08:18:39Z</time>
      </trkpt>
      <trkpt lat="44.2995" lon="6.09686">
        <ele>1293.110596</ele>
        <time>2011-09-06T08:18:58Z</time>
      </trkpt>
      <trkpt lat="44.29939" lon="6.09691">
        <ele>1295.033203</ele>
        <time>2011-09-06T08:19:20Z</time>
      </trkpt>
      <trkpt lat="44.29938" lon="6.09691">
        <ele>1295.513916</ele>
        <time>2011-09-06T08:19:59Z</time>
      </trkpt>
      <trkpt lat="44.29937" lon="6.09691">
        <ele>1295.513916</ele>
        <time>2011-09-06T08:20:28Z</time>
      </trkpt>
      <trkpt lat="44.2993" lon="6.09676">
        <ele>1295.033203</ele>
        <time>2011-09-06T08:20:43Z</time>
      </trkpt>
      <trkpt lat="44.29924" lon="6.0966">
        <ele>1296.955811</ele>
        <time>2011-09-06T08:20:59Z</time>
      </trkpt>
      <trkpt lat="44.2992" lon="6.09659">
        <ele>1297.436523</ele>
        <time>2011-09-06T08:21:07Z</time>
      </trkpt>
      <trkpt lat="44.29909" lon="6.0967">
        <ele>1297.917236</ele>
        <time>2011-09-06T08:21:21Z</time>
      </trkpt>
      <trkpt lat="44.299" lon="6.09662">
        <ele>1300.801025</ele>
        <time>2011-09-06T08:21:36Z</time>
      </trkpt>
      <trkpt lat="44.29901" lon="6.09647">
        <ele>1303.204346</ele>
        <time>2011-09-06T08:21:53Z</time>
      </trkpt>
      <trkpt lat="44.299" lon="6.09642">
        <ele>1303.685059</ele>
        <time>2011-09-06T08:21:57Z</time>
      </trkpt>
      <trkpt lat="44.29899" lon="6.09639">
        <ele>1302.723633</ele>
        <time>2011-09-06T08:22:00Z</time>
      </trkpt>
      <trkpt lat="44.29887" lon="6.0962">
        <ele>1302.723633</ele>
        <time>2011-09-06T08:22:20Z</time>
      </trkpt>
      <trkpt lat="44.2988" lon="6.09621">
        <ele>1305.607666</ele>
        <time>2011-09-06T08:22:30Z</time>
      </trkpt>
      <trkpt lat="44.29872" lon="6.09626">
        <ele>1309.453125</ele>
        <time>2011-09-06T08:22:41Z</time>
      </trkpt>
      <trkpt lat="44.29872" lon="6.09627">
        <ele>1309.453125</ele>
        <time>2011-09-06T08:22:42Z</time>
      </trkpt>
      <trkpt lat="44.2986" lon="6.09641">
        <ele>1311.375732</ele>
        <time>2011-09-06T08:23:01Z</time>
      </trkpt>
      <trkpt lat="44.29859" lon="6.09643">
        <ele>1311.375732</ele>
        <time>2011-09-06T08:23:03Z</time>
      </trkpt>
      <trkpt lat="44.29846" lon="6.09655">
        <ele>1313.29834</ele>
        <time>2011-09-06T08:23:22Z</time>
      </trkpt>
      <trkpt lat="44.2983" lon="6.0966">
        <ele>1315.70166</ele>
        <time>2011-09-06T08:23:42Z</time>
      </trkpt>
      <trkpt lat="44.29815" lon="6.09664">
        <ele>1318.585449</ele>
        <time>2011-09-06T08:24:03Z</time>
      </trkpt>
      <trkpt lat="44.29803" lon="6.09665">
        <ele>1320.508057</ele>
        <time>2011-09-06T08:24:21Z</time>
      </trkpt>
      <trkpt lat="44.29793" lon="6.09675">
        <ele>1322.911377</ele>
        <time>2011-09-06T08:24:36Z</time>
      </trkpt>
      <trkpt lat="44.29788" lon="6.09682">
        <ele>1324.353516</ele>
        <time>2011-09-06T08:24:47Z</time>
      </trkpt>
      <trkpt lat="44.29781" lon="6.0969">
        <ele>1325.79541</ele>
        <time>2011-09-06T08:24:56Z</time>
      </trkpt>
      <trkpt lat="44.29774" lon="6.097">
        <ele>1328.679443</ele>
        <time>2011-09-06T08:25:12Z</time>
      </trkpt>
      <trkpt lat="44.29769" lon="6.09711">
        <ele>1331.563232</ele>
        <time>2011-09-06T08:25:26Z</time>
      </trkpt>
      <trkpt lat="44.29765" lon="6.09716">
        <ele>1332.043945</ele>
        <time>2011-09-06T08:25:32Z</time>
      </trkpt>
      <trkpt lat="44.29755" lon="6.09737">
        <ele>1333.48584</ele>
        <time>2011-09-06T08:25:51Z</time>
      </trkpt>
      <trkpt lat="44.29757" lon="6.09759">
        <ele>1330.602051</ele>
        <time>2011-09-06T08:26:09Z</time>
      </trkpt>
      <trkpt lat="44.29758" lon="6.09764">
        <ele>1330.602051</ele>
        <time>2011-09-06T08:26:13Z</time>
      </trkpt>
      <trkpt lat="44.29753" lon="6.09795">
        <ele>1332.043945</ele>
        <time>2011-09-06T08:26:34Z</time>
      </trkpt>
      <trkpt lat="44.29743" lon="6.09811">
        <ele>1335.408447</ele>
        <time>2011-09-06T08:26:54Z</time>
      </trkpt>
      <trkpt lat="44.29731" lon="6.09815">
        <ele>1337.811768</ele>
        <time>2011-09-06T08:27:12Z</time>
      </trkpt>
      <trkpt lat="44.29727" lon="6.09814">
        <ele>1338.773193</ele>
        <time>2011-09-06T08:27:42Z</time>
      </trkpt>
      <trkpt lat="44.29727" lon="6.09814">
        <ele>1338.773193</ele>
        <time>2011-09-06T08:27:43Z</time>
      </trkpt>
      <trkpt lat="44.2972" lon="6.09809">
        <ele>1340.695801</ele>
        <time>2011-09-06T08:27:53Z</time>
      </trkpt>
      <trkpt lat="44.2971" lon="6.09798">
        <ele>1342.618652</ele>
        <time>2011-09-06T08:28:09Z</time>
      </trkpt>
      <trkpt lat="44.29706" lon="6.09795">
        <ele>1343.579834</ele>
        <time>2011-09-06T08:28:15Z</time>
      </trkpt>
      <trkpt lat="44.29696" lon="6.09796">
        <ele>1347.425049</ele>
        <time>2011-09-06T08:28:31Z</time>
      </trkpt>
      <trkpt lat="44.29695" lon="6.09796">
        <ele>1347.425049</ele>
        <time>2011-09-06T08:28:35Z</time>
      </trkpt>
      <trkpt lat="44.29682" lon="6.09795">
        <ele>1351.270264</ele>
        <time>2011-09-06T08:28:54Z</time>
      </trkpt>
      <trkpt lat="44.2967" lon="6.09789">
        <ele>1354.634766</ele>
        <time>2011-09-06T08:29:12Z</time>
      </trkpt>
      <trkpt lat="44.29662" lon="6.09782">
        <ele>1357.519043</ele>
        <time>2011-09-06T08:29:28Z</time>
      </trkpt>
      <trkpt lat="44.29653" lon="6.09765">
        <ele>1359.922119</ele>
        <time>2011-09-06T08:29:49Z</time>
      </trkpt>
      <trkpt lat="44.29653" lon="6.09755">
        <ele>1360.883545</ele>
        <time>2011-09-06T08:29:57Z</time>
      </trkpt>
      <trkpt lat="44.29658" lon="6.09742">
        <ele>1360.883545</ele>
        <time>2011-09-06T08:30:11Z</time>
      </trkpt>
      <trkpt lat="44.29657" lon="6.09733">
        <ele>1363.767334</ele>
        <time>2011-09-06T08:30:21Z</time>
      </trkpt>
      <trkpt lat="44.29658" lon="6.09718">
        <ele>1366.651367</ele>
        <time>2011-09-06T08:30:38Z</time>
      </trkpt>
      <trkpt lat="44.29663" lon="6.097">
        <ele>1367.612549</ele>
        <time>2011-09-06T08:30:54Z</time>
      </trkpt>
      <trkpt lat="44.29662" lon="6.09693">
        <ele>1368.573975</ele>
        <time>2011-09-06T08:31:01Z</time>
      </trkpt>
      <trkpt lat="44.2966" lon="6.09677">
        <ele>1371.457764</ele>
        <time>2011-09-06T08:31:20Z</time>
      </trkpt>
      <trkpt lat="44.29654" lon="6.09664">
        <ele>1374.822754</ele>
        <time>2011-09-06T08:31:36Z</time>
      </trkpt>
      <trkpt lat="44.29654" lon="6.09663">
        <ele>1374.822754</ele>
        <time>2011-09-06T08:31:37Z</time>
      </trkpt>
      <trkpt lat="44.29642" lon="6.09665">
        <ele>1377.226074</ele>
        <time>2011-09-06T08:31:56Z</time>
      </trkpt>
      <trkpt lat="44.29634" lon="6.09657">
        <ele>1380.109863</ele>
        <time>2011-09-06T08:32:15Z</time>
      </trkpt>
      <trkpt lat="44.29633" lon="6.09642">
        <ele>1382.993652</ele>
        <time>2011-09-06T08:32:34Z</time>
      </trkpt>
      <trkpt lat="44.29632" lon="6.09622">
        <ele>1386.358398</ele>
        <time>2011-09-06T08:32:57Z</time>
      </trkpt>
      <trkpt lat="44.29628" lon="6.09604">
        <ele>1389.723145</ele>
        <time>2011-09-06T08:33:20Z</time>
      </trkpt>
      <trkpt lat="44.29617" lon="6.09602">
        <ele>1393.087646</ele>
        <time>2011-09-06T08:33:39Z</time>
      </trkpt>
      <trkpt lat="44.29607" lon="6.09591">
        <ele>1395.97168</ele>
        <time>2011-09-06T08:33:59Z</time>
      </trkpt>
      <trkpt lat="44.29601" lon="6.09582">
        <ele>1399.336182</ele>
        <time>2011-09-06T08:34:16Z</time>
      </trkpt>
      <trkpt lat="44.29593" lon="6.09571">
        <ele>1402.219971</ele>
        <time>2011-09-06T08:34:37Z</time>
      </trkpt>
      <trkpt lat="44.2958" lon="6.09564">
        <ele>1405.584961</ele>
        <time>2011-09-06T08:35:00Z</time>
      </trkpt>
      <trkpt lat="44.29572" lon="6.09551">
        <ele>1408.949463</ele>
        <time>2011-09-06T08:35:20Z</time>
      </trkpt>
      <trkpt lat="44.29563" lon="6.09541">
        <ele>1411.833496</ele>
        <time>2011-09-06T08:35:42Z</time>
      </trkpt>
      <trkpt lat="44.29547" lon="6.09547">
        <ele>1414.236572</ele>
        <time>2011-09-06T08:36:02Z</time>
      </trkpt>
      <trkpt lat="44.29538" lon="6.09553">
        <ele>1414.717285</ele>
        <time>2011-09-06T08:36:13Z</time>
      </trkpt>
      <trkpt lat="44.29524" lon="6.09561">
        <ele>1416.15918</ele>
        <time>2011-09-06T08:36:32Z</time>
      </trkpt>
      <trkpt lat="44.29513" lon="6.09568">
        <ele>1417.601074</ele>
        <time>2011-09-06T08:36:48Z</time>
      </trkpt>
      <trkpt lat="44.29499" lon="6.09576">
        <ele>1420.485352</ele>
        <time>2011-09-06T08:37:09Z</time>
      </trkpt>
      <trkpt lat="44.29487" lon="6.09584">
        <ele>1423.849854</ele>
        <time>2011-09-06T08:37:28Z</time>
      </trkpt>
      <trkpt lat="44.29479" lon="6.09597">
        <ele>1427.2146</ele>
        <time>2011-09-06T08:37:47Z</time>
      </trkpt>
      <trkpt lat="44.29468" lon="6.09604">
        <ele>1428.656494</ele>
        <time>2011-09-06T08:38:05Z</time>
      </trkpt>
      <trkpt lat="44.29458" lon="6.09608">
        <ele>1431.059814</ele>
        <time>2011-09-06T08:38:22Z</time>
      </trkpt>
      <trkpt lat="44.29441" lon="6.09611">
        <ele>1433.462891</ele>
        <time>2011-09-06T08:38:44Z</time>
      </trkpt>
      <trkpt lat="44.29429" lon="6.09619">
        <ele>1434.424316</ele>
        <time>2011-09-06T08:39:01Z</time>
      </trkpt>
      <trkpt lat="44.29412" lon="6.09629">
        <ele>1435.866211</ele>
        <time>2011-09-06T08:39:25Z</time>
      </trkpt>
      <trkpt lat="44.29397" lon="6.09642">
        <ele>1435.866211</ele>
        <time>2011-09-06T08:39:45Z</time>
      </trkpt>
      <trkpt lat="44.29395" lon="6.09643">
        <ele>1436.347168</ele>
        <time>2011-09-06T08:39:47Z</time>
      </trkpt>
      <trkpt lat="44.29379" lon="6.09654">
        <ele>1437.789063</ele>
        <time>2011-09-06T08:40:08Z</time>
      </trkpt>
      <trkpt lat="44.29375" lon="6.09657">
        <ele>1438.750488</ele>
        <time>2011-09-06T08:40:14Z</time>
      </trkpt>
      <trkpt lat="44.29373" lon="6.09658">
        <ele>1437.30835</ele>
        <time>2011-09-06T08:40:16Z</time>
      </trkpt>
      <trkpt lat="44.29358" lon="6.09672">
        <ele>1437.30835</ele>
        <time>2011-09-06T08:40:36Z</time>
      </trkpt>
      <trkpt lat="44.29343" lon="6.09685">
        <ele>1436.347168</ele>
        <time>2011-09-06T08:40:57Z</time>
      </trkpt>
      <trkpt lat="44.29332" lon="6.09692">
        <ele>1435.866211</ele>
        <time>2011-09-06T08:41:10Z</time>
      </trkpt>
      <trkpt lat="44.29319" lon="6.09698">
        <ele>1436.347168</ele>
        <time>2011-09-06T08:41:25Z</time>
      </trkpt>
      <trkpt lat="44.29307" lon="6.09706">
        <ele>1436.347168</ele>
        <time>2011-09-06T08:41:39Z</time>
      </trkpt>
      <trkpt lat="44.29303" lon="6.09705">
        <ele>1435.866211</ele>
        <time>2011-09-06T08:41:44Z</time>
      </trkpt>
      <trkpt lat="44.29295" lon="6.09703">
        <ele>1435.385498</ele>
        <time>2011-09-06T08:41:51Z</time>
      </trkpt>
      <trkpt lat="44.29286" lon="6.09693">
        <ele>1436.347168</ele>
        <time>2011-09-06T08:42:02Z</time>
      </trkpt>
      <trkpt lat="44.29282" lon="6.09688">
        <ele>1435.866211</ele>
        <time>2011-09-06T08:42:07Z</time>
      </trkpt>
      <trkpt lat="44.29272" lon="6.09668">
        <ele>1438.269775</ele>
        <time>2011-09-06T08:42:24Z</time>
      </trkpt>
      <trkpt lat="44.29269" lon="6.09657">
        <ele>1437.30835</ele>
        <time>2011-09-06T08:42:32Z</time>
      </trkpt>
      <trkpt lat="44.29256" lon="6.09638">
        <ele>1438.750488</ele>
        <time>2011-09-06T08:42:52Z</time>
      </trkpt>
      <trkpt lat="44.29247" lon="6.09621">
        <ele>1441.153564</ele>
        <time>2011-09-06T08:43:08Z</time>
      </trkpt>
      <trkpt lat="44.29239" lon="6.09603">
        <ele>1442.11499</ele>
        <time>2011-09-06T08:43:26Z</time>
      </trkpt>
      <trkpt lat="44.29235" lon="6.09591">
        <ele>1442.11499</ele>
        <time>2011-09-06T08:43:40Z</time>
      </trkpt>
      <trkpt lat="44.29229" lon="6.0959">
        <ele>1443.556885</ele>
        <time>2011-09-06T08:43:48Z</time>
      </trkpt>
      <trkpt lat="44.29227" lon="6.0958">
        <ele>1444.037598</ele>
        <time>2011-09-06T08:43:56Z</time>
      </trkpt>
      <trkpt lat="44.29237" lon="6.09562">
        <ele>1446.921387</ele>
        <time>2011-09-06T08:44:13Z</time>
      </trkpt>
      <trkpt lat="44.29238" lon="6.09558">
        <ele>1446.921387</ele>
        <time>2011-09-06T08:44:17Z</time>
      </trkpt>
      <trkpt lat="44.29243" lon="6.09534">
        <ele>1447.4021</ele>
        <time>2011-09-06T08:44:36Z</time>
      </trkpt>
      <trkpt lat="44.29245" lon="6.09509">
        <ele>1448.843994</ele>
        <time>2011-09-06T08:44:55Z</time>
      </trkpt>
      <trkpt lat="44.2925" lon="6.0949">
        <ele>1450.286133</ele>
        <time>2011-09-06T08:45:11Z</time>
      </trkpt>
      <trkpt lat="44.29256" lon="6.09473">
        <ele>1450.766602</ele>
        <time>2011-09-06T08:45:26Z</time>
      </trkpt>
      <trkpt lat="44.29269" lon="6.09451">
        <ele>1453.170166</ele>
        <time>2011-09-06T08:45:48Z</time>
      </trkpt>
      <trkpt lat="44.29281" lon="6.0943">
        <ele>1452.689453</ele>
        <time>2011-09-06T08:46:06Z</time>
      </trkpt>
      <trkpt lat="44.29283" lon="6.09418">
        <ele>1454.612061</ele>
        <time>2011-09-06T08:46:18Z</time>
      </trkpt>
      <trkpt lat="44.29283" lon="6.09413">
        <ele>1455.092773</ele>
        <time>2011-09-06T08:46:23Z</time>
      </trkpt>
      <trkpt lat="44.29286" lon="6.09406">
        <ele>1455.092773</ele>
        <time>2011-09-06T08:46:28Z</time>
      </trkpt>
      <trkpt lat="44.29289" lon="6.09401">
        <ele>1455.092773</ele>
        <time>2011-09-06T08:46:32Z</time>
      </trkpt>
      <trkpt lat="44.29286" lon="6.0938">
        <ele>1455.092773</ele>
        <time>2011-09-06T08:46:48Z</time>
      </trkpt>
      <trkpt lat="44.29281" lon="6.09352">
        <ele>1452.20874</ele>
        <time>2011-09-06T08:47:09Z</time>
      </trkpt>
      <trkpt lat="44.29283" lon="6.09349">
        <ele>1452.20874</ele>
        <time>2011-09-06T08:47:14Z</time>
      </trkpt>
      <trkpt lat="44.29283" lon="6.09336">
        <ele>1451.728027</ele>
        <time>2011-09-06T08:47:24Z</time>
      </trkpt>
      <trkpt lat="44.29286" lon="6.09333">
        <ele>1451.728027</ele>
        <time>2011-09-06T08:47:29Z</time>
      </trkpt>
      <trkpt lat="44.2929" lon="6.0933">
        <ele>1451.728027</ele>
        <time>2011-09-06T08:47:53Z</time>
      </trkpt>
      <trkpt lat="44.29302" lon="6.09313">
        <ele>1452.20874</ele>
        <time>2011-09-06T08:48:11Z</time>
      </trkpt>
      <trkpt lat="44.29313" lon="6.09296">
        <ele>1453.170166</ele>
        <time>2011-09-06T08:48:28Z</time>
      </trkpt>
      <trkpt lat="44.29331" lon="6.09267">
        <ele>1453.170166</ele>
        <time>2011-09-06T08:48:54Z</time>
      </trkpt>
      <trkpt lat="44.29338" lon="6.09254">
        <ele>1452.20874</ele>
        <time>2011-09-06T08:49:08Z</time>
      </trkpt>
      <trkpt lat="44.29338" lon="6.0924">
        <ele>1452.20874</ele>
        <time>2011-09-06T08:49:17Z</time>
      </trkpt>
      <trkpt lat="44.29343" lon="6.09235">
        <ele>1451.247314</ele>
        <time>2011-09-06T08:49:25Z</time>
      </trkpt>
      <trkpt lat="44.2935" lon="6.09224">
        <ele>1450.286133</ele>
        <time>2011-09-06T08:49:35Z</time>
      </trkpt>
      <trkpt lat="44.29361" lon="6.09206">
        <ele>1449.324707</ele>
        <time>2011-09-06T08:49:50Z</time>
      </trkpt>
      <trkpt lat="44.29373" lon="6.09201">
        <ele>1450.766602</ele>
        <time>2011-09-06T08:50:02Z</time>
      </trkpt>
      <trkpt lat="44.29375" lon="6.092">
        <ele>1450.766602</ele>
        <time>2011-09-06T08:50:04Z</time>
      </trkpt>
      <trkpt lat="44.29395" lon="6.09189">
        <ele>1450.766602</ele>
        <time>2011-09-06T08:50:26Z</time>
      </trkpt>
      <trkpt lat="44.29408" lon="6.09177">
        <ele>1449.80542</ele>
        <time>2011-09-06T08:50:43Z</time>
      </trkpt>
      <trkpt lat="44.29416" lon="6.09159">
        <ele>1448.843994</ele>
        <time>2011-09-06T08:50:58Z</time>
      </trkpt>
      <trkpt lat="44.29421" lon="6.09145">
        <ele>1449.324707</ele>
        <time>2011-09-06T08:51:08Z</time>
      </trkpt>
      <trkpt lat="44.29432" lon="6.09125">
        <ele>1448.363281</ele>
        <time>2011-09-06T08:51:24Z</time>
      </trkpt>
      <trkpt lat="44.29437" lon="6.09119">
        <ele>1448.843994</ele>
        <time>2011-09-06T08:51:31Z</time>
      </trkpt>
      <trkpt lat="44.29456" lon="6.09103">
        <ele>1448.363281</ele>
        <time>2011-09-06T08:51:49Z</time>
      </trkpt>
      <trkpt lat="44.29478" lon="6.0909">
        <ele>1448.843994</ele>
        <time>2011-09-06T08:52:10Z</time>
      </trkpt>
      <trkpt lat="44.29497" lon="6.09079">
        <ele>1448.363281</ele>
        <time>2011-09-06T08:52:27Z</time>
      </trkpt>
      <trkpt lat="44.29511" lon="6.09074">
        <ele>1448.843994</ele>
        <time>2011-09-06T08:52:40Z</time>
      </trkpt>
      <trkpt lat="44.29538" lon="6.0907">
        <ele>1450.286133</ele>
        <time>2011-09-06T08:53:03Z</time>
      </trkpt>
      <trkpt lat="44.29547" lon="6.0907">
        <ele>1450.766602</ele>
        <time>2011-09-06T08:53:11Z</time>
      </trkpt>
      <trkpt lat="44.2955" lon="6.0907">
        <ele>1451.247314</ele>
        <time>2011-09-06T08:53:14Z</time>
      </trkpt>
      <trkpt lat="44.29554" lon="6.09068">
        <ele>1451.728027</ele>
        <time>2011-09-06T08:53:18Z</time>
      </trkpt>
      <trkpt lat="44.29561" lon="6.09069">
        <ele>1451.247314</ele>
        <time>2011-09-06T08:53:24Z</time>
      </trkpt>
      <trkpt lat="44.29564" lon="6.09068">
        <ele>1451.728027</ele>
        <time>2011-09-06T08:53:27Z</time>
      </trkpt>
      <trkpt lat="44.29581" lon="6.09065">
        <ele>1452.20874</ele>
        <time>2011-09-06T08:53:41Z</time>
      </trkpt>
      <trkpt lat="44.2959" lon="6.09064">
        <ele>1452.689453</ele>
        <time>2011-09-06T08:53:48Z</time>
      </trkpt>
      <trkpt lat="44.29604" lon="6.09056">
        <ele>1455.092773</ele>
        <time>2011-09-06T08:54:05Z</time>
      </trkpt>
      <trkpt lat="44.29609" lon="6.09044">
        <ele>1458.457275</ele>
        <time>2011-09-06T08:54:20Z</time>
      </trkpt>
      <trkpt lat="44.29607" lon="6.09033">
        <ele>1461.341309</ele>
        <time>2011-09-06T08:54:34Z</time>
      </trkpt>
      <trkpt lat="44.29602" lon="6.09027">
        <ele>1463.263916</ele>
        <time>2011-09-06T08:54:44Z</time>
      </trkpt>
      <trkpt lat="44.29597" lon="6.0902">
        <ele>1463.744385</ele>
        <time>2011-09-06T08:54:53Z</time>
      </trkpt>
      <trkpt lat="44.29589" lon="6.09012">
        <ele>1465.186523</ele>
        <time>2011-09-06T08:55:07Z</time>
      </trkpt>
      <trkpt lat="44.29572" lon="6.08999">
        <ele>1466.147705</ele>
        <time>2011-09-06T08:55:28Z</time>
      </trkpt>
      <trkpt lat="44.2956" lon="6.08996">
        <ele>1469.512695</ele>
        <time>2011-09-06T08:55:43Z</time>
      </trkpt>
      <trkpt lat="44.29539" lon="6.08988">
        <ele>1470.95459</ele>
        <time>2011-09-06T08:56:06Z</time>
      </trkpt>
      <trkpt lat="44.29524" lon="6.0898">
        <ele>1472.396484</ele>
        <time>2011-09-06T08:56:25Z</time>
      </trkpt>
      <trkpt lat="44.29509" lon="6.08974">
        <ele>1473.35791</ele>
        <time>2011-09-06T08:56:44Z</time>
      </trkpt>
      <trkpt lat="44.29508" lon="6.08974">
        <ele>1473.35791</ele>
        <time>2011-09-06T08:56:45Z</time>
      </trkpt>
      <trkpt lat="44.29489" lon="6.08974">
        <ele>1474.799805</ele>
        <time>2011-09-06T08:57:06Z</time>
      </trkpt>
      <trkpt lat="44.29481" lon="6.08972">
        <ele>1476.241699</ele>
        <time>2011-09-06T08:57:15Z</time>
      </trkpt>
      <trkpt lat="44.29465" lon="6.08972">
        <ele>1479.606201</ele>
        <time>2011-09-06T08:57:36Z</time>
      </trkpt>
      <trkpt lat="44.29449" lon="6.08968">
        <ele>1481.528809</ele>
        <time>2011-09-06T08:57:55Z</time>
      </trkpt>
      <trkpt lat="44.29437" lon="6.08969">
        <ele>1482.490234</ele>
        <time>2011-09-06T08:58:10Z</time>
      </trkpt>
      <trkpt lat="44.29428" lon="6.08968">
        <ele>1485.374268</ele>
        <time>2011-09-06T08:58:22Z</time>
      </trkpt>
      <trkpt lat="44.2941" lon="6.08971">
        <ele>1488.258301</ele>
        <time>2011-09-06T08:58:45Z</time>
      </trkpt>
      <trkpt lat="44.29396" lon="6.08969">
        <ele>1491.14209</ele>
        <time>2011-09-06T08:59:05Z</time>
      </trkpt>
      <trkpt lat="44.29383" lon="6.08964">
        <ele>1494.026123</ele>
        <time>2011-09-06T08:59:26Z</time>
      </trkpt>
      <trkpt lat="44.29372" lon="6.08968">
        <ele>1496.429443</ele>
        <time>2011-09-06T08:59:46Z</time>
      </trkpt>
      <trkpt lat="44.29352" lon="6.0897">
        <ele>1499.793945</ele>
        <time>2011-09-06T09:00:10Z</time>
      </trkpt>
      <trkpt lat="44.29338" lon="6.0897">
        <ele>1502.197266</ele>
        <time>2011-09-06T09:00:32Z</time>
      </trkpt>
      <trkpt lat="44.29322" lon="6.08972">
        <ele>1505.081299</ele>
        <time>2011-09-06T09:00:54Z</time>
      </trkpt>
      <trkpt lat="44.29309" lon="6.08975">
        <ele>1506.523193</ele>
        <time>2011-09-06T09:01:14Z</time>
      </trkpt>
      <trkpt lat="44.29293" lon="6.08977">
        <ele>1508.926514</ele>
        <time>2011-09-06T09:01:34Z</time>
      </trkpt>
      <trkpt lat="44.29278" lon="6.08986">
        <ele>1510.368408</ele>
        <time>2011-09-06T09:01:55Z</time>
      </trkpt>
      <trkpt lat="44.29269" lon="6.08989">
        <ele>1511.810547</ele>
        <time>2011-09-06T09:02:16Z</time>
      </trkpt>
      <trkpt lat="44.29268" lon="6.0899">
        <ele>1511.329834</ele>
        <time>2011-09-06T09:02:44Z</time>
      </trkpt>
      <trkpt lat="44.29254" lon="6.08996">
        <ele>1512.291016</ele>
        <time>2011-09-06T09:03:02Z</time>
      </trkpt>
      <trkpt lat="44.29245" lon="6.08998">
        <ele>1515.175049</ele>
        <time>2011-09-06T09:03:14Z</time>
      </trkpt>
      <trkpt lat="44.29239" lon="6.09002">
        <ele>1516.617188</ele>
        <time>2011-09-06T09:03:23Z</time>
      </trkpt>
      <trkpt lat="44.29235" lon="6.09005">
        <ele>1517.578369</ele>
        <time>2011-09-06T09:03:32Z</time>
      </trkpt>
      <trkpt lat="44.29233" lon="6.09008">
        <ele>1518.059082</ele>
        <time>2011-09-06T09:03:36Z</time>
      </trkpt>
      <trkpt lat="44.29225" lon="6.09019">
        <ele>1520.943115</ele>
        <time>2011-09-06T09:03:56Z</time>
      </trkpt>
      <trkpt lat="44.29215" lon="6.09026">
        <ele>1522.865723</ele>
        <time>2011-09-06T09:04:15Z</time>
      </trkpt>
      <trkpt lat="44.29211" lon="6.09024">
        <ele>1525.749512</ele>
        <time>2011-09-06T09:04:26Z</time>
      </trkpt>
      <trkpt lat="44.292" lon="6.09029">
        <ele>1527.672119</ele>
        <time>2011-09-06T09:04:46Z</time>
      </trkpt>
      <trkpt lat="44.29197" lon="6.09031">
        <ele>1529.594727</ele>
        <time>2011-09-06T09:04:51Z</time>
      </trkpt>
      <trkpt lat="44.29189" lon="6.09032">
        <ele>1531.036865</ele>
        <time>2011-09-06T09:05:09Z</time>
      </trkpt>
      <trkpt lat="44.29178" lon="6.09032">
        <ele>1533.440186</ele>
        <time>2011-09-06T09:05:28Z</time>
      </trkpt>
      <trkpt lat="44.29166" lon="6.09035">
        <ele>1537.2854</ele>
        <time>2011-09-06T09:05:48Z</time>
      </trkpt>
      <trkpt lat="44.29166" lon="6.09036">
        <ele>1537.2854</ele>
        <time>2011-09-06T09:05:49Z</time>
      </trkpt>
      <trkpt lat="44.29155" lon="6.09037">
        <ele>1540.169434</ele>
        <time>2011-09-06T09:06:08Z</time>
      </trkpt>
      <trkpt lat="44.29148" lon="6.09033">
        <ele>1543.053223</ele>
        <time>2011-09-06T09:06:24Z</time>
      </trkpt>
      <trkpt lat="44.29139" lon="6.09032">
        <ele>1544.97583</ele>
        <time>2011-09-06T09:06:39Z</time>
      </trkpt>
      <trkpt lat="44.29126" lon="6.09031">
        <ele>1547.37915</ele>
        <time>2011-09-06T09:07:00Z</time>
      </trkpt>
      <trkpt lat="44.29116" lon="6.0903">
        <ele>1550.743896</ele>
        <time>2011-09-06T09:07:20Z</time>
      </trkpt>
      <trkpt lat="44.29099" lon="6.09027">
        <ele>1551.705322</ele>
        <time>2011-09-06T09:07:42Z</time>
      </trkpt>
      <trkpt lat="44.29083" lon="6.09025">
        <ele>1551.705322</ele>
        <time>2011-09-06T09:08:00Z</time>
      </trkpt>
      <trkpt lat="44.29068" lon="6.09028">
        <ele>1554.108643</ele>
        <time>2011-09-06T09:08:20Z</time>
      </trkpt>
      <trkpt lat="44.29063" lon="6.0903">
        <ele>1555.069824</ele>
        <time>2011-09-06T09:08:28Z</time>
      </trkpt>
      <trkpt lat="44.29052" lon="6.09038">
        <ele>1555.550537</ele>
        <time>2011-09-06T09:08:48Z</time>
      </trkpt>
      <trkpt lat="44.29048" lon="6.09042">
        <ele>1556.511719</ele>
        <time>2011-09-06T09:09:08Z</time>
      </trkpt>
      <trkpt lat="44.29047" lon="6.09041">
        <ele>1556.992432</ele>
        <time>2011-09-06T09:09:34Z</time>
      </trkpt>
      <trkpt lat="44.29047" lon="6.09041">
        <ele>1557.953857</ele>
        <time>2011-09-06T09:10:15Z</time>
      </trkpt>
      <trkpt lat="44.29035" lon="6.09045">
        <ele>1558.434326</ele>
        <time>2011-09-06T09:10:57Z</time>
      </trkpt>
      <trkpt lat="44.29026" lon="6.09048">
        <ele>1561.799072</ele>
        <time>2011-09-06T09:11:12Z</time>
      </trkpt>
      <trkpt lat="44.29015" lon="6.09046">
        <ele>1564.683105</ele>
        <time>2011-09-06T09:11:31Z</time>
      </trkpt>
      <trkpt lat="44.29014" lon="6.09046">
        <ele>1567.566895</ele>
        <time>2011-09-06T09:11:34Z</time>
      </trkpt>
      <trkpt lat="44.29006" lon="6.09046">
        <ele>1568.047607</ele>
        <time>2011-09-06T09:11:52Z</time>
      </trkpt>
      <trkpt lat="44.29005" lon="6.09046">
        <ele>1569.009033</ele>
        <time>2011-09-06T09:11:55Z</time>
      </trkpt>
      <trkpt lat="44.28995" lon="6.09042">
        <ele>1572.854248</ele>
        <time>2011-09-06T09:12:14Z</time>
      </trkpt>
      <trkpt lat="44.28986" lon="6.09044">
        <ele>1575.257324</ele>
        <time>2011-09-06T09:12:37Z</time>
      </trkpt>
      <trkpt lat="44.28978" lon="6.09049">
        <ele>1578.141357</ele>
        <time>2011-09-06T09:12:56Z</time>
      </trkpt>
      <trkpt lat="44.2897" lon="6.09051">
        <ele>1581.506104</ele>
        <time>2011-09-06T09:13:17Z</time>
      </trkpt>
      <trkpt lat="44.28959" lon="6.09056">
        <ele>1584.87085</ele>
        <time>2011-09-06T09:13:37Z</time>
      </trkpt>
      <trkpt lat="44.28946" lon="6.0906">
        <ele>1587.754639</ele>
        <time>2011-09-06T09:13:58Z</time>
      </trkpt>
      <trkpt lat="44.28935" lon="6.09061">
        <ele>1591.119141</ele>
        <time>2011-09-06T09:14:17Z</time>
      </trkpt>
      <trkpt lat="44.28923" lon="6.09062">
        <ele>1594.003174</ele>
        <time>2011-09-06T09:14:40Z</time>
      </trkpt>
      <trkpt lat="44.28912" lon="6.09064">
        <ele>1597.36792</ele>
        <time>2011-09-06T09:14:59Z</time>
      </trkpt>
      <trkpt lat="44.289" lon="6.09066">
        <ele>1600.251953</ele>
        <time>2011-09-06T09:15:24Z</time>
      </trkpt>
      <trkpt lat="44.28891" lon="6.09068">
        <ele>1603.135742</ele>
        <time>2011-09-06T09:15:40Z</time>
      </trkpt>
      <trkpt lat="44.28877" lon="6.09069">
        <ele>1606.500244</ele>
        <time>2011-09-06T09:16:04Z</time>
      </trkpt>
      <trkpt lat="44.28863" lon="6.09073">
        <ele>1609.384277</ele>
        <time>2011-09-06T09:16:29Z</time>
      </trkpt>
      <trkpt lat="44.28851" lon="6.09073">
        <ele>1612.749023</ele>
        <time>2011-09-06T09:16:50Z</time>
      </trkpt>
      <trkpt lat="44.28843" lon="6.09079">
        <ele>1614.671631</ele>
        <time>2011-09-06T09:17:08Z</time>
      </trkpt>
      <trkpt lat="44.28831" lon="6.09079">
        <ele>1617.55542</ele>
        <time>2011-09-06T09:17:29Z</time>
      </trkpt>
      <trkpt lat="44.2882" lon="6.09084">
        <ele>1620.920166</ele>
        <time>2011-09-06T09:17:48Z</time>
      </trkpt>
      <trkpt lat="44.28806" lon="6.09093">
        <ele>1621.881348</ele>
        <time>2011-09-06T09:18:12Z</time>
      </trkpt>
      <trkpt lat="44.28791" lon="6.09099">
        <ele>1625.24585</ele>
        <time>2011-09-06T09:18:34Z</time>
      </trkpt>
      <trkpt lat="44.28776" lon="6.09103">
        <ele>1628.130127</ele>
        <time>2011-09-06T09:18:58Z</time>
      </trkpt>
      <trkpt lat="44.28765" lon="6.09105">
        <ele>1631.01416</ele>
        <time>2011-09-06T09:19:18Z</time>
      </trkpt>
      <trkpt lat="44.2875" lon="6.09105">
        <ele>1633.417236</ele>
        <time>2011-09-06T09:19:42Z</time>
      </trkpt>
      <trkpt lat="44.28738" lon="6.09106">
        <ele>1636.781738</ele>
        <time>2011-09-06T09:20:02Z</time>
      </trkpt>
      <trkpt lat="44.28722" lon="6.09114">
        <ele>1639.665771</ele>
        <time>2011-09-06T09:20:28Z</time>
      </trkpt>
      <trkpt lat="44.2871" lon="6.09115">
        <ele>1642.549805</ele>
        <time>2011-09-06T09:20:48Z</time>
      </trkpt>
      <trkpt lat="44.28695" lon="6.09116">
        <ele>1646.395264</ele>
        <time>2011-09-06T09:21:11Z</time>
      </trkpt>
      <trkpt lat="44.28681" lon="6.09115">
        <ele>1648.317627</ele>
        <time>2011-09-06T09:21:34Z</time>
      </trkpt>
      <trkpt lat="44.28669" lon="6.09126">
        <ele>1652.162842</ele>
        <time>2011-09-06T09:21:55Z</time>
      </trkpt>
      <trkpt lat="44.28657" lon="6.09134">
        <ele>1655.046875</ele>
        <time>2011-09-06T09:22:18Z</time>
      </trkpt>
      <trkpt lat="44.28648" lon="6.09139">
        <ele>1657.450195</ele>
        <time>2011-09-06T09:22:37Z</time>
      </trkpt>
      <trkpt lat="44.28637" lon="6.09139">
        <ele>1661.295654</ele>
        <time>2011-09-06T09:22:58Z</time>
      </trkpt>
      <trkpt lat="44.28626" lon="6.09149">
        <ele>1664.660156</ele>
        <time>2011-09-06T09:23:23Z</time>
      </trkpt>
      <trkpt lat="44.28618" lon="6.09152">
        <ele>1667.063477</ele>
        <time>2011-09-06T09:23:43Z</time>
      </trkpt>
      <trkpt lat="44.28611" lon="6.0916">
        <ele>1670.427979</ele>
        <time>2011-09-06T09:24:00Z</time>
      </trkpt>
      <trkpt lat="44.28602" lon="6.09167">
        <ele>1673.312012</ele>
        <time>2011-09-06T09:24:19Z</time>
      </trkpt>
      <trkpt lat="44.28589" lon="6.09174">
        <ele>1676.196045</ele>
        <time>2011-09-06T09:24:40Z</time>
      </trkpt>
      <trkpt lat="44.28575" lon="6.0918">
        <ele>1679.079834</ele>
        <time>2011-09-06T09:25:03Z</time>
      </trkpt>
      <trkpt lat="44.28562" lon="6.09187">
        <ele>1682.44458</ele>
        <time>2011-09-06T09:25:26Z</time>
      </trkpt>
      <trkpt lat="44.28552" lon="6.09203">
        <ele>1683.405762</ele>
        <time>2011-09-06T09:25:45Z</time>
      </trkpt>
      <trkpt lat="44.28541" lon="6.09207">
        <ele>1686.289795</ele>
        <time>2011-09-06T09:26:03Z</time>
      </trkpt>
      <trkpt lat="44.28527" lon="6.0921">
        <ele>1689.173584</ele>
        <time>2011-09-06T09:26:22Z</time>
      </trkpt>
      <trkpt lat="44.28512" lon="6.09209">
        <ele>1691.576904</ele>
        <time>2011-09-06T09:26:41Z</time>
      </trkpt>
      <trkpt lat="44.28496" lon="6.09218">
        <ele>1694.94165</ele>
        <time>2011-09-06T09:27:01Z</time>
      </trkpt>
      <trkpt lat="44.28495" lon="6.09218">
        <ele>1694.94165</ele>
        <time>2011-09-06T09:27:02Z</time>
      </trkpt>
      <trkpt lat="44.28481" lon="6.09217">
        <ele>1696.383789</ele>
        <time>2011-09-06T09:27:19Z</time>
      </trkpt>
      <trkpt lat="44.28471" lon="6.0922">
        <ele>1697.344971</ele>
        <time>2011-09-06T09:27:33Z</time>
      </trkpt>
      <trkpt lat="44.28456" lon="6.09227">
        <ele>1700.709473</ele>
        <time>2011-09-06T09:27:54Z</time>
      </trkpt>
      <trkpt lat="44.28442" lon="6.09231">
        <ele>1702.151367</ele>
        <time>2011-09-06T09:28:13Z</time>
      </trkpt>
      <trkpt lat="44.28429" lon="6.0924">
        <ele>1703.112793</ele>
        <time>2011-09-06T09:28:31Z</time>
      </trkpt>
      <trkpt lat="44.28414" lon="6.09251">
        <ele>1705.996582</ele>
        <time>2011-09-06T09:28:54Z</time>
      </trkpt>
      <trkpt lat="44.28401" lon="6.09263">
        <ele>1709.361572</ele>
        <time>2011-09-06T09:29:13Z</time>
      </trkpt>
      <trkpt lat="44.28387" lon="6.09273">
        <ele>1711.764893</ele>
        <time>2011-09-06T09:29:34Z</time>
      </trkpt>
      <trkpt lat="44.28379" lon="6.09291">
        <ele>1713.206787</ele>
        <time>2011-09-06T09:29:56Z</time>
      </trkpt>
      <trkpt lat="44.28373" lon="6.09306">
        <ele>1715.129395</ele>
        <time>2011-09-06T09:30:13Z</time>
      </trkpt>
      <trkpt lat="44.28361" lon="6.0932">
        <ele>1717.532471</ele>
        <time>2011-09-06T09:30:35Z</time>
      </trkpt>
      <trkpt lat="44.28354" lon="6.09328">
        <ele>1719.455322</ele>
        <time>2011-09-06T09:30:46Z</time>
      </trkpt>
      <trkpt lat="44.28351" lon="6.09335">
        <ele>1719.455322</ele>
        <time>2011-09-06T09:30:54Z</time>
      </trkpt>
      <trkpt lat="44.28343" lon="6.09346">
        <ele>1720.416504</ele>
        <time>2011-09-06T09:31:08Z</time>
      </trkpt>
      <trkpt lat="44.28329" lon="6.09364">
        <ele>1721.858398</ele>
        <time>2011-09-06T09:31:29Z</time>
      </trkpt>
      <trkpt lat="44.28317" lon="6.09382">
        <ele>1721.858398</ele>
        <time>2011-09-06T09:31:46Z</time>
      </trkpt>
      <trkpt lat="44.28308" lon="6.09406">
        <ele>1722.339111</ele>
        <time>2011-09-06T09:32:06Z</time>
      </trkpt>
      <trkpt lat="44.28307" lon="6.09408">
        <ele>1723.781006</ele>
        <time>2011-09-06T09:32:08Z</time>
      </trkpt>
      <trkpt lat="44.28302" lon="6.09417">
        <ele>1722.339111</ele>
        <time>2011-09-06T09:32:15Z</time>
      </trkpt>
      <trkpt lat="44.28288" lon="6.09435">
        <ele>1722.339111</ele>
        <time>2011-09-06T09:32:33Z</time>
      </trkpt>
      <trkpt lat="44.28286" lon="6.09441">
        <ele>1724.261963</ele>
        <time>2011-09-06T09:32:38Z</time>
      </trkpt>
      <trkpt lat="44.2827" lon="6.09462">
        <ele>1723.300537</ele>
        <time>2011-09-06T09:32:58Z</time>
      </trkpt>
      <trkpt lat="44.28269" lon="6.09463">
        <ele>1723.300537</ele>
        <time>2011-09-06T09:32:59Z</time>
      </trkpt>
      <trkpt lat="44.28254" lon="6.0949">
        <ele>1723.781006</ele>
        <time>2011-09-06T09:33:22Z</time>
      </trkpt>
      <trkpt lat="44.28249" lon="6.09499">
        <ele>1724.261963</ele>
        <time>2011-09-06T09:33:30Z</time>
      </trkpt>
      <trkpt lat="44.28234" lon="6.09526">
        <ele>1726.665283</ele>
        <time>2011-09-06T09:33:54Z</time>
      </trkpt>
      <trkpt lat="44.28219" lon="6.09545">
        <ele>1726.18457</ele>
        <time>2011-09-06T09:34:12Z</time>
      </trkpt>
      <trkpt lat="44.28204" lon="6.09562">
        <ele>1728.107178</ele>
        <time>2011-09-06T09:34:31Z</time>
      </trkpt>
      <trkpt lat="44.28189" lon="6.09584">
        <ele>1729.068359</ele>
        <time>2011-09-06T09:34:52Z</time>
      </trkpt>
      <trkpt lat="44.28172" lon="6.09608">
        <ele>1730.029785</ele>
        <time>2011-09-06T09:35:14Z</time>
      </trkpt>
      <trkpt lat="44.28157" lon="6.0963">
        <ele>1729.068359</ele>
        <time>2011-09-06T09:35:33Z</time>
      </trkpt>
      <trkpt lat="44.28156" lon="6.09631">
        <ele>1729.068359</ele>
        <time>2011-09-06T09:35:34Z</time>
      </trkpt>
      <trkpt lat="44.28154" lon="6.09633">
        <ele>1730.991211</ele>
        <time>2011-09-06T09:35:36Z</time>
      </trkpt>
      <trkpt lat="44.28142" lon="6.09661">
        <ele>1731.47168</ele>
        <time>2011-09-06T09:35:58Z</time>
      </trkpt>
      <trkpt lat="44.28131" lon="6.09678">
        <ele>1733.394287</ele>
        <time>2011-09-06T09:36:16Z</time>
      </trkpt>
      <trkpt lat="44.28124" lon="6.0969">
        <ele>1733.875</ele>
        <time>2011-09-06T09:36:27Z</time>
      </trkpt>
      <trkpt lat="44.28119" lon="6.09697">
        <ele>1734.836426</ele>
        <time>2011-09-06T09:36:35Z</time>
      </trkpt>
      <trkpt lat="44.28115" lon="6.09706">
        <ele>1736.758789</ele>
        <time>2011-09-06T09:36:43Z</time>
      </trkpt>
      <trkpt lat="44.28102" lon="6.09724">
        <ele>1738.681641</ele>
        <time>2011-09-06T09:37:03Z</time>
      </trkpt>
      <trkpt lat="44.28101" lon="6.09728">
        <ele>1740.123779</ele>
        <time>2011-09-06T09:37:07Z</time>
      </trkpt>
      <trkpt lat="44.2809" lon="6.09747">
        <ele>1740.604248</ele>
        <time>2011-09-06T09:37:28Z</time>
      </trkpt>
      <trkpt lat="44.28086" lon="6.09759">
        <ele>1743.968994</ele>
        <time>2011-09-06T09:37:40Z</time>
      </trkpt>
      <trkpt lat="44.28075" lon="6.09778">
        <ele>1747.333496</ele>
        <time>2011-09-06T09:38:01Z</time>
      </trkpt>
      <trkpt lat="44.28072" lon="6.09782">
        <ele>1747.814209</ele>
        <time>2011-09-06T09:38:06Z</time>
      </trkpt>
      <trkpt lat="44.28067" lon="6.09788">
        <ele>1749.256104</ele>
        <time>2011-09-06T09:38:14Z</time>
      </trkpt>
      <trkpt lat="44.28052" lon="6.09811">
        <ele>1751.178711</ele>
        <time>2011-09-06T09:38:37Z</time>
      </trkpt>
      <trkpt lat="44.28042" lon="6.0983">
        <ele>1752.620605</ele>
        <time>2011-09-06T09:38:56Z</time>
      </trkpt>
      <trkpt lat="44.28032" lon="6.09845">
        <ele>1753.582031</ele>
        <time>2011-09-06T09:39:15Z</time>
      </trkpt>
      <trkpt lat="44.28025" lon="6.09861">
        <ele>1755.504639</ele>
        <time>2011-09-06T09:39:33Z</time>
      </trkpt>
      <trkpt lat="44.28015" lon="6.09876">
        <ele>1757.42749</ele>
        <time>2011-09-06T09:39:51Z</time>
      </trkpt>
      <trkpt lat="44.28007" lon="6.09891">
        <ele>1759.350098</ele>
        <time>2011-09-06T09:40:06Z</time>
      </trkpt>
      <trkpt lat="44.28004" lon="6.099">
        <ele>1761.272705</ele>
        <time>2011-09-06T09:40:14Z</time>
      </trkpt>
      <trkpt lat="44.27998" lon="6.09913">
        <ele>1763.195313</ele>
        <time>2011-09-06T09:40:28Z</time>
      </trkpt>
      <trkpt lat="44.27992" lon="6.09928">
        <ele>1765.11792</ele>
        <time>2011-09-06T09:40:42Z</time>
      </trkpt>
      <trkpt lat="44.27985" lon="6.09946">
        <ele>1768.001709</ele>
        <time>2011-09-06T09:40:58Z</time>
      </trkpt>
      <trkpt lat="44.27983" lon="6.09952">
        <ele>1768.963135</ele>
        <time>2011-09-06T09:41:12Z</time>
      </trkpt>
      <trkpt lat="44.27982" lon="6.09957">
        <ele>1768.482422</ele>
        <time>2011-09-06T09:41:30Z</time>
      </trkpt>
      <trkpt lat="44.27977" lon="6.09966">
        <ele>1771.366211</ele>
        <time>2011-09-06T09:41:40Z</time>
      </trkpt>
      <trkpt lat="44.27975" lon="6.09971">
        <ele>1770.405029</ele>
        <time>2011-09-06T09:41:44Z</time>
      </trkpt>
      <trkpt lat="44.27962" lon="6.09986">
        <ele>1769.443848</ele>
        <time>2011-09-06T09:42:01Z</time>
      </trkpt>
      <trkpt lat="44.27954" lon="6.09998">
        <ele>1772.808594</ele>
        <time>2011-09-06T09:42:13Z</time>
      </trkpt>
      <trkpt lat="44.27944" lon="6.1001">
        <ele>1775.21167</ele>
        <time>2011-09-06T09:42:30Z</time>
      </trkpt>
      <trkpt lat="44.27937" lon="6.10019">
        <ele>1775.692383</ele>
        <time>2011-09-06T09:42:42Z</time>
      </trkpt>
      <trkpt lat="44.27927" lon="6.10035">
        <ele>1778.095703</ele>
        <time>2011-09-06T09:42:59Z</time>
      </trkpt>
      <trkpt lat="44.27913" lon="6.10042">
        <ele>1778.576416</ele>
        <time>2011-09-06T09:43:15Z</time>
      </trkpt>
      <trkpt lat="44.27901" lon="6.10047">
        <ele>1781.940918</ele>
        <time>2011-09-06T09:43:30Z</time>
      </trkpt>
      <trkpt lat="44.27894" lon="6.10058">
        <ele>1784.344238</ele>
        <time>2011-09-06T09:43:46Z</time>
      </trkpt>
      <trkpt lat="44.27883" lon="6.10066">
        <ele>1785.786133</ele>
        <time>2011-09-06T09:44:02Z</time>
      </trkpt>
      <trkpt lat="44.27873" lon="6.10084">
        <ele>1787.70874</ele>
        <time>2011-09-06T09:44:19Z</time>
      </trkpt>
      <trkpt lat="44.27871" lon="6.10087">
        <ele>1787.70874</ele>
        <time>2011-09-06T09:44:24Z</time>
      </trkpt>
      <trkpt lat="44.27869" lon="6.10089">
        <ele>1785.786133</ele>
        <time>2011-09-06T09:44:26Z</time>
      </trkpt>
      <trkpt lat="44.27868" lon="6.1009">
        <ele>1785.786133</ele>
        <time>2011-09-06T09:44:27Z</time>
      </trkpt>
      <trkpt lat="44.27858" lon="6.10107">
        <ele>1787.228027</ele>
        <time>2011-09-06T09:44:45Z</time>
      </trkpt>
      <trkpt lat="44.27852" lon="6.10112">
        <ele>1788.189697</ele>
        <time>2011-09-06T09:44:52Z</time>
      </trkpt>
      <trkpt lat="44.27848" lon="6.10117">
        <ele>1789.631592</ele>
        <time>2011-09-06T09:44:59Z</time>
      </trkpt>
      <trkpt lat="44.27845" lon="6.10122">
        <ele>1790.112305</ele>
        <time>2011-09-06T09:45:05Z</time>
      </trkpt>
      <trkpt lat="44.27835" lon="6.10141">
        <ele>1792.034912</ele>
        <time>2011-09-06T09:45:25Z</time>
      </trkpt>
      <trkpt lat="44.27828" lon="6.10152">
        <ele>1792.515625</ele>
        <time>2011-09-06T09:45:37Z</time>
      </trkpt>
      <trkpt lat="44.27824" lon="6.10157">
        <ele>1793.95752</ele>
        <time>2011-09-06T09:45:43Z</time>
      </trkpt>
      <trkpt lat="44.27818" lon="6.10173">
        <ele>1795.880127</ele>
        <time>2011-09-06T09:45:57Z</time>
      </trkpt>
      <trkpt lat="44.27817" lon="6.10176">
        <ele>1794.437988</ele>
        <time>2011-09-06T09:45:59Z</time>
      </trkpt>
      <trkpt lat="44.27805" lon="6.10198">
        <ele>1796.36084</ele>
        <time>2011-09-06T09:46:21Z</time>
      </trkpt>
      <trkpt lat="44.27796" lon="6.10215">
        <ele>1798.763916</ele>
        <time>2011-09-06T09:46:38Z</time>
      </trkpt>
      <trkpt lat="44.27795" lon="6.1022">
        <ele>1798.763916</ele>
        <time>2011-09-06T09:46:42Z</time>
      </trkpt>
      <trkpt lat="44.27788" lon="6.10232">
        <ele>1801.167236</ele>
        <time>2011-09-06T09:46:55Z</time>
      </trkpt>
      <trkpt lat="44.2778" lon="6.10245">
        <ele>1803.089844</ele>
        <time>2011-09-06T09:47:15Z</time>
      </trkpt>
      <trkpt lat="44.27778" lon="6.10247">
        <ele>1804.051514</ele>
        <time>2011-09-06T09:47:18Z</time>
      </trkpt>
      <trkpt lat="44.27767" lon="6.10266">
        <ele>1806.45459</ele>
        <time>2011-09-06T09:47:39Z</time>
      </trkpt>
      <trkpt lat="44.27766" lon="6.10276">
        <ele>1807.416016</ele>
        <time>2011-09-06T09:47:48Z</time>
      </trkpt>
      <trkpt lat="44.27763" lon="6.10282">
        <ele>1807.896729</ele>
        <time>2011-09-06T09:47:53Z</time>
      </trkpt>
      <trkpt lat="44.2776" lon="6.10296">
        <ele>1809.338623</ele>
        <time>2011-09-06T09:48:07Z</time>
      </trkpt>
      <trkpt lat="44.27751" lon="6.10313">
        <ele>1811.741943</ele>
        <time>2011-09-06T09:48:26Z</time>
      </trkpt>
      <trkpt lat="44.27739" lon="6.10327">
        <ele>1813.183838</ele>
        <time>2011-09-06T09:48:43Z</time>
      </trkpt>
      <trkpt lat="44.27732" lon="6.10342">
        <ele>1815.106445</ele>
        <time>2011-09-06T09:48:59Z</time>
      </trkpt>
      <trkpt lat="44.27731" lon="6.10346">
        <ele>1815.587158</ele>
        <time>2011-09-06T09:49:02Z</time>
      </trkpt>
      <trkpt lat="44.27725" lon="6.10352">
        <ele>1819.432373</ele>
        <time>2011-09-06T09:49:10Z</time>
      </trkpt>
      <trkpt lat="44.27724" lon="6.10354">
        <ele>1819.432373</ele>
        <time>2011-09-06T09:49:11Z</time>
      </trkpt>
      <trkpt lat="44.27718" lon="6.10365">
        <ele>1821.35498</ele>
        <time>2011-09-06T09:49:25Z</time>
      </trkpt>
      <trkpt lat="44.27713" lon="6.10373">
        <ele>1820.874512</ele>
        <time>2011-09-06T09:49:39Z</time>
      </trkpt>
      <trkpt lat="44.27712" lon="6.10376">
        <ele>1819.912842</ele>
        <time>2011-09-06T09:49:42Z</time>
      </trkpt>
      <trkpt lat="44.27711" lon="6.10378">
        <ele>1818.95166</ele>
        <time>2011-09-06T09:49:44Z</time>
      </trkpt>
      <trkpt lat="44.27703" lon="6.10389">
        <ele>1819.912842</ele>
        <time>2011-09-06T09:49:54Z</time>
      </trkpt>
      <trkpt lat="44.27692" lon="6.10406">
        <ele>1822.797119</ele>
        <time>2011-09-06T09:50:15Z</time>
      </trkpt>
      <trkpt lat="44.27688" lon="6.10418">
        <ele>1822.797119</ele>
        <time>2011-09-06T09:50:26Z</time>
      </trkpt>
      <trkpt lat="44.27685" lon="6.10424">
        <ele>1824.239014</ele>
        <time>2011-09-06T09:50:32Z</time>
      </trkpt>
      <trkpt lat="44.27681" lon="6.10428">
        <ele>1826.642334</ele>
        <time>2011-09-06T09:50:41Z</time>
      </trkpt>
      <trkpt lat="44.2767" lon="6.10429">
        <ele>1828.564941</ele>
        <time>2011-09-06T09:50:57Z</time>
      </trkpt>
      <trkpt lat="44.27659" lon="6.10431">
        <ele>1831.44873</ele>
        <time>2011-09-06T09:51:11Z</time>
      </trkpt>
      <trkpt lat="44.27659" lon="6.1043">
        <ele>1831.44873</ele>
        <time>2011-09-06T09:51:12Z</time>
      </trkpt>
      <trkpt lat="44.27652" lon="6.10421">
        <ele>1835.293945</ele>
        <time>2011-09-06T09:51:31Z</time>
      </trkpt>
      <trkpt lat="44.27647" lon="6.10424">
        <ele>1837.216797</ele>
        <time>2011-09-06T09:51:39Z</time>
      </trkpt>
      <trkpt lat="44.27639" lon="6.10437">
        <ele>1841.062012</ele>
        <time>2011-09-06T09:51:57Z</time>
      </trkpt>
      <trkpt lat="44.27626" lon="6.10454">
        <ele>1844.907227</ele>
        <time>2011-09-06T09:52:20Z</time>
      </trkpt>
      <trkpt lat="44.27626" lon="6.10454">
        <ele>1844.907227</ele>
        <time>2011-09-06T09:52:21Z</time>
      </trkpt>
      <trkpt lat="44.27621" lon="6.10462">
        <ele>1845.387939</ele>
        <time>2011-09-06T09:52:41Z</time>
      </trkpt>
      <trkpt lat="44.2762" lon="6.10462">
        <ele>1847.79126</ele>
        <time>2011-09-06T09:52:58Z</time>
      </trkpt>
      <trkpt lat="44.27608" lon="6.10468">
        <ele>1847.310547</ele>
        <time>2011-09-06T09:53:19Z</time>
      </trkpt>
      <trkpt lat="44.27602" lon="6.10474">
        <ele>1848.752441</ele>
        <time>2011-09-06T09:53:35Z</time>
      </trkpt>
      <trkpt lat="44.27592" lon="6.1048">
        <ele>1851.155762</ele>
        <time>2011-09-06T09:53:55Z</time>
      </trkpt>
      <trkpt lat="44.27578" lon="6.1048">
        <ele>1851.155762</ele>
        <time>2011-09-06T09:54:12Z</time>
      </trkpt>
      <trkpt lat="44.27569" lon="6.10483">
        <ele>1850.675049</ele>
        <time>2011-09-06T09:54:28Z</time>
      </trkpt>
      <trkpt lat="44.27568" lon="6.10484">
        <ele>1852.117188</ele>
        <time>2011-09-06T09:54:30Z</time>
      </trkpt>
      <trkpt lat="44.27561" lon="6.10493">
        <ele>1852.117188</ele>
        <time>2011-09-06T09:54:48Z</time>
      </trkpt>
      <trkpt lat="44.27558" lon="6.10503">
        <ele>1854.520508</ele>
        <time>2011-09-06T09:55:06Z</time>
      </trkpt>
      <trkpt lat="44.27557" lon="6.10506">
        <ele>1857.404541</ele>
        <time>2011-09-06T09:55:15Z</time>
      </trkpt>
      <trkpt lat="44.27556" lon="6.10509">
        <ele>1859.327148</ele>
        <time>2011-09-06T09:55:26Z</time>
      </trkpt>
      <trkpt lat="44.27556" lon="6.10511">
        <ele>1861.730469</ele>
        <time>2011-09-06T09:55:29Z</time>
      </trkpt>
      <trkpt lat="44.27556" lon="6.10513">
        <ele>1862.69165</ele>
        <time>2011-09-06T09:55:36Z</time>
      </trkpt>
      <trkpt lat="44.27554" lon="6.10517">
        <ele>1863.172363</ele>
        <time>2011-09-06T09:55:49Z</time>
      </trkpt>
      <trkpt lat="44.27538" lon="6.10524">
        <ele>1864.614258</ele>
        <time>2011-09-06T09:56:06Z</time>
      </trkpt>
      <trkpt lat="44.27532" lon="6.10529">
        <ele>1863.652832</ele>
        <time>2011-09-06T09:56:13Z</time>
      </trkpt>
      <trkpt lat="44.27528" lon="6.10534">
        <ele>1865.094971</ele>
        <time>2011-09-06T09:56:19Z</time>
      </trkpt>
      <trkpt lat="44.27515" lon="6.10545">
        <ele>1864.614258</ele>
        <time>2011-09-06T09:56:34Z</time>
      </trkpt>
      <trkpt lat="44.27499" lon="6.10559">
        <ele>1865.094971</ele>
        <time>2011-09-06T09:56:56Z</time>
      </trkpt>
      <trkpt lat="44.2749" lon="6.10566">
        <ele>1867.017578</ele>
        <time>2011-09-06T09:57:10Z</time>
      </trkpt>
      <trkpt lat="44.27487" lon="6.10567">
        <ele>1868.94043</ele>
        <time>2011-09-06T09:57:17Z</time>
      </trkpt>
      <trkpt lat="44.27473" lon="6.10575">
        <ele>1872.304932</ele>
        <time>2011-09-06T09:57:39Z</time>
      </trkpt>
      <trkpt lat="44.27459" lon="6.1058">
        <ele>1875.188721</ele>
        <time>2011-09-06T09:58:00Z</time>
      </trkpt>
      <trkpt lat="44.27443" lon="6.10586">
        <ele>1878.072754</ele>
        <time>2011-09-06T09:58:24Z</time>
      </trkpt>
      <trkpt lat="44.27439" lon="6.1059">
        <ele>1879.995361</ele>
        <time>2011-09-06T09:58:32Z</time>
      </trkpt>
      <trkpt lat="44.27436" lon="6.10587">
        <ele>1879.995361</ele>
        <time>2011-09-06T09:58:50Z</time>
      </trkpt>
      <trkpt lat="44.27436" lon="6.10587">
        <ele>1879.995361</ele>
        <time>2011-09-06T09:59:10Z</time>
      </trkpt>
      <trkpt lat="44.27436" lon="6.10588">
        <ele>1880.956787</ele>
        <time>2011-09-06T09:59:32Z</time>
      </trkpt>
      <trkpt lat="44.27434" lon="6.10595">
        <ele>1879.995361</ele>
        <time>2011-09-06T10:00:03Z</time>
      </trkpt>
      <trkpt lat="44.27434" lon="6.106">
        <ele>1877.592041</ele>
        <time>2011-09-06T10:00:37Z</time>
      </trkpt>
      <trkpt lat="44.27434" lon="6.10601">
        <ele>1878.553467</ele>
        <time>2011-09-06T10:00:39Z</time>
      </trkpt>
      <trkpt lat="44.27435" lon="6.10608">
        <ele>1878.553467</ele>
        <time>2011-09-06T10:00:46Z</time>
      </trkpt>
      <trkpt lat="44.27436" lon="6.1061">
        <ele>1877.111572</ele>
        <time>2011-09-06T10:00:48Z</time>
      </trkpt>
      <trkpt lat="44.27433" lon="6.10634">
        <ele>1876.150146</ele>
        <time>2011-09-06T10:01:07Z</time>
      </trkpt>
      <trkpt lat="44.27428" lon="6.10651">
        <ele>1876.630859</ele>
        <time>2011-09-06T10:01:22Z</time>
      </trkpt>
      <trkpt lat="44.27423" lon="6.10663">
        <ele>1877.111572</ele>
        <time>2011-09-06T10:01:32Z</time>
      </trkpt>
      <trkpt lat="44.27422" lon="6.10666">
        <ele>1875.669434</ele>
        <time>2011-09-06T10:01:34Z</time>
      </trkpt>
      <trkpt lat="44.27421" lon="6.10669">
        <ele>1877.111572</ele>
        <time>2011-09-06T10:01:37Z</time>
      </trkpt>
      <trkpt lat="44.27416" lon="6.10674">
        <ele>1877.111572</ele>
        <time>2011-09-06T10:01:43Z</time>
      </trkpt>
      <trkpt lat="44.27416" lon="6.1068">
        <ele>1878.072754</ele>
        <time>2011-09-06T10:01:47Z</time>
      </trkpt>
      <trkpt lat="44.27402" lon="6.10707">
        <ele>1879.995361</ele>
        <time>2011-09-06T10:02:13Z</time>
      </trkpt>
      <trkpt lat="44.27402" lon="6.10708">
        <ele>1879.995361</ele>
        <time>2011-09-06T10:02:14Z</time>
      </trkpt>
      <trkpt lat="44.27396" lon="6.10732">
        <ele>1878.553467</ele>
        <time>2011-09-06T10:02:35Z</time>
      </trkpt>
      <trkpt lat="44.27391" lon="6.10745">
        <ele>1878.553467</ele>
        <time>2011-09-06T10:02:47Z</time>
      </trkpt>
      <trkpt lat="44.27381" lon="6.10759">
        <ele>1879.995361</ele>
        <time>2011-09-06T10:03:02Z</time>
      </trkpt>
      <trkpt lat="44.27378" lon="6.10762">
        <ele>1881.917969</ele>
        <time>2011-09-06T10:03:05Z</time>
      </trkpt>
      <trkpt lat="44.27376" lon="6.10764">
        <ele>1879.995361</ele>
        <time>2011-09-06T10:03:07Z</time>
      </trkpt>
      <trkpt lat="44.27372" lon="6.10767">
        <ele>1878.072754</ele>
        <time>2011-09-06T10:03:12Z</time>
      </trkpt>
      <trkpt lat="44.27363" lon="6.10769">
        <ele>1877.592041</ele>
        <time>2011-09-06T10:03:21Z</time>
      </trkpt>
      <trkpt lat="44.27361" lon="6.1077">
        <ele>1879.033936</ele>
        <time>2011-09-06T10:03:23Z</time>
      </trkpt>
      <trkpt lat="44.27346" lon="6.10769">
        <ele>1880.956787</ele>
        <time>2011-09-06T10:03:39Z</time>
      </trkpt>
      <trkpt lat="44.27337" lon="6.10758">
        <ele>1880.956787</ele>
        <time>2011-09-06T10:03:58Z</time>
      </trkpt>
      <trkpt lat="44.27337" lon="6.10758">
        <ele>1879.033936</ele>
        <time>2011-09-06T10:04:10Z</time>
      </trkpt>
      <trkpt lat="44.27337" lon="6.10758">
        <ele>1877.592041</ele>
        <time>2011-09-06T10:04:12Z</time>
      </trkpt>
      <trkpt lat="44.27337" lon="6.10758">
        <ele>1880.956787</ele>
        <time>2011-09-06T10:04:38Z</time>
      </trkpt>
      <trkpt lat="44.27337" lon="6.10758">
        <ele>1880.956787</ele>
        <time>2011-09-06T10:04:44Z</time>
      </trkpt>
      <trkpt lat="44.27337" lon="6.10758">
        <ele>1879.995361</ele>
        <time>2011-09-06T10:04:56Z</time>
      </trkpt>
      <trkpt lat="44.27337" lon="6.10758">
        <ele>1879.514648</ele>
        <time>2011-09-06T10:05:33Z</time>
      </trkpt>
      <trkpt lat="44.27337" lon="6.1076">
        <ele>1880.956787</ele>
        <time>2011-09-06T10:05:57Z</time>
      </trkpt>
      <trkpt lat="44.27337" lon="6.10767">
        <ele>1879.995361</ele>
        <time>2011-09-06T10:06:01Z</time>
      </trkpt>
      <trkpt lat="44.27328" lon="6.10786">
        <ele>1882.87915</ele>
        <time>2011-09-06T10:06:17Z</time>
      </trkpt>
      <trkpt lat="44.27325" lon="6.10791">
        <ele>1882.398682</ele>
        <time>2011-09-06T10:06:22Z</time>
      </trkpt>
      <trkpt lat="44.27314" lon="6.10809">
        <ele>1880.956787</ele>
        <time>2011-09-06T10:06:42Z</time>
      </trkpt>
      <trkpt lat="44.27306" lon="6.10819">
        <ele>1879.514648</ele>
        <time>2011-09-06T10:06:59Z</time>
      </trkpt>
      <trkpt lat="44.27296" lon="6.10832">
        <ele>1879.514648</ele>
        <time>2011-09-06T10:07:14Z</time>
      </trkpt>
      <trkpt lat="44.27289" lon="6.10855">
        <ele>1879.514648</ele>
        <time>2011-09-06T10:07:32Z</time>
      </trkpt>
      <trkpt lat="44.27281" lon="6.10873">
        <ele>1876.150146</ele>
        <time>2011-09-06T10:07:48Z</time>
      </trkpt>
      <trkpt lat="44.27278" lon="6.10878">
        <ele>1876.150146</ele>
        <time>2011-09-06T10:08:04Z</time>
      </trkpt>
      <trkpt lat="44.2728" lon="6.10876">
        <ele>1875.188721</ele>
        <time>2011-09-06T10:08:36Z</time>
      </trkpt>
      <trkpt lat="44.27292" lon="6.10869">
        <ele>1877.111572</ele>
        <time>2011-09-06T10:08:51Z</time>
      </trkpt>
      <trkpt lat="44.27295" lon="6.10859">
        <ele>1879.033936</ele>
        <time>2011-09-06T10:09:01Z</time>
      </trkpt>
      <trkpt lat="44.27297" lon="6.10852">
        <ele>1878.072754</ele>
        <time>2011-09-06T10:09:07Z</time>
      </trkpt>
      <trkpt lat="44.27304" lon="6.10833">
        <ele>1878.072754</ele>
        <time>2011-09-06T10:09:22Z</time>
      </trkpt>
      <trkpt lat="44.27308" lon="6.10826">
        <ele>1879.033936</ele>
        <time>2011-09-06T10:09:28Z</time>
      </trkpt>
      <trkpt lat="44.27318" lon="6.10813">
        <ele>1879.514648</ele>
        <time>2011-09-06T10:09:42Z</time>
      </trkpt>
      <trkpt lat="44.2732" lon="6.10811">
        <ele>1880.476074</ele>
        <time>2011-09-06T10:09:45Z</time>
      </trkpt>
      <trkpt lat="44.27334" lon="6.10797">
        <ele>1878.553467</ele>
        <time>2011-09-06T10:10:04Z</time>
      </trkpt>
      <trkpt lat="44.2734" lon="6.10792">
        <ele>1877.592041</ele>
        <time>2011-09-06T10:10:11Z</time>
      </trkpt>
      <trkpt lat="44.27353" lon="6.10785">
        <ele>1880.476074</ele>
        <time>2011-09-06T10:10:25Z</time>
      </trkpt>
      <trkpt lat="44.27357" lon="6.10783">
        <ele>1879.995361</ele>
        <time>2011-09-06T10:10:29Z</time>
      </trkpt>
      <trkpt lat="44.27366" lon="6.10778">
        <ele>1878.553467</ele>
        <time>2011-09-06T10:10:38Z</time>
      </trkpt>
      <trkpt lat="44.27372" lon="6.10779">
        <ele>1878.553467</ele>
        <time>2011-09-06T10:10:46Z</time>
      </trkpt>
      <trkpt lat="44.27379" lon="6.10766">
        <ele>1879.033936</ele>
        <time>2011-09-06T10:10:57Z</time>
      </trkpt>
      <trkpt lat="44.2738" lon="6.10761">
        <ele>1879.033936</ele>
        <time>2011-09-06T10:11:00Z</time>
      </trkpt>
      <trkpt lat="44.27393" lon="6.10744">
        <ele>1878.072754</ele>
        <time>2011-09-06T10:11:17Z</time>
      </trkpt>
      <trkpt lat="44.27402" lon="6.10725">
        <ele>1877.592041</ele>
        <time>2011-09-06T10:11:34Z</time>
      </trkpt>
      <trkpt lat="44.27412" lon="6.10707">
        <ele>1878.072754</ele>
        <time>2011-09-06T10:11:52Z</time>
      </trkpt>
      <trkpt lat="44.2742" lon="6.10687">
        <ele>1878.072754</ele>
        <time>2011-09-06T10:12:09Z</time>
      </trkpt>
      <trkpt lat="44.2742" lon="6.10683">
        <ele>1878.553467</ele>
        <time>2011-09-06T10:12:13Z</time>
      </trkpt>
      <trkpt lat="44.27423" lon="6.10664">
        <ele>1879.514648</ele>
        <time>2011-09-06T10:12:27Z</time>
      </trkpt>
      <trkpt lat="44.27432" lon="6.10644">
        <ele>1879.514648</ele>
        <time>2011-09-06T10:12:45Z</time>
      </trkpt>
      <trkpt lat="44.27435" lon="6.10637">
        <ele>1877.592041</ele>
        <time>2011-09-06T10:12:50Z</time>
      </trkpt>
      <trkpt lat="44.27438" lon="6.10632">
        <ele>1879.995361</ele>
        <time>2011-09-06T10:12:56Z</time>
      </trkpt>
      <trkpt lat="44.27438" lon="6.10619">
        <ele>1879.033936</ele>
        <time>2011-09-06T10:13:07Z</time>
      </trkpt>
      <trkpt lat="44.27439" lon="6.10607">
        <ele>1880.956787</ele>
        <time>2011-09-06T10:13:16Z</time>
      </trkpt>
      <trkpt lat="44.27438" lon="6.10594">
        <ele>1880.956787</ele>
        <time>2011-09-06T10:13:29Z</time>
      </trkpt>
      <trkpt lat="44.27439" lon="6.10588">
        <ele>1880.956787</ele>
        <time>2011-09-06T10:13:46Z</time>
      </trkpt>
      <trkpt lat="44.27439" lon="6.10588">
        <ele>1882.398682</ele>
        <time>2011-09-06T10:13:58Z</time>
      </trkpt>
      <trkpt lat="44.27432" lon="6.10582">
        <ele>1879.995361</ele>
        <time>2011-09-06T10:15:20Z</time>
      </trkpt>
      <trkpt lat="44.2743" lon="6.10584">
        <ele>1879.995361</ele>
        <time>2011-09-06T10:15:39Z</time>
      </trkpt>
      <trkpt lat="44.27432" lon="6.10587">
        <ele>1882.87915</ele>
        <time>2011-09-06T10:15:58Z</time>
      </trkpt>
      <trkpt lat="44.2744" lon="6.10599">
        <ele>1880.476074</ele>
        <time>2011-09-06T10:16:14Z</time>
      </trkpt>
      <trkpt lat="44.27444" lon="6.106">
        <ele>1879.514648</ele>
        <time>2011-09-06T10:16:27Z</time>
      </trkpt>
      <trkpt lat="44.27444" lon="6.106">
        <ele>1879.514648</ele>
        <time>2011-09-06T10:17:12Z</time>
      </trkpt>
      <trkpt lat="44.27444" lon="6.106">
        <ele>1878.072754</ele>
        <time>2011-09-06T10:20:06Z</time>
      </trkpt>
      <trkpt lat="44.27444" lon="6.106">
        <ele>1879.995361</ele>
        <time>2011-09-06T10:20:15Z</time>
      </trkpt>
      <trkpt lat="44.27444" lon="6.106">
        <ele>1880.956787</ele>
        <time>2011-09-06T10:21:52Z</time>
      </trkpt>
      <trkpt lat="44.27444" lon="6.106">
        <ele>1879.033936</ele>
        <time>2011-09-06T10:21:55Z</time>
      </trkpt>
      <trkpt lat="44.27444" lon="6.106">
        <ele>1878.553467</ele>
        <time>2011-09-06T10:22:02Z</time>
      </trkpt>
      <trkpt lat="44.27444" lon="6.106">
        <ele>1880.476074</ele>
        <time>2011-09-06T10:24:00Z</time>
      </trkpt>
      <trkpt lat="44.27449" lon="6.10601">
        <ele>1881.437256</ele>
        <time>2011-09-06T10:48:26Z</time>
      </trkpt>
      <trkpt lat="44.27448" lon="6.10602">
        <ele>1880.476074</ele>
        <time>2011-09-06T10:49:36Z</time>
      </trkpt>
      <trkpt lat="44.27448" lon="6.10602">
        <ele>1881.917969</ele>
        <time>2011-09-06T10:49:44Z</time>
      </trkpt>
      <trkpt lat="44.27448" lon="6.10602">
        <ele>1882.87915</ele>
        <time>2011-09-06T10:50:00Z</time>
      </trkpt>
      <trkpt lat="44.27449" lon="6.106">
        <ele>1881.437256</ele>
        <time>2011-09-06T10:50:19Z</time>
      </trkpt>
      <trkpt lat="44.27451" lon="6.10599">
        <ele>1881.917969</ele>
        <time>2011-09-06T10:50:26Z</time>
      </trkpt>
      <trkpt lat="44.27466" lon="6.10603">
        <ele>1879.033936</ele>
        <time>2011-09-06T10:50:45Z</time>
      </trkpt>
      <trkpt lat="44.2747" lon="6.10603">
        <ele>1877.592041</ele>
        <time>2011-09-06T10:50:51Z</time>
      </trkpt>
      <trkpt lat="44.27478" lon="6.10608">
        <ele>1874.227539</ele>
        <time>2011-09-06T10:51:04Z</time>
      </trkpt>
      <trkpt lat="44.27482" lon="6.10612">
        <ele>1873.746826</ele>
        <time>2011-09-06T10:51:12Z</time>
      </trkpt>
      <trkpt lat="44.27484" lon="6.10614">
        <ele>1872.304932</ele>
        <time>2011-09-06T10:51:15Z</time>
      </trkpt>
      <trkpt lat="44.27489" lon="6.1062">
        <ele>1870.382324</ele>
        <time>2011-09-06T10:51:30Z</time>
      </trkpt>
      <trkpt lat="44.27493" lon="6.10621">
        <ele>1869.421143</ele>
        <time>2011-09-06T10:51:35Z</time>
      </trkpt>
      <trkpt lat="44.275" lon="6.10624">
        <ele>1867.498047</ele>
        <time>2011-09-06T10:51:45Z</time>
      </trkpt>
      <trkpt lat="44.2751" lon="6.10632">
        <ele>1863.652832</ele>
        <time>2011-09-06T10:51:58Z</time>
      </trkpt>
      <trkpt lat="44.27531" lon="6.10653">
        <ele>1860.769043</ele>
        <time>2011-09-06T10:52:23Z</time>
      </trkpt>
      <trkpt lat="44.27539" lon="6.10662">
        <ele>1857.885254</ele>
        <time>2011-09-06T10:52:31Z</time>
      </trkpt>
      <trkpt lat="44.2756" lon="6.10683">
        <ele>1854.040039</ele>
        <time>2011-09-06T10:52:55Z</time>
      </trkpt>
      <trkpt lat="44.27586" lon="6.107">
        <ele>1851.636475</ele>
        <time>2011-09-06T10:53:21Z</time>
      </trkpt>
      <trkpt lat="44.27596" lon="6.10705">
        <ele>1848.271729</ele>
        <time>2011-09-06T10:53:34Z</time>
      </trkpt>
      <trkpt lat="44.27597" lon="6.10706">
        <ele>1846.829834</ele>
        <time>2011-09-06T10:53:36Z</time>
      </trkpt>
      <trkpt lat="44.27601" lon="6.10707">
        <ele>1843.946045</ele>
        <time>2011-09-06T10:53:45Z</time>
      </trkpt>
      <trkpt lat="44.27608" lon="6.10709">
        <ele>1841.062012</ele>
        <time>2011-09-06T10:53:58Z</time>
      </trkpt>
      <trkpt lat="44.27615" lon="6.10714">
        <ele>1839.620117</ele>
        <time>2011-09-06T10:54:13Z</time>
      </trkpt>
      <trkpt lat="44.27619" lon="6.10715">
        <ele>1836.736084</ele>
        <time>2011-09-06T10:54:23Z</time>
      </trkpt>
      <trkpt lat="44.27625" lon="6.10713">
        <ele>1833.371338</ele>
        <time>2011-09-06T10:54:35Z</time>
      </trkpt>
      <trkpt lat="44.2763" lon="6.10713">
        <ele>1830.487549</ele>
        <time>2011-09-06T10:54:46Z</time>
      </trkpt>
      <trkpt lat="44.27638" lon="6.10708">
        <ele>1828.084229</ele>
        <time>2011-09-06T10:55:05Z</time>
      </trkpt>
      <trkpt lat="44.27644" lon="6.10711">
        <ele>1824.719727</ele>
        <time>2011-09-06T10:55:21Z</time>
      </trkpt>
      <trkpt lat="44.27649" lon="6.10718">
        <ele>1820.874512</ele>
        <time>2011-09-06T10:55:35Z</time>
      </trkpt>
      <trkpt lat="44.27653" lon="6.1072">
        <ele>1819.912842</ele>
        <time>2011-09-06T10:55:49Z</time>
      </trkpt>
      <trkpt lat="44.27657" lon="6.10719">
        <ele>1816.54834</ele>
        <time>2011-09-06T10:56:03Z</time>
      </trkpt>
      <trkpt lat="44.27661" lon="6.10725">
        <ele>1813.664307</ele>
        <time>2011-09-06T10:56:20Z</time>
      </trkpt>
      <trkpt lat="44.27662" lon="6.10726">
        <ele>1812.703125</ele>
        <time>2011-09-06T10:56:21Z</time>
      </trkpt>
      <trkpt lat="44.27667" lon="6.10734">
        <ele>1809.819092</ele>
        <time>2011-09-06T10:56:31Z</time>
      </trkpt>
      <trkpt lat="44.27673" lon="6.10737">
        <ele>1805.973877</ele>
        <time>2011-09-06T10:56:45Z</time>
      </trkpt>
      <trkpt lat="44.2768" lon="6.10734">
        <ele>1802.609131</ele>
        <time>2011-09-06T10:56:59Z</time>
      </trkpt>
      <trkpt lat="44.27692" lon="6.10739">
        <ele>1800.686523</ele>
        <time>2011-09-06T10:57:15Z</time>
      </trkpt>
      <trkpt lat="44.27704" lon="6.10738">
        <ele>1798.763916</ele>
        <time>2011-09-06T10:57:28Z</time>
      </trkpt>
      <trkpt lat="44.27708" lon="6.10735">
        <ele>1795.399414</ele>
        <time>2011-09-06T10:57:36Z</time>
      </trkpt>
      <trkpt lat="44.27709" lon="6.10734">
        <ele>1795.399414</ele>
        <time>2011-09-06T10:57:37Z</time>
      </trkpt>
      <trkpt lat="44.27716" lon="6.10735">
        <ele>1792.515625</ele>
        <time>2011-09-06T10:57:47Z</time>
      </trkpt>
      <trkpt lat="44.27721" lon="6.10735">
        <ele>1791.073486</ele>
        <time>2011-09-06T10:57:53Z</time>
      </trkpt>
      <trkpt lat="44.27737" lon="6.10735">
        <ele>1789.150879</ele>
        <time>2011-09-06T10:58:13Z</time>
      </trkpt>
      <trkpt lat="44.27738" lon="6.10732">
        <ele>1788.67041</ele>
        <time>2011-09-06T10:58:15Z</time>
      </trkpt>
      <trkpt lat="44.2774" lon="6.10727">
        <ele>1786.266846</ele>
        <time>2011-09-06T10:58:18Z</time>
      </trkpt>
      <trkpt lat="44.27748" lon="6.10715">
        <ele>1784.344238</ele>
        <time>2011-09-06T10:58:30Z</time>
      </trkpt>
      <trkpt lat="44.2776" lon="6.10697">
        <ele>1780.979736</ele>
        <time>2011-09-06T10:58:50Z</time>
      </trkpt>
      <trkpt lat="44.2776" lon="6.10696">
        <ele>1780.979736</ele>
        <time>2011-09-06T10:58:51Z</time>
      </trkpt>
      <trkpt lat="44.27763" lon="6.10696">
        <ele>1778.576416</ele>
        <time>2011-09-06T10:58:58Z</time>
      </trkpt>
      <trkpt lat="44.27769" lon="6.10695">
        <ele>1775.21167</ele>
        <time>2011-09-06T10:59:13Z</time>
      </trkpt>
      <trkpt lat="44.27775" lon="6.10692">
        <ele>1772.808594</ele>
        <time>2011-09-06T10:59:26Z</time>
      </trkpt>
      <trkpt lat="44.2778" lon="6.10692">
        <ele>1770.405029</ele>
        <time>2011-09-06T10:59:35Z</time>
      </trkpt>
      <trkpt lat="44.27787" lon="6.10691">
        <ele>1767.040527</ele>
        <time>2011-09-06T10:59:52Z</time>
      </trkpt>
      <trkpt lat="44.278" lon="6.1069">
        <ele>1764.156494</ele>
        <time>2011-09-06T11:00:10Z</time>
      </trkpt>
      <trkpt lat="44.27808" lon="6.1069">
        <ele>1761.272705</ele>
        <time>2011-09-06T11:00:24Z</time>
      </trkpt>
      <trkpt lat="44.27816" lon="6.10689">
        <ele>1758.388672</ele>
        <time>2011-09-06T11:00:33Z</time>
      </trkpt>
      <trkpt lat="44.27826" lon="6.10689">
        <ele>1755.504639</ele>
        <time>2011-09-06T11:00:45Z</time>
      </trkpt>
      <trkpt lat="44.27836" lon="6.10693">
        <ele>1752.139893</ele>
        <time>2011-09-06T11:00:59Z</time>
      </trkpt>
      <trkpt lat="44.27846" lon="6.10695">
        <ele>1748.775391</ele>
        <time>2011-09-06T11:01:13Z</time>
      </trkpt>
      <trkpt lat="44.27859" lon="6.10697">
        <ele>1745.410889</ele>
        <time>2011-09-06T11:01:27Z</time>
      </trkpt>
      <trkpt lat="44.27872" lon="6.107">
        <ele>1742.046387</ele>
        <time>2011-09-06T11:01:45Z</time>
      </trkpt>
      <trkpt lat="44.27881" lon="6.10695">
        <ele>1739.162109</ele>
        <time>2011-09-06T11:02:02Z</time>
      </trkpt>
      <trkpt lat="44.27884" lon="6.10694">
        <ele>1738.681641</ele>
        <time>2011-09-06T11:02:06Z</time>
      </trkpt>
      <trkpt lat="44.27892" lon="6.10688">
        <ele>1734.355713</ele>
        <time>2011-09-06T11:02:20Z</time>
      </trkpt>
      <trkpt lat="44.27899" lon="6.10682">
        <ele>1731.47168</ele>
        <time>2011-09-06T11:02:36Z</time>
      </trkpt>
      <trkpt lat="44.27906" lon="6.10677">
        <ele>1728.107178</ele>
        <time>2011-09-06T11:02:55Z</time>
      </trkpt>
      <trkpt lat="44.2791" lon="6.10677">
        <ele>1726.665283</ele>
        <time>2011-09-06T11:03:01Z</time>
      </trkpt>
      <trkpt lat="44.27919" lon="6.10677">
        <ele>1723.300537</ele>
        <time>2011-09-06T11:03:14Z</time>
      </trkpt>
      <trkpt lat="44.27928" lon="6.10679">
        <ele>1720.416504</ele>
        <time>2011-09-06T11:03:28Z</time>
      </trkpt>
      <trkpt lat="44.27936" lon="6.10683">
        <ele>1717.052002</ele>
        <time>2011-09-06T11:03:39Z</time>
      </trkpt>
      <trkpt lat="44.2794" lon="6.10686">
        <ele>1715.129395</ele>
        <time>2011-09-06T11:03:45Z</time>
      </trkpt>
      <trkpt lat="44.27947" lon="6.10688">
        <ele>1711.764893</ele>
        <time>2011-09-06T11:04:00Z</time>
      </trkpt>
      <trkpt lat="44.27953" lon="6.1069">
        <ele>1708.400146</ele>
        <time>2011-09-06T11:04:09Z</time>
      </trkpt>
      <trkpt lat="44.27961" lon="6.10692">
        <ele>1705.0354</ele>
        <time>2011-09-06T11:04:18Z</time>
      </trkpt>
      <trkpt lat="44.27971" lon="6.10694">
        <ele>1701.670898</ele>
        <time>2011-09-06T11:04:32Z</time>
      </trkpt>
      <trkpt lat="44.27982" lon="6.10694">
        <ele>1698.306152</ele>
        <time>2011-09-06T11:04:46Z</time>
      </trkpt>
      <trkpt lat="44.27984" lon="6.10694">
        <ele>1697.825684</ele>
        <time>2011-09-06T11:04:49Z</time>
      </trkpt>
      <trkpt lat="44.27989" lon="6.10695">
        <ele>1694.460938</ele>
        <time>2011-09-06T11:04:56Z</time>
      </trkpt>
      <trkpt lat="44.27997" lon="6.10696">
        <ele>1691.576904</ele>
        <time>2011-09-06T11:05:07Z</time>
      </trkpt>
      <trkpt lat="44.28001" lon="6.10696">
        <ele>1690.13501</ele>
        <time>2011-09-06T11:05:13Z</time>
      </trkpt>
      <trkpt lat="44.28008" lon="6.10698">
        <ele>1687.250977</ele>
        <time>2011-09-06T11:05:25Z</time>
      </trkpt>
      <trkpt lat="44.28015" lon="6.10698">
        <ele>1683.886475</ele>
        <time>2011-09-06T11:05:35Z</time>
      </trkpt>
      <trkpt lat="44.28025" lon="6.10698">
        <ele>1680.521973</ele>
        <time>2011-09-06T11:05:48Z</time>
      </trkpt>
      <trkpt lat="44.28031" lon="6.10699">
        <ele>1677.157471</ele>
        <time>2011-09-06T11:05:58Z</time>
      </trkpt>
      <trkpt lat="44.28042" lon="6.10703">
        <ele>1673.79248</ele>
        <time>2011-09-06T11:06:12Z</time>
      </trkpt>
      <trkpt lat="44.28051" lon="6.10704">
        <ele>1671.38916</ele>
        <time>2011-09-06T11:06:25Z</time>
      </trkpt>
      <trkpt lat="44.28058" lon="6.10709">
        <ele>1668.505371</ele>
        <time>2011-09-06T11:06:35Z</time>
      </trkpt>
      <trkpt lat="44.28061" lon="6.1071">
        <ele>1666.582764</ele>
        <time>2011-09-06T11:06:41Z</time>
      </trkpt>
      <trkpt lat="44.28067" lon="6.10712">
        <ele>1663.218262</ele>
        <time>2011-09-06T11:07:00Z</time>
      </trkpt>
      <trkpt lat="44.28085" lon="6.10725">
        <ele>1662.256836</ele>
        <time>2011-09-06T11:07:19Z</time>
      </trkpt>
      <trkpt lat="44.28097" lon="6.10727">
        <ele>1660.814941</ele>
        <time>2011-09-06T11:07:33Z</time>
      </trkpt>
      <trkpt lat="44.28101" lon="6.10723">
        <ele>1659.853271</ele>
        <time>2011-09-06T11:07:51Z</time>
      </trkpt>
      <trkpt lat="44.28101" lon="6.10722">
        <ele>1658.89209</ele>
        <time>2011-09-06T11:07:53Z</time>
      </trkpt>
      <trkpt lat="44.28108" lon="6.10713">
        <ele>1656.008057</ele>
        <time>2011-09-06T11:08:07Z</time>
      </trkpt>
      <trkpt lat="44.28118" lon="6.1069">
        <ele>1656.008057</ele>
        <time>2011-09-06T11:08:24Z</time>
      </trkpt>
      <trkpt lat="44.2812" lon="6.10687">
        <ele>1653.124268</ele>
        <time>2011-09-06T11:08:27Z</time>
      </trkpt>
      <trkpt lat="44.28128" lon="6.10659">
        <ele>1652.643555</ele>
        <time>2011-09-06T11:08:48Z</time>
      </trkpt>
      <trkpt lat="44.28141" lon="6.10631">
        <ele>1650.720947</ele>
        <time>2011-09-06T11:09:11Z</time>
      </trkpt>
      <trkpt lat="44.28147" lon="6.10624">
        <ele>1651.20166</ele>
        <time>2011-09-06T11:09:20Z</time>
      </trkpt>
      <trkpt lat="44.2815" lon="6.10622">
        <ele>1649.759766</ele>
        <time>2011-09-06T11:09:23Z</time>
      </trkpt>
      <trkpt lat="44.28152" lon="6.10617">
        <ele>1650.720947</ele>
        <time>2011-09-06T11:09:27Z</time>
      </trkpt>
      <trkpt lat="44.28155" lon="6.10613">
        <ele>1650.720947</ele>
        <time>2011-09-06T11:09:32Z</time>
      </trkpt>
      <trkpt lat="44.28159" lon="6.10609">
        <ele>1649.279053</ele>
        <time>2011-09-06T11:09:37Z</time>
      </trkpt>
      <trkpt lat="44.28168" lon="6.10599">
        <ele>1650.240479</ele>
        <time>2011-09-06T11:09:48Z</time>
      </trkpt>
      <trkpt lat="44.28173" lon="6.10594">
        <ele>1649.279053</ele>
        <time>2011-09-06T11:10:07Z</time>
      </trkpt>
      <trkpt lat="44.28173" lon="6.10598">
        <ele>1649.279053</ele>
        <time>2011-09-06T11:10:44Z</time>
      </trkpt>
      <trkpt lat="44.28173" lon="6.1061">
        <ele>1646.395264</ele>
        <time>2011-09-06T11:10:51Z</time>
      </trkpt>
      <trkpt lat="44.28173" lon="6.10617">
        <ele>1645.914551</ele>
        <time>2011-09-06T11:10:56Z</time>
      </trkpt>
      <trkpt lat="44.28169" lon="6.10624">
        <ele>1644.472412</ele>
        <time>2011-09-06T11:11:02Z</time>
      </trkpt>
      <trkpt lat="44.2817" lon="6.10627">
        <ele>1644.472412</ele>
        <time>2011-09-06T11:11:05Z</time>
      </trkpt>
      <trkpt lat="44.28166" lon="6.1064">
        <ele>1642.549805</ele>
        <time>2011-09-06T11:11:18Z</time>
      </trkpt>
      <trkpt lat="44.28165" lon="6.10645">
        <ele>1642.069092</ele>
        <time>2011-09-06T11:11:20Z</time>
      </trkpt>
      <trkpt lat="44.28165" lon="6.10655">
        <ele>1642.069092</ele>
        <time>2011-09-06T11:11:40Z</time>
      </trkpt>
      <trkpt lat="44.28161" lon="6.10672">
        <ele>1638.70459</ele>
        <time>2011-09-06T11:11:59Z</time>
      </trkpt>
      <trkpt lat="44.2816" lon="6.10677">
        <ele>1636.30127</ele>
        <time>2011-09-06T11:12:07Z</time>
      </trkpt>
      <trkpt lat="44.28158" lon="6.10693">
        <ele>1634.378662</ele>
        <time>2011-09-06T11:12:19Z</time>
      </trkpt>
      <trkpt lat="44.28157" lon="6.1071">
        <ele>1630.533447</ele>
        <time>2011-09-06T11:12:36Z</time>
      </trkpt>
      <trkpt lat="44.28157" lon="6.10711">
        <ele>1630.533447</ele>
        <time>2011-09-06T11:12:37Z</time>
      </trkpt>
      <trkpt lat="44.28156" lon="6.10733">
        <ele>1628.130127</ele>
        <time>2011-09-06T11:12:58Z</time>
      </trkpt>
      <trkpt lat="44.28156" lon="6.10764">
        <ele>1625.24585</ele>
        <time>2011-09-06T11:13:25Z</time>
      </trkpt>
      <trkpt lat="44.28154" lon="6.10786">
        <ele>1623.323486</ele>
        <time>2011-09-06T11:13:44Z</time>
      </trkpt>
      <trkpt lat="44.28151" lon="6.10805">
        <ele>1619.95874</ele>
        <time>2011-09-06T11:13:59Z</time>
      </trkpt>
      <trkpt lat="44.2815" lon="6.1081">
        <ele>1619.478271</ele>
        <time>2011-09-06T11:14:03Z</time>
      </trkpt>
      <trkpt lat="44.28144" lon="6.10835">
        <ele>1616.113525</ele>
        <time>2011-09-06T11:14:25Z</time>
      </trkpt>
      <trkpt lat="44.28134" lon="6.1086">
        <ele>1614.190918</ele>
        <time>2011-09-06T11:14:48Z</time>
      </trkpt>
      <trkpt lat="44.28133" lon="6.10863">
        <ele>1613.710205</ele>
        <time>2011-09-06T11:14:50Z</time>
      </trkpt>
      <trkpt lat="44.28131" lon="6.1089">
        <ele>1609.384277</ele>
        <time>2011-09-06T11:15:13Z</time>
      </trkpt>
      <trkpt lat="44.28131" lon="6.10892">
        <ele>1608.903564</ele>
        <time>2011-09-06T11:15:15Z</time>
      </trkpt>
      <trkpt lat="44.28133" lon="6.10906">
        <ele>1605.539063</ele>
        <time>2011-09-06T11:15:28Z</time>
      </trkpt>
      <trkpt lat="44.28133" lon="6.10926">
        <ele>1602.655029</ele>
        <time>2011-09-06T11:15:44Z</time>
      </trkpt>
      <trkpt lat="44.28126" lon="6.10949">
        <ele>1599.290527</ele>
        <time>2011-09-06T11:16:04Z</time>
      </trkpt>
      <trkpt lat="44.28126" lon="6.10971">
        <ele>1596.887207</ele>
        <time>2011-09-06T11:16:24Z</time>
      </trkpt>
      <trkpt lat="44.28128" lon="6.10984">
        <ele>1595.445068</ele>
        <time>2011-09-06T11:16:34Z</time>
      </trkpt>
      <trkpt lat="44.28135" lon="6.11004">
        <ele>1591.599854</ele>
        <time>2011-09-06T11:16:53Z</time>
      </trkpt>
      <trkpt lat="44.28139" lon="6.11013">
        <ele>1590.638428</ele>
        <time>2011-09-06T11:17:02Z</time>
      </trkpt>
      <trkpt lat="44.2814" lon="6.11031">
        <ele>1588.235352</ele>
        <time>2011-09-06T11:17:17Z</time>
      </trkpt>
      <trkpt lat="44.28138" lon="6.11042">
        <ele>1586.312744</ele>
        <time>2011-09-06T11:17:28Z</time>
      </trkpt>
      <trkpt lat="44.28136" lon="6.11062">
        <ele>1585.351318</ele>
        <time>2011-09-06T11:17:44Z</time>
      </trkpt>
      <trkpt lat="44.28131" lon="6.11095">
        <ele>1582.947998</ele>
        <time>2011-09-06T11:18:07Z</time>
      </trkpt>
      <trkpt lat="44.28119" lon="6.11131">
        <ele>1580.064209</ele>
        <time>2011-09-06T11:18:33Z</time>
      </trkpt>
      <trkpt lat="44.28111" lon="6.11167">
        <ele>1577.660645</ele>
        <time>2011-09-06T11:19:00Z</time>
      </trkpt>
      <trkpt lat="44.28103" lon="6.11193">
        <ele>1574.776855</ele>
        <time>2011-09-06T11:19:19Z</time>
      </trkpt>
      <trkpt lat="44.28098" lon="6.11221">
        <ele>1571.412109</ele>
        <time>2011-09-06T11:19:40Z</time>
      </trkpt>
      <trkpt lat="44.28097" lon="6.1123">
        <ele>1570.931641</ele>
        <time>2011-09-06T11:19:47Z</time>
      </trkpt>
      <trkpt lat="44.28097" lon="6.11234">
        <ele>1570.931641</ele>
        <time>2011-09-06T11:19:50Z</time>
      </trkpt>
      <trkpt lat="44.28104" lon="6.11251">
        <ele>1569.970215</ele>
        <time>2011-09-06T11:20:07Z</time>
      </trkpt>
      <trkpt lat="44.28111" lon="6.11262">
        <ele>1567.086426</ele>
        <time>2011-09-06T11:20:22Z</time>
      </trkpt>
      <trkpt lat="44.28113" lon="6.11269">
        <ele>1565.163818</ele>
        <time>2011-09-06T11:20:28Z</time>
      </trkpt>
      <trkpt lat="44.28114" lon="6.11276">
        <ele>1565.163818</ele>
        <time>2011-09-06T11:20:34Z</time>
      </trkpt>
      <trkpt lat="44.28113" lon="6.11305">
        <ele>1563.721436</ele>
        <time>2011-09-06T11:20:54Z</time>
      </trkpt>
      <trkpt lat="44.28114" lon="6.11315">
        <ele>1562.760254</ele>
        <time>2011-09-06T11:21:09Z</time>
      </trkpt>
      <trkpt lat="44.28113" lon="6.11311">
        <ele>1562.279541</ele>
        <time>2011-09-06T11:21:14Z</time>
      </trkpt>
      <trkpt lat="44.28112" lon="6.11301">
        <ele>1563.240967</ele>
        <time>2011-09-06T11:21:19Z</time>
      </trkpt>
      <trkpt lat="44.28113" lon="6.11299">
        <ele>1563.240967</ele>
        <time>2011-09-06T11:21:21Z</time>
      </trkpt>
      <trkpt lat="44.28114" lon="6.11272">
        <ele>1564.202393</ele>
        <time>2011-09-06T11:21:41Z</time>
      </trkpt>
      <trkpt lat="44.28119" lon="6.11257">
        <ele>1563.240967</ele>
        <time>2011-09-06T11:21:55Z</time>
      </trkpt>
      <trkpt lat="44.28121" lon="6.11254">
        <ele>1563.721436</ele>
        <time>2011-09-06T11:21:58Z</time>
      </trkpt>
      <trkpt lat="44.28124" lon="6.11252">
        <ele>1563.240967</ele>
        <time>2011-09-06T11:22:17Z</time>
      </trkpt>
      <trkpt lat="44.28125" lon="6.11252">
        <ele>1561.799072</ele>
        <time>2011-09-06T11:22:30Z</time>
      </trkpt>
      <trkpt lat="44.28128" lon="6.11252">
        <ele>1562.279541</ele>
        <time>2011-09-06T11:23:46Z</time>
      </trkpt>
      <trkpt lat="44.28129" lon="6.11252">
        <ele>1560.837646</ele>
        <time>2011-09-06T11:23:48Z</time>
      </trkpt>
      <trkpt lat="44.2813" lon="6.11253">
        <ele>1562.279541</ele>
        <time>2011-09-06T11:23:58Z</time>
      </trkpt>
      <trkpt lat="44.28131" lon="6.11253">
        <ele>1562.279541</ele>
        <time>2011-09-06T11:24:09Z</time>
      </trkpt>
      <trkpt lat="44.28132" lon="6.11255">
        <ele>1560.837646</ele>
        <time>2011-09-06T11:24:34Z</time>
      </trkpt>
      <trkpt lat="44.28134" lon="6.11273">
        <ele>1556.992432</ele>
        <time>2011-09-06T11:24:50Z</time>
      </trkpt>
      <trkpt lat="44.28137" lon="6.11278">
        <ele>1555.550537</ele>
        <time>2011-09-06T11:24:57Z</time>
      </trkpt>
      <trkpt lat="44.28141" lon="6.11289">
        <ele>1553.62793</ele>
        <time>2011-09-06T11:25:08Z</time>
      </trkpt>
      <trkpt lat="44.28146" lon="6.11295">
        <ele>1552.666504</ele>
        <time>2011-09-06T11:25:14Z</time>
      </trkpt>
      <trkpt lat="44.28151" lon="6.11303">
        <ele>1551.224609</ele>
        <time>2011-09-06T11:25:35Z</time>
      </trkpt>
      <trkpt lat="44.28154" lon="6.11298">
        <ele>1549.302002</ele>
        <time>2011-09-06T11:25:50Z</time>
      </trkpt>
      <trkpt lat="44.2816" lon="6.11292">
        <ele>1545.937256</ele>
        <time>2011-09-06T11:26:07Z</time>
      </trkpt>
      <trkpt lat="44.28166" lon="6.11289">
        <ele>1544.495117</ele>
        <time>2011-09-06T11:26:15Z</time>
      </trkpt>
      <trkpt lat="44.28176" lon="6.11283">
        <ele>1541.130615</ele>
        <time>2011-09-06T11:26:27Z</time>
      </trkpt>
      <trkpt lat="44.28178" lon="6.11282">
        <ele>1541.130615</ele>
        <time>2011-09-06T11:26:30Z</time>
      </trkpt>
      <trkpt lat="44.28191" lon="6.11274">
        <ele>1538.246826</ele>
        <time>2011-09-06T11:26:46Z</time>
      </trkpt>
      <trkpt lat="44.28195" lon="6.11271">
        <ele>1537.766113</ele>
        <time>2011-09-06T11:26:51Z</time>
      </trkpt>
      <trkpt lat="44.28204" lon="6.11258">
        <ele>1534.401611</ele>
        <time>2011-09-06T11:27:04Z</time>
      </trkpt>
      <trkpt lat="44.28214" lon="6.11251">
        <ele>1531.036865</ele>
        <time>2011-09-06T11:27:14Z</time>
      </trkpt>
      <trkpt lat="44.28225" lon="6.1124">
        <ele>1528.152832</ele>
        <time>2011-09-06T11:27:29Z</time>
      </trkpt>
      <trkpt lat="44.28241" lon="6.11226">
        <ele>1525.268799</ele>
        <time>2011-09-06T11:27:49Z</time>
      </trkpt>
      <trkpt lat="44.28255" lon="6.11211">
        <ele>1521.904297</ele>
        <time>2011-09-06T11:28:09Z</time>
      </trkpt>
      <trkpt lat="44.28256" lon="6.1121">
        <ele>1521.423584</ele>
        <time>2011-09-06T11:28:11Z</time>
      </trkpt>
      <trkpt lat="44.28265" lon="6.11221">
        <ele>1518.539795</ele>
        <time>2011-09-06T11:28:28Z</time>
      </trkpt>
      <trkpt lat="44.28273" lon="6.11217">
        <ele>1516.136475</ele>
        <time>2011-09-06T11:28:42Z</time>
      </trkpt>
      <trkpt lat="44.28274" lon="6.11214">
        <ele>1515.175049</ele>
        <time>2011-09-06T11:28:44Z</time>
      </trkpt>
      <trkpt lat="44.28278" lon="6.1121">
        <ele>1514.213623</ele>
        <time>2011-09-06T11:28:49Z</time>
      </trkpt>
      <trkpt lat="44.28283" lon="6.11206">
        <ele>1513.73291</ele>
        <time>2011-09-06T11:28:54Z</time>
      </trkpt>
      <trkpt lat="44.28294" lon="6.11192">
        <ele>1510.368408</ele>
        <time>2011-09-06T11:29:09Z</time>
      </trkpt>
      <trkpt lat="44.28295" lon="6.11191">
        <ele>1509.887695</ele>
        <time>2011-09-06T11:29:10Z</time>
      </trkpt>
      <trkpt lat="44.28305" lon="6.11182">
        <ele>1507.003906</ele>
        <time>2011-09-06T11:29:26Z</time>
      </trkpt>
      <trkpt lat="44.28315" lon="6.11175">
        <ele>1503.158691</ele>
        <time>2011-09-06T11:29:39Z</time>
      </trkpt>
      <trkpt lat="44.28326" lon="6.11164">
        <ele>1500.274902</ele>
        <time>2011-09-06T11:29:53Z</time>
      </trkpt>
      <trkpt lat="44.28335" lon="6.11157">
        <ele>1498.351807</ele>
        <time>2011-09-06T11:30:04Z</time>
      </trkpt>
      <trkpt lat="44.28345" lon="6.11143">
        <ele>1495.94873</ele>
        <time>2011-09-06T11:30:21Z</time>
      </trkpt>
      <trkpt lat="44.28356" lon="6.11136">
        <ele>1493.064697</ele>
        <time>2011-09-06T11:30:37Z</time>
      </trkpt>
      <trkpt lat="44.28358" lon="6.11134">
        <ele>1492.584229</ele>
        <time>2011-09-06T11:30:41Z</time>
      </trkpt>
      <trkpt lat="44.28371" lon="6.11123">
        <ele>1489.219482</ele>
        <time>2011-09-06T11:30:56Z</time>
      </trkpt>
      <trkpt lat="44.28386" lon="6.11118">
        <ele>1485.85498</ele>
        <time>2011-09-06T11:31:12Z</time>
      </trkpt>
      <trkpt lat="44.28394" lon="6.11112">
        <ele>1482.970703</ele>
        <time>2011-09-06T11:31:23Z</time>
      </trkpt>
      <trkpt lat="44.28402" lon="6.11101">
        <ele>1480.086914</ele>
        <time>2011-09-06T11:31:36Z</time>
      </trkpt>
      <trkpt lat="44.28411" lon="6.1109">
        <ele>1476.722412</ele>
        <time>2011-09-06T11:31:52Z</time>
      </trkpt>
      <trkpt lat="44.28418" lon="6.11077">
        <ele>1473.35791</ele>
        <time>2011-09-06T11:32:06Z</time>
      </trkpt>
      <trkpt lat="44.28423" lon="6.11064">
        <ele>1473.35791</ele>
        <time>2011-09-06T11:32:16Z</time>
      </trkpt>
      <trkpt lat="44.28437" lon="6.11052">
        <ele>1471.435059</ele>
        <time>2011-09-06T11:32:34Z</time>
      </trkpt>
      <trkpt lat="44.28448" lon="6.11047">
        <ele>1468.070557</ele>
        <time>2011-09-06T11:32:49Z</time>
      </trkpt>
      <trkpt lat="44.28455" lon="6.1104">
        <ele>1466.147705</ele>
        <time>2011-09-06T11:32:58Z</time>
      </trkpt>
      <trkpt lat="44.28468" lon="6.11029">
        <ele>1463.263916</ele>
        <time>2011-09-06T11:33:13Z</time>
      </trkpt>
      <trkpt lat="44.28482" lon="6.11017">
        <ele>1460.860596</ele>
        <time>2011-09-06T11:33:32Z</time>
      </trkpt>
      <trkpt lat="44.28488" lon="6.1101">
        <ele>1457.976807</ele>
        <time>2011-09-06T11:33:44Z</time>
      </trkpt>
      <trkpt lat="44.28498" lon="6.10998">
        <ele>1455.092773</ele>
        <time>2011-09-06T11:33:58Z</time>
      </trkpt>
      <trkpt lat="44.28508" lon="6.10998">
        <ele>1451.247314</ele>
        <time>2011-09-06T11:34:17Z</time>
      </trkpt>
      <trkpt lat="44.28515" lon="6.11006">
        <ele>1448.363281</ele>
        <time>2011-09-06T11:34:29Z</time>
      </trkpt>
      <trkpt lat="44.28522" lon="6.10999">
        <ele>1444.998779</ele>
        <time>2011-09-06T11:34:41Z</time>
      </trkpt>
      <trkpt lat="44.28527" lon="6.10978">
        <ele>1442.11499</ele>
        <time>2011-09-06T11:34:58Z</time>
      </trkpt>
      <trkpt lat="44.28536" lon="6.10965">
        <ele>1439.230957</ele>
        <time>2011-09-06T11:35:15Z</time>
      </trkpt>
      <trkpt lat="44.28545" lon="6.10955">
        <ele>1435.866211</ele>
        <time>2011-09-06T11:35:31Z</time>
      </trkpt>
      <trkpt lat="44.28546" lon="6.10954">
        <ele>1435.385498</ele>
        <time>2011-09-06T11:35:32Z</time>
      </trkpt>
      <trkpt lat="44.28549" lon="6.10946">
        <ele>1433.943604</ele>
        <time>2011-09-06T11:35:39Z</time>
      </trkpt>
      <trkpt lat="44.28555" lon="6.10924">
        <ele>1430.579102</ele>
        <time>2011-09-06T11:35:59Z</time>
      </trkpt>
      <trkpt lat="44.28565" lon="6.10928">
        <ele>1427.2146</ele>
        <time>2011-09-06T11:36:13Z</time>
      </trkpt>
      <trkpt lat="44.28577" lon="6.10925">
        <ele>1424.330566</ele>
        <time>2011-09-06T11:36:29Z</time>
      </trkpt>
      <trkpt lat="44.28588" lon="6.10925">
        <ele>1420.966064</ele>
        <time>2011-09-06T11:36:46Z</time>
      </trkpt>
      <trkpt lat="44.28598" lon="6.10922">
        <ele>1418.081787</ele>
        <time>2011-09-06T11:37:00Z</time>
      </trkpt>
      <trkpt lat="44.28609" lon="6.10928">
        <ele>1414.717285</ele>
        <time>2011-09-06T11:37:14Z</time>
      </trkpt>
      <trkpt lat="44.28622" lon="6.10936">
        <ele>1411.352783</ele>
        <time>2011-09-06T11:37:36Z</time>
      </trkpt>
      <trkpt lat="44.2863" lon="6.10939">
        <ele>1407.988281</ele>
        <time>2011-09-06T11:37:55Z</time>
      </trkpt>
      <trkpt lat="44.28637" lon="6.10951">
        <ele>1405.104248</ele>
        <time>2011-09-06T11:38:13Z</time>
      </trkpt>
      <trkpt lat="44.28639" lon="6.10951">
        <ele>1404.623535</ele>
        <time>2011-09-06T11:38:15Z</time>
      </trkpt>
      <trkpt lat="44.2865" lon="6.10958">
        <ele>1401.258789</ele>
        <time>2011-09-06T11:38:30Z</time>
      </trkpt>
      <trkpt lat="44.28663" lon="6.10959">
        <ele>1397.894287</ele>
        <time>2011-09-06T11:38:48Z</time>
      </trkpt>
      <trkpt lat="44.28675" lon="6.10963">
        <ele>1395.010254</ele>
        <time>2011-09-06T11:39:02Z</time>
      </trkpt>
      <trkpt lat="44.28688" lon="6.10962">
        <ele>1391.645752</ele>
        <time>2011-09-06T11:39:19Z</time>
      </trkpt>
      <trkpt lat="44.287" lon="6.10965">
        <ele>1388.28125</ele>
        <time>2011-09-06T11:39:35Z</time>
      </trkpt>
      <trkpt lat="44.28705" lon="6.10966">
        <ele>1387.31958</ele>
        <time>2011-09-06T11:39:42Z</time>
      </trkpt>
      <trkpt lat="44.28715" lon="6.10968">
        <ele>1384.435791</ele>
        <time>2011-09-06T11:39:56Z</time>
      </trkpt>
      <trkpt lat="44.28729" lon="6.10966">
        <ele>1381.551758</ele>
        <time>2011-09-06T11:40:14Z</time>
      </trkpt>
      <trkpt lat="44.28737" lon="6.10977">
        <ele>1378.187256</ele>
        <time>2011-09-06T11:40:28Z</time>
      </trkpt>
      <trkpt lat="44.28738" lon="6.10999">
        <ele>1374.822754</ele>
        <time>2011-09-06T11:40:46Z</time>
      </trkpt>
      <trkpt lat="44.28735" lon="6.11004">
        <ele>1374.342041</ele>
        <time>2011-09-06T11:40:51Z</time>
      </trkpt>
      <trkpt lat="44.28728" lon="6.11023">
        <ele>1371.457764</ele>
        <time>2011-09-06T11:41:07Z</time>
      </trkpt>
      <trkpt lat="44.28719" lon="6.11041">
        <ele>1368.093262</ele>
        <time>2011-09-06T11:41:26Z</time>
      </trkpt>
      <trkpt lat="44.28721" lon="6.11047">
        <ele>1366.651367</ele>
        <time>2011-09-06T11:41:36Z</time>
      </trkpt>
      <trkpt lat="44.28728" lon="6.11051">
        <ele>1363.767334</ele>
        <time>2011-09-06T11:41:46Z</time>
      </trkpt>
      <trkpt lat="44.28739" lon="6.11058">
        <ele>1360.883545</ele>
        <time>2011-09-06T11:42:05Z</time>
      </trkpt>
      <trkpt lat="44.28736" lon="6.11068">
        <ele>1358.480225</ele>
        <time>2011-09-06T11:42:16Z</time>
      </trkpt>
      <trkpt lat="44.28745" lon="6.11075">
        <ele>1355.596191</ele>
        <time>2011-09-06T11:42:30Z</time>
      </trkpt>
      <trkpt lat="44.28753" lon="6.11084">
        <ele>1352.231445</ele>
        <time>2011-09-06T11:42:45Z</time>
      </trkpt>
      <trkpt lat="44.28764" lon="6.11094">
        <ele>1349.347656</ele>
        <time>2011-09-06T11:43:00Z</time>
      </trkpt>
      <trkpt lat="44.28763" lon="6.11114">
        <ele>1346.463867</ele>
        <time>2011-09-06T11:43:21Z</time>
      </trkpt>
      <trkpt lat="44.28755" lon="6.1112">
        <ele>1343.099121</ele>
        <time>2011-09-06T11:43:36Z</time>
      </trkpt>
      <trkpt lat="44.28747" lon="6.11128">
        <ele>1338.29248</ele>
        <time>2011-09-06T11:43:52Z</time>
      </trkpt>
      <trkpt lat="44.28747" lon="6.11128">
        <ele>1338.29248</ele>
        <time>2011-09-06T11:43:53Z</time>
      </trkpt>
      <trkpt lat="44.28742" lon="6.11135">
        <ele>1337.331055</ele>
        <time>2011-09-06T11:44:04Z</time>
      </trkpt>
      <trkpt lat="44.28735" lon="6.11145">
        <ele>1335.408447</ele>
        <time>2011-09-06T11:44:20Z</time>
      </trkpt>
      <trkpt lat="44.2874" lon="6.11156">
        <ele>1332.043945</ele>
        <time>2011-09-06T11:44:34Z</time>
      </trkpt>
      <trkpt lat="44.28748" lon="6.11171">
        <ele>1328.679443</ele>
        <time>2011-09-06T11:44:54Z</time>
      </trkpt>
      <trkpt lat="44.28749" lon="6.11173">
        <ele>1327.237549</ele>
        <time>2011-09-06T11:44:58Z</time>
      </trkpt>
      <trkpt lat="44.28748" lon="6.11182">
        <ele>1324.834229</ele>
        <time>2011-09-06T11:45:14Z</time>
      </trkpt>
      <trkpt lat="44.28742" lon="6.11203">
        <ele>1321.949951</ele>
        <time>2011-09-06T11:45:34Z</time>
      </trkpt>
      <trkpt lat="44.2874" lon="6.11214">
        <ele>1319.546875</ele>
        <time>2011-09-06T11:45:53Z</time>
      </trkpt>
      <trkpt lat="44.28742" lon="6.11222">
        <ele>1317.143555</ele>
        <time>2011-09-06T11:46:12Z</time>
      </trkpt>
      <trkpt lat="44.2875" lon="6.11225">
        <ele>1313.778809</ele>
        <time>2011-09-06T11:46:24Z</time>
      </trkpt>
      <trkpt lat="44.28754" lon="6.11226">
        <ele>1312.817627</ele>
        <time>2011-09-06T11:46:28Z</time>
      </trkpt>
      <trkpt lat="44.2876" lon="6.11224">
        <ele>1311.375732</ele>
        <time>2011-09-06T11:46:35Z</time>
      </trkpt>
      <trkpt lat="44.28765" lon="6.11224">
        <ele>1310.414307</ele>
        <time>2011-09-06T11:46:39Z</time>
      </trkpt>
      <trkpt lat="44.28778" lon="6.11223">
        <ele>1307.049561</ele>
        <time>2011-09-06T11:46:57Z</time>
      </trkpt>
      <trkpt lat="44.28789" lon="6.11216">
        <ele>1305.607666</ele>
        <time>2011-09-06T11:47:12Z</time>
      </trkpt>
      <trkpt lat="44.28806" lon="6.11208">
        <ele>1301.762451</ele>
        <time>2011-09-06T11:47:34Z</time>
      </trkpt>
      <trkpt lat="44.28813" lon="6.11204">
        <ele>1300.320557</ele>
        <time>2011-09-06T11:47:42Z</time>
      </trkpt>
      <trkpt lat="44.28821" lon="6.11204">
        <ele>1299.359131</ele>
        <time>2011-09-06T11:47:50Z</time>
      </trkpt>
      <trkpt lat="44.28845" lon="6.11208">
        <ele>1295.994629</ele>
        <time>2011-09-06T11:48:11Z</time>
      </trkpt>
      <trkpt lat="44.28856" lon="6.1121">
        <ele>1295.033203</ele>
        <time>2011-09-06T11:48:21Z</time>
      </trkpt>
      <trkpt lat="44.28862" lon="6.11219">
        <ele>1291.668457</ele>
        <time>2011-09-06T11:48:33Z</time>
      </trkpt>
      <trkpt lat="44.28867" lon="6.11226">
        <ele>1288.784668</ele>
        <time>2011-09-06T11:48:49Z</time>
      </trkpt>
      <trkpt lat="44.28869" lon="6.11226">
        <ele>1288.784668</ele>
        <time>2011-09-06T11:48:52Z</time>
      </trkpt>
      <trkpt lat="44.28871" lon="6.11223">
        <ele>1287.823242</ele>
        <time>2011-09-06T11:48:59Z</time>
      </trkpt>
      <trkpt lat="44.28883" lon="6.11222">
        <ele>1285.900635</ele>
        <time>2011-09-06T11:49:14Z</time>
      </trkpt>
      <trkpt lat="44.28884" lon="6.11222">
        <ele>1285.900635</ele>
        <time>2011-09-06T11:49:15Z</time>
      </trkpt>
      <trkpt lat="44.28893" lon="6.11219">
        <ele>1284.939453</ele>
        <time>2011-09-06T11:49:24Z</time>
      </trkpt>
      <trkpt lat="44.28906" lon="6.11216">
        <ele>1282.05542</ele>
        <time>2011-09-06T11:49:39Z</time>
      </trkpt>
      <trkpt lat="44.28911" lon="6.11215">
        <ele>1280.132813</ele>
        <time>2011-09-06T11:49:45Z</time>
      </trkpt>
      <trkpt lat="44.28927" lon="6.11213">
        <ele>1276.768311</ele>
        <time>2011-09-06T11:50:02Z</time>
      </trkpt>
      <trkpt lat="44.28936" lon="6.11218">
        <ele>1274.364746</ele>
        <time>2011-09-06T11:50:12Z</time>
      </trkpt>
      <trkpt lat="44.28942" lon="6.1122">
        <ele>1273.884033</ele>
        <time>2011-09-06T11:50:18Z</time>
      </trkpt>
      <trkpt lat="44.28955" lon="6.1123">
        <ele>1270.038818</ele>
        <time>2011-09-06T11:50:34Z</time>
      </trkpt>
      <trkpt lat="44.28964" lon="6.11237">
        <ele>1267.155029</ele>
        <time>2011-09-06T11:50:48Z</time>
      </trkpt>
      <trkpt lat="44.28975" lon="6.11242">
        <ele>1264.270996</ele>
        <time>2011-09-06T11:51:05Z</time>
      </trkpt>
      <trkpt lat="44.28982" lon="6.11238">
        <ele>1262.348389</ele>
        <time>2011-09-06T11:51:21Z</time>
      </trkpt>
      <trkpt lat="44.28989" lon="6.11233">
        <ele>1261.86792</ele>
        <time>2011-09-06T11:51:36Z</time>
      </trkpt>
      <trkpt lat="44.29001" lon="6.1123">
        <ele>1258.50293</ele>
        <time>2011-09-06T11:51:53Z</time>
      </trkpt>
      <trkpt lat="44.29006" lon="6.11241">
        <ele>1255.619141</ele>
        <time>2011-09-06T11:52:07Z</time>
      </trkpt>
      <trkpt lat="44.29015" lon="6.11246">
        <ele>1252.735107</ele>
        <time>2011-09-06T11:52:21Z</time>
      </trkpt>
      <trkpt lat="44.29028" lon="6.11249">
        <ele>1249.370605</ele>
        <time>2011-09-06T11:52:37Z</time>
      </trkpt>
      <trkpt lat="44.29032" lon="6.11248">
        <ele>1248.40918</ele>
        <time>2011-09-06T11:52:42Z</time>
      </trkpt>
      <trkpt lat="44.29044" lon="6.11224">
        <ele>1245.044678</ele>
        <time>2011-09-06T11:53:05Z</time>
      </trkpt>
      <trkpt lat="44.29054" lon="6.11214">
        <ele>1241.679932</ele>
        <time>2011-09-06T11:53:21Z</time>
      </trkpt>
      <trkpt lat="44.29064" lon="6.11227">
        <ele>1238.796143</ele>
        <time>2011-09-06T11:53:37Z</time>
      </trkpt>
      <trkpt lat="44.29075" lon="6.1124">
        <ele>1234.950928</ele>
        <time>2011-09-06T11:53:56Z</time>
      </trkpt>
      <trkpt lat="44.2908" lon="6.1125">
        <ele>1233.989502</ele>
        <time>2011-09-06T11:54:06Z</time>
      </trkpt>
      <trkpt lat="44.29079" lon="6.11272">
        <ele>1230.144287</ele>
        <time>2011-09-06T11:54:24Z</time>
      </trkpt>
      <trkpt lat="44.29085" lon="6.11286">
        <ele>1226.779541</ele>
        <time>2011-09-06T11:54:42Z</time>
      </trkpt>
      <trkpt lat="44.29083" lon="6.11303">
        <ele>1223.415039</ele>
        <time>2011-09-06T11:54:58Z</time>
      </trkpt>
      <trkpt lat="44.29078" lon="6.11319">
        <ele>1221.9729</ele>
        <time>2011-09-06T11:55:14Z</time>
      </trkpt>
      <trkpt lat="44.29078" lon="6.11323">
        <ele>1221.9729</ele>
        <time>2011-09-06T11:55:17Z</time>
      </trkpt>
      <trkpt lat="44.29079" lon="6.11347">
        <ele>1218.608398</ele>
        <time>2011-09-06T11:55:40Z</time>
      </trkpt>
      <trkpt lat="44.29086" lon="6.11349">
        <ele>1215.243896</ele>
        <time>2011-09-06T11:55:56Z</time>
      </trkpt>
      <trkpt lat="44.29095" lon="6.11345">
        <ele>1213.321289</ele>
        <time>2011-09-06T11:56:16Z</time>
      </trkpt>
      <trkpt lat="44.291" lon="6.11343">
        <ele>1211.87915</ele>
        <time>2011-09-06T11:56:28Z</time>
      </trkpt>
      <trkpt lat="44.291" lon="6.11346">
        <ele>1210.437012</ele>
        <time>2011-09-06T11:56:40Z</time>
      </trkpt>
      <trkpt lat="44.29102" lon="6.11344">
        <ele>1209.956299</ele>
        <time>2011-09-06T11:56:42Z</time>
      </trkpt>
      <trkpt lat="44.29106" lon="6.11334">
        <ele>1209.956299</ele>
        <time>2011-09-06T11:56:56Z</time>
      </trkpt>
      <trkpt lat="44.29114" lon="6.11341">
        <ele>1206.591797</ele>
        <time>2011-09-06T11:57:13Z</time>
      </trkpt>
      <trkpt lat="44.29107" lon="6.11355">
        <ele>1208.995117</ele>
        <time>2011-09-06T11:57:32Z</time>
      </trkpt>
      <trkpt lat="44.29109" lon="6.11355">
        <ele>1207.553223</ele>
        <time>2011-09-06T11:57:47Z</time>
      </trkpt>
      <trkpt lat="44.29114" lon="6.1136">
        <ele>1208.033936</ele>
        <time>2011-09-06T11:58:05Z</time>
      </trkpt>
      <trkpt lat="44.29112" lon="6.11357">
        <ele>1205.630615</ele>
        <time>2011-09-06T11:58:17Z</time>
      </trkpt>
      <trkpt lat="44.29121" lon="6.1136">
        <ele>1203.227295</ele>
        <time>2011-09-06T11:58:35Z</time>
      </trkpt>
      <trkpt lat="44.29127" lon="6.11367">
        <ele>1200.343506</ele>
        <time>2011-09-06T11:58:51Z</time>
      </trkpt>
      <trkpt lat="44.29131" lon="6.11379">
        <ele>1197.459473</ele>
        <time>2011-09-06T11:59:06Z</time>
      </trkpt>
      <trkpt lat="44.2913" lon="6.11384">
        <ele>1196.498291</ele>
        <time>2011-09-06T11:59:23Z</time>
      </trkpt>
      <trkpt lat="44.29139" lon="6.11377">
        <ele>1193.133301</ele>
        <time>2011-09-06T11:59:43Z</time>
      </trkpt>
      <trkpt lat="44.29135" lon="6.11376">
        <ele>1194.094727</ele>
        <time>2011-09-06T11:59:54Z</time>
      </trkpt>
      <trkpt lat="44.2913" lon="6.11387">
        <ele>1196.017578</ele>
        <time>2011-09-06T12:00:10Z</time>
      </trkpt>
      <trkpt lat="44.29133" lon="6.11388">
        <ele>1193.614014</ele>
        <time>2011-09-06T12:00:25Z</time>
      </trkpt>
      <trkpt lat="44.29142" lon="6.11391">
        <ele>1190.249512</ele>
        <time>2011-09-06T12:00:39Z</time>
      </trkpt>
      <trkpt lat="44.29145" lon="6.11394">
        <ele>1189.288086</ele>
        <time>2011-09-06T12:00:44Z</time>
      </trkpt>
      <trkpt lat="44.29152" lon="6.11406">
        <ele>1186.404297</ele>
        <time>2011-09-06T12:01:03Z</time>
      </trkpt>
      <trkpt lat="44.29157" lon="6.11408">
        <ele>1185.442871</ele>
        <time>2011-09-06T12:01:18Z</time>
      </trkpt>
      <trkpt lat="44.29164" lon="6.11419">
        <ele>1184.481689</ele>
        <time>2011-09-06T12:01:28Z</time>
      </trkpt>
      <trkpt lat="44.29163" lon="6.11429">
        <ele>1182.078369</ele>
        <time>2011-09-06T12:01:42Z</time>
      </trkpt>
      <trkpt lat="44.29164" lon="6.11436">
        <ele>1179.194092</ele>
        <time>2011-09-06T12:02:02Z</time>
      </trkpt>
      <trkpt lat="44.29163" lon="6.11446">
        <ele>1176.310303</ele>
        <time>2011-09-06T12:02:23Z</time>
      </trkpt>
      <trkpt lat="44.2917" lon="6.11448">
        <ele>1173.906982</ele>
        <time>2011-09-06T12:02:37Z</time>
      </trkpt>
      <trkpt lat="44.29179" lon="6.11451">
        <ele>1172.465088</ele>
        <time>2011-09-06T12:02:53Z</time>
      </trkpt>
      <trkpt lat="44.29187" lon="6.11451">
        <ele>1170.54248</ele>
        <time>2011-09-06T12:03:11Z</time>
      </trkpt>
      <trkpt lat="44.2919" lon="6.11453">
        <ele>1169.100586</ele>
        <time>2011-09-06T12:03:24Z</time>
      </trkpt>
      <trkpt lat="44.29196" lon="6.11459">
        <ele>1165.736084</ele>
        <time>2011-09-06T12:03:42Z</time>
      </trkpt>
      <trkpt lat="44.29202" lon="6.11461">
        <ele>1163.812988</ele>
        <time>2011-09-06T12:03:57Z</time>
      </trkpt>
      <trkpt lat="44.29206" lon="6.11465">
        <ele>1162.371094</ele>
        <time>2011-09-06T12:04:16Z</time>
      </trkpt>
      <trkpt lat="44.29206" lon="6.1147">
        <ele>1159.006592</ele>
        <time>2011-09-06T12:04:39Z</time>
      </trkpt>
      <trkpt lat="44.29206" lon="6.11474">
        <ele>1159.006592</ele>
        <time>2011-09-06T12:04:52Z</time>
      </trkpt>
      <trkpt lat="44.29207" lon="6.1148">
        <ele>1155.64209</ele>
        <time>2011-09-06T12:05:07Z</time>
      </trkpt>
      <trkpt lat="44.29208" lon="6.11484">
        <ele>1154.200195</ele>
        <time>2011-09-06T12:05:21Z</time>
      </trkpt>
      <trkpt lat="44.29214" lon="6.11482">
        <ele>1153.719482</ele>
        <time>2011-09-06T12:05:35Z</time>
      </trkpt>
      <trkpt lat="44.2922" lon="6.11481">
        <ele>1151.796875</ele>
        <time>2011-09-06T12:05:49Z</time>
      </trkpt>
      <trkpt lat="44.29223" lon="6.11487">
        <ele>1149.393555</ele>
        <time>2011-09-06T12:06:05Z</time>
      </trkpt>
      <trkpt lat="44.29228" lon="6.1149">
        <ele>1147.470703</ele>
        <time>2011-09-06T12:06:19Z</time>
      </trkpt>
      <trkpt lat="44.29229" lon="6.1149">
        <ele>1147.470703</ele>
        <time>2011-09-06T12:06:32Z</time>
      </trkpt>
      <trkpt lat="44.29237" lon="6.1149">
        <ele>1146.509521</ele>
        <time>2011-09-06T12:06:47Z</time>
      </trkpt>
      <trkpt lat="44.2924" lon="6.11494">
        <ele>1146.028809</ele>
        <time>2011-09-06T12:07:08Z</time>
      </trkpt>
      <trkpt lat="44.29241" lon="6.11496">
        <ele>1144.58667</ele>
        <time>2011-09-06T12:07:19Z</time>
      </trkpt>
      <trkpt lat="44.2925" lon="6.11504">
        <ele>1142.664307</ele>
        <time>2011-09-06T12:07:34Z</time>
      </trkpt>
      <trkpt lat="44.29259" lon="6.11501">
        <ele>1140.741455</ele>
        <time>2011-09-06T12:07:46Z</time>
      </trkpt>
      <trkpt lat="44.2927" lon="6.11495">
        <ele>1138.338379</ele>
        <time>2011-09-06T12:08:05Z</time>
      </trkpt>
      <trkpt lat="44.2928" lon="6.11489">
        <ele>1135.454346</ele>
        <time>2011-09-06T12:08:22Z</time>
      </trkpt>
      <trkpt lat="44.29283" lon="6.11488">
        <ele>1134.012451</ele>
        <time>2011-09-06T12:08:28Z</time>
      </trkpt>
      <trkpt lat="44.29293" lon="6.11482">
        <ele>1131.608887</ele>
        <time>2011-09-06T12:08:42Z</time>
      </trkpt>
      <trkpt lat="44.293" lon="6.11476">
        <ele>1128.244385</ele>
        <time>2011-09-06T12:08:57Z</time>
      </trkpt>
      <trkpt lat="44.29302" lon="6.11471">
        <ele>1125.841064</ele>
        <time>2011-09-06T12:09:13Z</time>
      </trkpt>
      <trkpt lat="44.29306" lon="6.11466">
        <ele>1123.437988</ele>
        <time>2011-09-06T12:09:26Z</time>
      </trkpt>
      <trkpt lat="44.29308" lon="6.11457">
        <ele>1121.99585</ele>
        <time>2011-09-06T12:09:37Z</time>
      </trkpt>
      <trkpt lat="44.29312" lon="6.11447">
        <ele>1118.150635</ele>
        <time>2011-09-06T12:09:52Z</time>
      </trkpt>
      <trkpt lat="44.29324" lon="6.11439">
        <ele>1114.785889</ele>
        <time>2011-09-06T12:10:08Z</time>
      </trkpt>
      <trkpt lat="44.2933" lon="6.11425">
        <ele>1111.421387</ele>
        <time>2011-09-06T12:10:23Z</time>
      </trkpt>
      <trkpt lat="44.2933" lon="6.11408">
        <ele>1110.459961</ele>
        <time>2011-09-06T12:10:42Z</time>
      </trkpt>
      <trkpt lat="44.29338" lon="6.11407">
        <ele>1109.018066</ele>
        <time>2011-09-06T12:10:56Z</time>
      </trkpt>
      <trkpt lat="44.29342" lon="6.1139">
        <ele>1106.614746</ele>
        <time>2011-09-06T12:11:13Z</time>
      </trkpt>
      <trkpt lat="44.29343" lon="6.11385">
        <ele>1105.653564</ele>
        <time>2011-09-06T12:11:18Z</time>
      </trkpt>
      <trkpt lat="44.29341" lon="6.11381">
        <ele>1104.692139</ele>
        <time>2011-09-06T12:11:22Z</time>
      </trkpt>
      <trkpt lat="44.29349" lon="6.11371">
        <ele>1101.80835</ele>
        <time>2011-09-06T12:11:36Z</time>
      </trkpt>
      <trkpt lat="44.29352" lon="6.1137">
        <ele>1100.846924</ele>
        <time>2011-09-06T12:11:40Z</time>
      </trkpt>
      <trkpt lat="44.29358" lon="6.11369">
        <ele>1099.885498</ele>
        <time>2011-09-06T12:11:52Z</time>
      </trkpt>
      <trkpt lat="44.29368" lon="6.11366">
        <ele>1098.443359</ele>
        <time>2011-09-06T12:12:05Z</time>
      </trkpt>
      <trkpt lat="44.29378" lon="6.11353">
        <ele>1097.482178</ele>
        <time>2011-09-06T12:12:15Z</time>
      </trkpt>
      <trkpt lat="44.29385" lon="6.11336">
        <ele>1095.078857</ele>
        <time>2011-09-06T12:12:33Z</time>
      </trkpt>
      <trkpt lat="44.29372" lon="6.1132">
        <ele>1094.598145</ele>
        <time>2011-09-06T12:12:54Z</time>
      </trkpt>
      <trkpt lat="44.29371" lon="6.11319">
        <ele>1093.15625</ele>
        <time>2011-09-06T12:13:08Z</time>
      </trkpt>
      <trkpt lat="44.2937" lon="6.1132">
        <ele>1093.15625</ele>
        <time>2011-09-06T12:13:26Z</time>
      </trkpt>
      <trkpt lat="44.29368" lon="6.11329">
        <ele>1093.636963</ele>
        <time>2011-09-06T12:13:54Z</time>
      </trkpt>
      <trkpt lat="44.29369" lon="6.11328">
        <ele>1094.117676</ele>
        <time>2011-09-06T12:13:57Z</time>
      </trkpt>
      <trkpt lat="44.29371" lon="6.11321">
        <ele>1093.15625</ele>
        <time>2011-09-06T12:14:01Z</time>
      </trkpt>
      <trkpt lat="44.29379" lon="6.11323">
        <ele>1093.636963</ele>
        <time>2011-09-06T12:14:06Z</time>
      </trkpt>
      <trkpt lat="44.29399" lon="6.11324">
        <ele>1094.598145</ele>
        <time>2011-09-06T12:14:24Z</time>
      </trkpt>
      <trkpt lat="44.2942" lon="6.11304">
        <ele>1094.117676</ele>
        <time>2011-09-06T12:14:44Z</time>
      </trkpt>
      <trkpt lat="44.29429" lon="6.11295">
        <ele>1091.714355</ele>
        <time>2011-09-06T12:14:54Z</time>
      </trkpt>
      <trkpt lat="44.29441" lon="6.11285">
        <ele>1088.349854</ele>
        <time>2011-09-06T12:15:09Z</time>
      </trkpt>
      <trkpt lat="44.29456" lon="6.11278">
        <ele>1085.46582</ele>
        <time>2011-09-06T12:15:25Z</time>
      </trkpt>
      <trkpt lat="44.29467" lon="6.11278">
        <ele>1083.062256</ele>
        <time>2011-09-06T12:15:38Z</time>
      </trkpt>
      <trkpt lat="44.29477" lon="6.11276">
        <ele>1079.697754</ele>
        <time>2011-09-06T12:15:49Z</time>
      </trkpt>
      <trkpt lat="44.29481" lon="6.11275">
        <ele>1078.736572</ele>
        <time>2011-09-06T12:15:54Z</time>
      </trkpt>
      <trkpt lat="44.29483" lon="6.11272">
        <ele>1077.294678</ele>
        <time>2011-09-06T12:16:01Z</time>
      </trkpt>
      <trkpt lat="44.29496" lon="6.11259">
        <ele>1075.371826</ele>
        <time>2011-09-06T12:16:16Z</time>
      </trkpt>
      <trkpt lat="44.29498" lon="6.11252">
        <ele>1073.929932</ele>
        <time>2011-09-06T12:16:24Z</time>
      </trkpt>
      <trkpt lat="44.29513" lon="6.11234">
        <ele>1072.488037</ele>
        <time>2011-09-06T12:16:37Z</time>
      </trkpt>
      <trkpt lat="44.29514" lon="6.11232">
        <ele>1072.488037</ele>
        <time>2011-09-06T12:16:39Z</time>
      </trkpt>
      <trkpt lat="44.29513" lon="6.11228">
        <ele>1070.084717</ele>
        <time>2011-09-06T12:16:45Z</time>
      </trkpt>
      <trkpt lat="44.29516" lon="6.11224">
        <ele>1069.604248</ele>
        <time>2011-09-06T12:16:50Z</time>
      </trkpt>
      <trkpt lat="44.29521" lon="6.11233">
        <ele>1068.162109</ele>
        <time>2011-09-06T12:17:01Z</time>
      </trkpt>
      <trkpt lat="44.2953" lon="6.11237">
        <ele>1067.200684</ele>
        <time>2011-09-06T12:17:10Z</time>
      </trkpt>
      <trkpt lat="44.29535" lon="6.11239">
        <ele>1065.278076</ele>
        <time>2011-09-06T12:17:16Z</time>
      </trkpt>
      <trkpt lat="44.29554" lon="6.11244">
        <ele>1063.355469</ele>
        <time>2011-09-06T12:17:37Z</time>
      </trkpt>
      <trkpt lat="44.2956" lon="6.11245">
        <ele>1065.278076</ele>
        <time>2011-09-06T12:17:43Z</time>
      </trkpt>
      <trkpt lat="44.29569" lon="6.11244">
        <ele>1063.835938</ele>
        <time>2011-09-06T12:17:57Z</time>
      </trkpt>
      <trkpt lat="44.29573" lon="6.11243">
        <ele>1063.355469</ele>
        <time>2011-09-06T12:18:01Z</time>
      </trkpt>
      <trkpt lat="44.29579" lon="6.11228">
        <ele>1060.952148</ele>
        <time>2011-09-06T12:18:17Z</time>
      </trkpt>
      <trkpt lat="44.29579" lon="6.11223">
        <ele>1060.952148</ele>
        <time>2011-09-06T12:18:21Z</time>
      </trkpt>
      <trkpt lat="44.29582" lon="6.11199">
        <ele>1062.394043</ele>
        <time>2011-09-06T12:18:35Z</time>
      </trkpt>
      <trkpt lat="44.29586" lon="6.11195">
        <ele>1062.874756</ele>
        <time>2011-09-06T12:18:41Z</time>
      </trkpt>
      <trkpt lat="44.29604" lon="6.11209">
        <ele>1059.990723</ele>
        <time>2011-09-06T12:18:58Z</time>
      </trkpt>
      <trkpt lat="44.29609" lon="6.11221">
        <ele>1059.029541</ele>
        <time>2011-09-06T12:19:09Z</time>
      </trkpt>
      <trkpt lat="44.29611" lon="6.11229">
        <ele>1059.029541</ele>
        <time>2011-09-06T12:19:14Z</time>
      </trkpt>
      <trkpt lat="44.29612" lon="6.11233">
        <ele>1058.548828</ele>
        <time>2011-09-06T12:19:17Z</time>
      </trkpt>
      <trkpt lat="44.29616" lon="6.1125">
        <ele>1059.029541</ele>
        <time>2011-09-06T12:19:30Z</time>
      </trkpt>
      <trkpt lat="44.29617" lon="6.1126">
        <ele>1059.029541</ele>
        <time>2011-09-06T12:19:36Z</time>
      </trkpt>
      <trkpt lat="44.29619" lon="6.11267">
        <ele>1059.029541</ele>
        <time>2011-09-06T12:19:41Z</time>
      </trkpt>
      <trkpt lat="44.29628" lon="6.11285">
        <ele>1058.548828</ele>
        <time>2011-09-06T12:19:55Z</time>
      </trkpt>
      <trkpt lat="44.29644" lon="6.11295">
        <ele>1058.548828</ele>
        <time>2011-09-06T12:20:11Z</time>
      </trkpt>
      <trkpt lat="44.29646" lon="6.11296">
        <ele>1058.548828</ele>
        <time>2011-09-06T12:20:12Z</time>
      </trkpt>
      <trkpt lat="44.29656" lon="6.11294">
        <ele>1057.106934</ele>
        <time>2011-09-06T12:20:23Z</time>
      </trkpt>
      <trkpt lat="44.29656" lon="6.11294">
        <ele>1056.145508</ele>
        <time>2011-09-06T12:20:26Z</time>
      </trkpt>
      <trkpt lat="44.29673" lon="6.11293">
        <ele>1056.626221</ele>
        <time>2011-09-06T12:20:40Z</time>
      </trkpt>
      <trkpt lat="44.29674" lon="6.11294">
        <ele>1056.626221</ele>
        <time>2011-09-06T12:20:41Z</time>
      </trkpt>
      <trkpt lat="44.29694" lon="6.113">
        <ele>1054.223145</ele>
        <time>2011-09-06T12:20:56Z</time>
      </trkpt>
      <trkpt lat="44.29709" lon="6.113">
        <ele>1054.223145</ele>
        <time>2011-09-06T12:21:08Z</time>
      </trkpt>
      <trkpt lat="44.29733" lon="6.11309">
        <ele>1052.300293</ele>
        <time>2011-09-06T12:21:31Z</time>
      </trkpt>
      <trkpt lat="44.29747" lon="6.11315">
        <ele>1051.338867</ele>
        <time>2011-09-06T12:21:47Z</time>
      </trkpt>
      <trkpt lat="44.29751" lon="6.11317">
        <ele>1048.935547</ele>
        <time>2011-09-06T12:21:51Z</time>
      </trkpt>
      <trkpt lat="44.29754" lon="6.11318">
        <ele>1047.974365</ele>
        <time>2011-09-06T12:21:54Z</time>
      </trkpt>
      <trkpt lat="44.2976" lon="6.11318">
        <ele>1047.493652</ele>
        <time>2011-09-06T12:21:59Z</time>
      </trkpt>
      <trkpt lat="44.29779" lon="6.11322">
        <ele>1045.090332</ele>
        <time>2011-09-06T12:22:20Z</time>
      </trkpt>
      <trkpt lat="44.29784" lon="6.11322">
        <ele>1045.090332</ele>
        <time>2011-09-06T12:22:24Z</time>
      </trkpt>
      <trkpt lat="44.29786" lon="6.11321">
        <ele>1043.648438</ele>
        <time>2011-09-06T12:22:26Z</time>
      </trkpt>
      <trkpt lat="44.29802" lon="6.11313">
        <ele>1040.764404</ele>
        <time>2011-09-06T12:22:43Z</time>
      </trkpt>
      <trkpt lat="44.29808" lon="6.11312">
        <ele>1041.245117</ele>
        <time>2011-09-06T12:22:48Z</time>
      </trkpt>
      <trkpt lat="44.29833" lon="6.11316">
        <ele>1042.206543</ele>
        <time>2011-09-06T12:23:08Z</time>
      </trkpt>
      <trkpt lat="44.29841" lon="6.11322">
        <ele>1041.72583</ele>
        <time>2011-09-06T12:23:17Z</time>
      </trkpt>
      <trkpt lat="44.29846" lon="6.11324">
        <ele>1041.245117</ele>
        <time>2011-09-06T12:23:21Z</time>
      </trkpt>
      <trkpt lat="44.29855" lon="6.11335">
        <ele>1039.32251</ele>
        <time>2011-09-06T12:23:35Z</time>
      </trkpt>
      <trkpt lat="44.29866" lon="6.11339">
        <ele>1037.399902</ele>
        <time>2011-09-06T12:23:44Z</time>
      </trkpt>
      <trkpt lat="44.2988" lon="6.11337">
        <ele>1035.957764</ele>
        <time>2011-09-06T12:23:56Z</time>
      </trkpt>
      <trkpt lat="44.29894" lon="6.11344">
        <ele>1034.515869</ele>
        <time>2011-09-06T12:24:10Z</time>
      </trkpt>
      <trkpt lat="44.29896" lon="6.11348">
        <ele>1033.554443</ele>
        <time>2011-09-06T12:24:12Z</time>
      </trkpt>
      <trkpt lat="44.29908" lon="6.11353">
        <ele>1031.631836</ele>
        <time>2011-09-06T12:24:25Z</time>
      </trkpt>
      <trkpt lat="44.29917" lon="6.1136">
        <ele>1029.709229</ele>
        <time>2011-09-06T12:24:33Z</time>
      </trkpt>
      <trkpt lat="44.29918" lon="6.11363">
        <ele>1028.748047</ele>
        <time>2011-09-06T12:24:35Z</time>
      </trkpt>
      <trkpt lat="44.2992" lon="6.11367">
        <ele>1028.748047</ele>
        <time>2011-09-06T12:24:38Z</time>
      </trkpt>
      <trkpt lat="44.29927" lon="6.11381">
        <ele>1024.902832</ele>
        <time>2011-09-06T12:24:52Z</time>
      </trkpt>
      <trkpt lat="44.29929" lon="6.11385">
        <ele>1023.460938</ele>
        <time>2011-09-06T12:24:57Z</time>
      </trkpt>
      <trkpt lat="44.29933" lon="6.11396">
        <ele>1021.538086</ele>
        <time>2011-09-06T12:25:06Z</time>
      </trkpt>
      <trkpt lat="44.29934" lon="6.11398">
        <ele>1021.538086</ele>
        <time>2011-09-06T12:25:08Z</time>
      </trkpt>
      <trkpt lat="44.29939" lon="6.11391">
        <ele>1020.096191</ele>
        <time>2011-09-06T12:25:13Z</time>
      </trkpt>
      <trkpt lat="44.29949" lon="6.11385">
        <ele>1018.17334</ele>
        <time>2011-09-06T12:25:27Z</time>
      </trkpt>
      <trkpt lat="44.29962" lon="6.11388">
        <ele>1015.289551</ele>
        <time>2011-09-06T12:25:45Z</time>
      </trkpt>
      <trkpt lat="44.29976" lon="6.114">
        <ele>1012.405518</ele>
        <time>2011-09-06T12:26:05Z</time>
      </trkpt>
      <trkpt lat="44.29983" lon="6.1141">
        <ele>1009.041016</ele>
        <time>2011-09-06T12:26:21Z</time>
      </trkpt>
      <trkpt lat="44.29985" lon="6.11421">
        <ele>1005.676514</ele>
        <time>2011-09-06T12:26:37Z</time>
      </trkpt>
      <trkpt lat="44.29993" lon="6.11425">
        <ele>1003.272949</ele>
        <time>2011-09-06T12:26:52Z</time>
      </trkpt>
      <trkpt lat="44.30003" lon="6.11418">
        <ele>998.947021</ele>
        <time>2011-09-06T12:27:09Z</time>
      </trkpt>
      <trkpt lat="44.30003" lon="6.11418">
        <ele>998.947021</ele>
        <time>2011-09-06T12:27:10Z</time>
      </trkpt>
      <trkpt lat="44.30012" lon="6.1142">
        <ele>996.063232</ele>
        <time>2011-09-06T12:27:28Z</time>
      </trkpt>
      <trkpt lat="44.30018" lon="6.11417">
        <ele>994.621094</ele>
        <time>2011-09-06T12:27:41Z</time>
      </trkpt>
      <trkpt lat="44.30027" lon="6.1142">
        <ele>991.256592</ele>
        <time>2011-09-06T12:27:54Z</time>
      </trkpt>
      <trkpt lat="44.30037" lon="6.11429">
        <ele>987.891846</ele>
        <time>2011-09-06T12:28:10Z</time>
      </trkpt>
      <trkpt lat="44.30046" lon="6.11436">
        <ele>985.008057</ele>
        <time>2011-09-06T12:28:26Z</time>
      </trkpt>
      <trkpt lat="44.30051" lon="6.11438">
        <ele>983.085205</ele>
        <time>2011-09-06T12:28:34Z</time>
      </trkpt>
      <trkpt lat="44.30058" lon="6.1145">
        <ele>980.201416</ele>
        <time>2011-09-06T12:28:48Z</time>
      </trkpt>
      <trkpt lat="44.30061" lon="6.11461">
        <ele>977.798096</ele>
        <time>2011-09-06T12:28:59Z</time>
      </trkpt>
      <trkpt lat="44.30077" lon="6.11458">
        <ele>974.914307</ele>
        <time>2011-09-06T12:29:15Z</time>
      </trkpt>
      <trkpt lat="44.30077" lon="6.11453">
        <ele>974.914307</ele>
        <time>2011-09-06T12:29:18Z</time>
      </trkpt>
      <trkpt lat="44.30081" lon="6.11438">
        <ele>972.030273</ele>
        <time>2011-09-06T12:29:32Z</time>
      </trkpt>
      <trkpt lat="44.30081" lon="6.11424">
        <ele>968.665527</ele>
        <time>2011-09-06T12:29:49Z</time>
      </trkpt>
      <trkpt lat="44.30083" lon="6.11412">
        <ele>968.184814</ele>
        <time>2011-09-06T12:29:52Z</time>
      </trkpt>
      <trkpt lat="44.30085" lon="6.11404">
        <ele>966.74292</ele>
        <time>2011-09-06T12:29:55Z</time>
      </trkpt>
      <trkpt lat="44.30087" lon="6.11392">
        <ele>966.262207</ele>
        <time>2011-09-06T12:30:02Z</time>
      </trkpt>
      <trkpt lat="44.30087" lon="6.11387">
        <ele>965.781738</ele>
        <time>2011-09-06T12:30:06Z</time>
      </trkpt>
      <trkpt lat="44.30093" lon="6.11375">
        <ele>963.858887</ele>
        <time>2011-09-06T12:30:21Z</time>
      </trkpt>
      <trkpt lat="44.301" lon="6.11369">
        <ele>962.897705</ele>
        <time>2011-09-06T12:30:31Z</time>
      </trkpt>
      <trkpt lat="44.30104" lon="6.11363">
        <ele>962.897705</ele>
        <time>2011-09-06T12:30:34Z</time>
      </trkpt>
      <trkpt lat="44.30109" lon="6.11347">
        <ele>960.494385</ele>
        <time>2011-09-06T12:30:49Z</time>
      </trkpt>
      <trkpt lat="44.30106" lon="6.1133">
        <ele>957.129883</ele>
        <time>2011-09-06T12:31:10Z</time>
      </trkpt>
      <trkpt lat="44.30112" lon="6.1131">
        <ele>954.24585</ele>
        <time>2011-09-06T12:31:26Z</time>
      </trkpt>
      <trkpt lat="44.30128" lon="6.11286">
        <ele>952.803711</ele>
        <time>2011-09-06T12:31:39Z</time>
      </trkpt>
      <trkpt lat="44.30132" lon="6.11289">
        <ele>952.803711</ele>
        <time>2011-09-06T12:31:42Z</time>
      </trkpt>
      <trkpt lat="44.30135" lon="6.11295">
        <ele>952.803711</ele>
        <time>2011-09-06T12:31:49Z</time>
      </trkpt>
      <trkpt lat="44.30136" lon="6.11302">
        <ele>952.803711</ele>
        <time>2011-09-06T12:31:54Z</time>
      </trkpt>
      <trkpt lat="44.3015" lon="6.11328">
        <ele>952.803711</ele>
        <time>2011-09-06T12:32:13Z</time>
      </trkpt>
      <trkpt lat="44.30163" lon="6.11344">
        <ele>951.361816</ele>
        <time>2011-09-06T12:32:29Z</time>
      </trkpt>
      <trkpt lat="44.30164" lon="6.11346">
        <ele>950.881104</ele>
        <time>2011-09-06T12:32:31Z</time>
      </trkpt>
      <trkpt lat="44.30167" lon="6.11351">
        <ele>950.400635</ele>
        <time>2011-09-06T12:32:35Z</time>
      </trkpt>
      <trkpt lat="44.30169" lon="6.11353">
        <ele>950.881104</ele>
        <time>2011-09-06T12:32:37Z</time>
      </trkpt>
      <trkpt lat="44.30171" lon="6.11356">
        <ele>951.361816</ele>
        <time>2011-09-06T12:32:39Z</time>
      </trkpt>
      <trkpt lat="44.3018" lon="6.11366">
        <ele>951.842529</ele>
        <time>2011-09-06T12:32:52Z</time>
      </trkpt>
      <trkpt lat="44.30194" lon="6.11365">
        <ele>952.322998</ele>
        <time>2011-09-06T12:33:03Z</time>
      </trkpt>
      <trkpt lat="44.30209" lon="6.11368">
        <ele>948.477783</ele>
        <time>2011-09-06T12:33:20Z</time>
      </trkpt>
      <trkpt lat="44.30219" lon="6.11369">
        <ele>945.593994</ele>
        <time>2011-09-06T12:33:31Z</time>
      </trkpt>
      <trkpt lat="44.30228" lon="6.11368">
        <ele>943.671387</ele>
        <time>2011-09-06T12:33:45Z</time>
      </trkpt>
      <trkpt lat="44.30241" lon="6.11364">
        <ele>941.268066</ele>
        <time>2011-09-06T12:33:57Z</time>
      </trkpt>
      <trkpt lat="44.3025" lon="6.11365">
        <ele>939.345215</ele>
        <time>2011-09-06T12:34:06Z</time>
      </trkpt>
      <trkpt lat="44.30264" lon="6.1136">
        <ele>937.90332</ele>
        <time>2011-09-06T12:34:20Z</time>
      </trkpt>
      <trkpt lat="44.30266" lon="6.1136">
        <ele>937.90332</ele>
        <time>2011-09-06T12:34:22Z</time>
      </trkpt>
      <trkpt lat="44.30286" lon="6.11355">
        <ele>937.422607</ele>
        <time>2011-09-06T12:34:41Z</time>
      </trkpt>
      <trkpt lat="44.30297" lon="6.11343">
        <ele>937.422607</ele>
        <time>2011-09-06T12:34:50Z</time>
      </trkpt>
      <trkpt lat="44.30301" lon="6.11333">
        <ele>936.941895</ele>
        <time>2011-09-06T12:35:00Z</time>
      </trkpt>
      <trkpt lat="44.30308" lon="6.11335">
        <ele>936.941895</ele>
        <time>2011-09-06T12:35:06Z</time>
      </trkpt>
      <trkpt lat="44.30315" lon="6.11344">
        <ele>937.90332</ele>
        <time>2011-09-06T12:35:16Z</time>
      </trkpt>
      <trkpt lat="44.30323" lon="6.1135">
        <ele>938.384033</ele>
        <time>2011-09-06T12:35:31Z</time>
      </trkpt>
      <trkpt lat="44.30339" lon="6.11352">
        <ele>938.864746</ele>
        <time>2011-09-06T12:35:39Z</time>
      </trkpt>
      <trkpt lat="44.30345" lon="6.11352">
        <ele>937.90332</ele>
        <time>2011-09-06T12:35:53Z</time>
      </trkpt>
      <trkpt lat="44.30345" lon="6.11358">
        <ele>937.422607</ele>
        <time>2011-09-06T12:36:08Z</time>
      </trkpt>
      <trkpt lat="44.3035" lon="6.11344">
        <ele>935.019531</ele>
        <time>2011-09-06T12:36:44Z</time>
      </trkpt>
      <trkpt lat="44.30349" lon="6.11332">
        <ele>935.019531</ele>
        <time>2011-09-06T12:37:01Z</time>
      </trkpt>
      <trkpt lat="44.3035" lon="6.11332">
        <ele>934.538818</ele>
        <time>2011-09-06T12:37:20Z</time>
      </trkpt>
      <trkpt lat="44.3035" lon="6.11332">
        <ele>935.019531</ele>
        <time>2011-09-06T12:37:34Z</time>
      </trkpt>
      <trkpt lat="44.30351" lon="6.11332">
        <ele>934.058105</ele>
        <time>2011-09-06T12:37:42Z</time>
      </trkpt>
    </trkseg>
  </trk>
  <trk>
    <name><![CDATA[Tracé]]></name>
    <trkseg>
      <trkpt lat="44.28164" lon="6.10558">
        <ele>1632.484375</ele>
      </trkpt>
      <trkpt lat="44.28202" lon="6.10474">
        <ele>1627.378906</ele>
      </trkpt>
      <trkpt lat="44.28252" lon="6.10397">
        <ele>1611.746094</ele>
      </trkpt>
      <trkpt lat="44.28284" lon="6.10282">
        <ele>1608.835938</ele>
      </trkpt>
      <trkpt lat="44.28315" lon="6.10213">
        <ele>1600.082031</ele>
      </trkpt>
      <trkpt lat="44.28372" lon="6.10105">
        <ele>1587.695313</ele>
      </trkpt>
      <trkpt lat="44.28435" lon="6.10036">
        <ele>1577.652344</ele>
      </trkpt>
      <trkpt lat="44.28479" lon="6.09967">
        <ele>1572.433594</ele>
      </trkpt>
      <trkpt lat="44.28479" lon="6.10059">
        <ele>1561.972656</ele>
      </trkpt>
      <trkpt lat="44.28567" lon="6.09998">
        <ele>1543.835938</ele>
      </trkpt>
      <trkpt lat="44.2863" lon="6.09929">
        <ele>1537.09375</ele>
      </trkpt>
      <trkpt lat="44.28686" lon="6.09852">
        <ele>1534.738281</ele>
      </trkpt>
      <trkpt lat="44.28749" lon="6.09821">
        <ele>1526.570313</ele>
      </trkpt>
      <trkpt lat="44.28831" lon="6.09767">
        <ele>1511.585938</ele>
      </trkpt>
      <trkpt lat="44.28938" lon="6.09675">
        <ele>1499.632813</ele>
      </trkpt>
      <trkpt lat="44.29032" lon="6.09645">
        <ele>1491.617188</ele>
      </trkpt>
      <trkpt lat="44.29095" lon="6.09637">
        <ele>1482.539063</ele>
      </trkpt>
      <trkpt lat="44.29164" lon="6.09652">
        <ele>1465.546875</ele>
      </trkpt>
      <trkpt lat="44.29271" lon="6.09629">
        <ele>1445.300781</ele>
      </trkpt>
    </trkseg>
  </trk>
</gpx>